PWSweather.com
Personal Weather Stations
Station Observations
SKYDIVEKS
Skydive Kansas, Osage City, KS 66523

Skydive KansasOsage City, KS 66523

Lat: 38.636, Lon: -95.803

Elevation: 1080

Station Type: La Crosse

http://www.skydivekansas.com

Latest ConditionsUpdated 11:18:00 PM CDT Friday, May 29, 2015
Currently Today's Max Today's Min Today's Average
Temperature 67.3°F19.6°C 82.4°F28.0°C 65.3°F18.5°C 70.3°F21.3°C
Dew Point 58.3°F14.6°C 68.3°F20.2°C 56.9°F13.8°C 60.6°F15.9°C
Winds Calm Calm 22.4 mph S36.0 kmh S - 5.4 mph 8.7 kmh
Wind Gusts -- 24.6 mph39.6 kmh - -
Humidity 73% 77% 61% 72%
Pressure 28.94 in980.0 mb 28.97 in981.0 mb 28.86 in977.3 mb -
Hour Temp Dew Point Humidity Winds Wind Gusts Pressure Precip Precip Rate Daily Precip Total
11:18 PM 67.3°F19.6°C 58.3°F14.6°C 73% Calm Calm -- 28.94 in980.0 mb 0.00 in0.0 mm 0.00 in0.0 mm 0.00 in0.0 mm
11:17 PM 67.3°F19.6°C 58.3°F14.6°C 73% Calm Calm -- 28.94 in980.0 mb 0.00 in0.0 mm 0.00 in0.0 mm 0.00 in0.0 mm
11:16 PM 67.3°F19.6°C 58.3°F14.6°C 73% Calm Calm -- 28.95 in980.4 mb 0.00 in0.0 mm 0.00 in0.0 mm 0.00 in0.0 mm
11:15 PM 67.3°F19.6°C 58.3°F14.6°C 73% Calm Calm -- 28.95 in980.4 mb 0.00 in0.0 mm 0.00 in0.0 mm 0.00 in0.0 mm
11:14 PM 67.3°F19.6°C 58.3°F14.6°C 73% Calm Calm -- 28.95 in980.4 mb 0.00 in0.0 mm 0.00 in0.0 mm 0.00 in0.0 mm
11:13 PM 67.3°F19.6°C 58.3°F14.6°C 73% Calm Calm -- 28.94 in980.0 mb 0.00 in0.0 mm 0.00 in0.0 mm 0.00 in0.0 mm
11:12 PM 67.3°F19.6°C 58.3°F14.6°C 73% Calm Calm -- 28.94 in980.0 mb 0.00 in0.0 mm 0.00 in0.0 mm 0.00 in0.0 mm
11:11 PM 67.3°F19.6°C 58.3°F14.6°C 73% Calm Calm -- 28.94 in980.0 mb 0.00 in0.0 mm 0.00 in0.0 mm 0.00 in0.0 mm
11:10 PM 67.3°F19.6°C 58.3°F14.6°C 73% Calm Calm -- 28.95 in980.4 mb 0.00 in0.0 mm 0.00 in0.0 mm 0.00 in0.0 mm
11:09 PM 67.3°F19.6°C 58.3°F14.6°C 73% Calm Calm -- 28.95 in980.4 mb 0.00 in0.0 mm 0.00 in0.0 mm 0.00 in0.0 mm
11:08 PM 67.3°F19.6°C 58.3°F14.6°C 73% Calm Calm -- 28.94 in980.0 mb 0.00 in0.0 mm 0.00 in0.0 mm 0.00 in0.0 mm
11:07 PM 67.3°F19.6°C 58.3°F14.6°C 73% Calm Calm -- 28.94 in980.0 mb 0.00 in0.0 mm 0.00 in0.0 mm 0.00 in0.0 mm
11:06 PM 67.3°F19.6°C 58.3°F14.6°C 73% Calm Calm -- 28.94 in980.0 mb 0.00 in0.0 mm 0.00 in0.0 mm 0.00 in0.0 mm
11:05 PM 67.3°F19.6°C 58.3°F14.6°C 73% Calm Calm -- 28.95 in980.4 mb 0.00 in0.0 mm 0.00 in0.0 mm 0.00 in0.0 mm
11:04 PM 67.3°F19.6°C 58.3°F14.6°C 73% Calm Calm -- 28.95 in980.4 mb 0.00 in0.0 mm 0.00 in0.0 mm 0.00 in0.0 mm
11:03 PM 67.5°F19.7°C 58.5°F14.7°C 73% Calm Calm -- 28.95 in980.4 mb 0.00 in0.0 mm 0.00 in0.0 mm 0.00 in0.0 mm
11:02 PM 67.5°F19.7°C 58.5°F14.7°C 73% Calm Calm -- 28.95 in980.4 mb 0.00 in0.0 mm 0.00 in0.0 mm 0.00 in0.0 mm
11:01 PM 67.5°F19.7°C 58.5°F14.7°C 73% Calm Calm -- 28.95 in980.4 mb 0.00 in0.0 mm 0.00 in0.0 mm 0.00 in0.0 mm
11:00 PM 67.5°F19.7°C 58.5°F14.7°C 73% Calm Calm -- 28.95 in980.4 mb 0.00 in0.0 mm 0.00 in0.0 mm 0.00 in0.0 mm
10:59 PM 67.5°F19.7°C 58.5°F14.7°C 73% Calm Calm -- 28.95 in980.4 mb 0.00 in0.0 mm 0.00 in0.0 mm 0.00 in0.0 mm
10:58 PM 67.6°F19.8°C 58.7°F14.8°C 73% Calm Calm -- 28.95 in980.4 mb 0.00 in0.0 mm 0.00 in0.0 mm 0.00 in0.0 mm
10:57 PM 67.6°F19.8°C 59.1°F15.1°C 74% Calm Calm -- 28.95 in980.4 mb 0.00 in0.0 mm 0.00 in0.0 mm 0.00 in0.0 mm
10:56 PM 67.6°F19.8°C 59.1°F15.1°C 74% Calm Calm -- 28.95 in980.4 mb 0.00 in0.0 mm 0.00 in0.0 mm 0.00 in0.0 mm
10:55 PM 67.6°F19.8°C 59.1°F15.1°C 74% Calm Calm -- 28.95 in980.4 mb 0.00 in0.0 mm 0.00 in0.0 mm 0.00 in0.0 mm
10:54 PM 67.6°F19.8°C 59.1°F15.1°C 74% Calm Calm -- 28.95 in980.4 mb 0.00 in0.0 mm 0.00 in0.0 mm 0.00 in0.0 mm
10:53 PM 67.6°F19.8°C 59.1°F15.1°C 74% Calm Calm -- 28.95 in980.4 mb 0.00 in0.0 mm 0.00 in0.0 mm 0.00 in0.0 mm
10:52 PM 67.6°F19.8°C 59.1°F15.1°C 74% Calm Calm -- 28.95 in980.4 mb 0.00 in0.0 mm 0.00 in0.0 mm 0.00 in0.0 mm
10:51 PM 67.6°F19.8°C 59.1°F15.1°C 74% Calm Calm -- 28.95 in980.4 mb 0.00 in0.0 mm 0.00 in0.0 mm 0.00 in0.0 mm
10:50 PM 67.6°F19.8°C 59.1°F15.1°C 74% Calm Calm -- 28.95 in980.4 mb 0.00 in0.0 mm 0.00 in0.0 mm 0.00 in0.0 mm
10:49 PM 67.6°F19.8°C 59.1°F15.1°C 74% Calm Calm -- 28.95 in980.4 mb 0.00 in0.0 mm 0.00 in0.0 mm 0.00 in0.0 mm
10:48 PM 67.6°F19.8°C 59.1°F15.1°C 74% Calm Calm -- 28.95 in980.4 mb 0.00 in0.0 mm 0.00 in0.0 mm 0.00 in0.0 mm
10:47 PM 67.6°F19.8°C 59.1°F15.1°C 74% Calm Calm -- 28.95 in980.4 mb 0.00 in0.0 mm 0.00 in0.0 mm 0.00 in0.0 mm
10:46 PM 67.6°F19.8°C 59.1°F15.1°C 74% Calm Calm -- 28.95 in980.4 mb 0.00 in0.0 mm 0.00 in0.0 mm 0.00 in0.0 mm
10:45 PM 67.8°F19.9°C 59.3°F15.2°C 74% Calm Calm -- 28.95 in980.4 mb 0.00 in0.0 mm 0.00 in0.0 mm 0.00 in0.0 mm
10:44 PM 67.8°F19.9°C 59.3°F15.2°C 74% Calm Calm -- 28.95 in980.4 mb 0.00 in0.0 mm 0.00 in0.0 mm 0.00 in0.0 mm
10:43 PM 67.8°F19.9°C 59.3°F15.2°C 74% Calm Calm -- 28.95 in980.4 mb 0.00 in0.0 mm 0.00 in0.0 mm 0.00 in0.0 mm
10:42 PM 67.8°F19.9°C 59.3°F15.2°C 74% Calm Calm -- 28.95 in980.4 mb 0.00 in0.0 mm 0.00 in0.0 mm 0.00 in0.0 mm
10:41 PM 67.8°F19.9°C 59.3°F15.2°C 74% Calm Calm -- 28.95 in980.4 mb 0.00 in0.0 mm 0.00 in0.0 mm 0.00 in0.0 mm
10:40 PM 67.8°F19.9°C 59.3°F15.2°C 74% Calm Calm -- 28.95 in980.4 mb 0.00 in0.0 mm 0.00 in0.0 mm 0.00 in0.0 mm
10:39 PM 67.8°F19.9°C 59.3°F15.2°C 74% Calm Calm -- 28.95 in980.4 mb 0.00 in0.0 mm 0.00 in0.0 mm 0.00 in0.0 mm
10:38 PM 67.8°F19.9°C 59.3°F15.2°C 74% Calm Calm -- 28.95 in980.4 mb 0.00 in0.0 mm 0.00 in0.0 mm 0.00 in0.0 mm
10:37 PM 67.8°F19.9°C 58.9°F14.9°C 73% Calm Calm -- 28.95 in980.4 mb 0.00 in0.0 mm 0.00 in0.0 mm 0.00 in0.0 mm
10:36 PM 68.0°F20.0°C 59.1°F15.1°C 73% Calm Calm -- 28.95 in980.4 mb 0.00 in0.0 mm 0.00 in0.0 mm 0.00 in0.0 mm
10:35 PM 68.0°F20.0°C 59.1°F15.1°C 73% Calm Calm -- 28.95 in980.4 mb 0.00 in0.0 mm 0.00 in0.0 mm 0.00 in0.0 mm
10:34 PM 68.2°F20.1°C 59.2°F15.1°C 73% Calm Calm -- 28.95 in980.4 mb 0.00 in0.0 mm 0.00 in0.0 mm 0.00 in0.0 mm
10:33 PM 68.2°F20.1°C 59.2°F15.1°C 73% Calm Calm -- 28.95 in980.4 mb 0.00 in0.0 mm 0.00 in0.0 mm 0.00 in0.0 mm
10:32 PM 68.2°F20.1°C 59.2°F15.1°C 73% Calm Calm -- 28.95 in980.4 mb 0.00 in0.0 mm 0.00 in0.0 mm 0.00 in0.0 mm
10:31 PM 68.2°F20.1°C 59.2°F15.1°C 73% Calm Calm -- 28.95 in980.4 mb 0.00 in0.0 mm 0.00 in0.0 mm 0.00 in0.0 mm
10:30 PM 68.2°F20.1°C 59.2°F15.1°C 73% Calm Calm -- 28.95 in980.4 mb 0.00 in0.0 mm 0.00 in0.0 mm 0.00 in0.0 mm
10:29 PM 68.2°F20.1°C 59.2°F15.1°C 73% Calm Calm -- 28.95 in980.4 mb 0.00 in0.0 mm 0.00 in0.0 mm 0.00 in0.0 mm
10:28 PM 68.2°F20.1°C 59.2°F15.1°C 73% Calm Calm -- 28.95 in980.4 mb 0.00 in0.0 mm 0.00 in0.0 mm 0.00 in0.0 mm
10:27 PM 68.2°F20.1°C 59.2°F15.1°C 73% Calm Calm -- 28.95 in980.4 mb 0.00 in0.0 mm 0.00 in0.0 mm 0.00 in0.0 mm
10:26 PM 68.4°F20.2°C 59.4°F15.2°C 73% Calm Calm -- 28.95 in980.4 mb 0.00 in0.0 mm 0.00 in0.0 mm 0.00 in0.0 mm
10:25 PM 68.4°F20.2°C 59.4°F15.2°C 73% Calm Calm -- 28.95 in980.4 mb 0.00 in0.0 mm 0.00 in0.0 mm 0.00 in0.0 mm
10:24 PM 68.4°F20.2°C 59.4°F15.2°C 73% Calm Calm -- 28.95 in980.4 mb 0.00 in0.0 mm 0.00 in0.0 mm 0.00 in0.0 mm
10:23 PM 68.4°F20.2°C 59.4°F15.2°C 73% Calm Calm -- 28.95 in980.4 mb 0.00 in0.0 mm 0.00 in0.0 mm 0.00 in0.0 mm
10:22 PM 68.4°F20.2°C 59.4°F15.2°C 73% Calm Calm -- 28.95 in980.4 mb 0.00 in0.0 mm 0.00 in0.0 mm 0.00 in0.0 mm
10:21 PM 68.5°F20.3°C 59.5°F15.3°C 73% Calm Calm -- 28.94 in980.0 mb 0.00 in0.0 mm 0.00 in0.0 mm 0.00 in0.0 mm
10:20 PM 68.5°F20.3°C 59.5°F15.3°C 73% Calm Calm -- 28.94 in980.0 mb 0.00 in0.0 mm 0.00 in0.0 mm 0.00 in0.0 mm
10:19 PM 68.5°F20.3°C 59.5°F15.3°C 73% Calm Calm -- 28.94 in980.0 mb 0.00 in0.0 mm 0.00 in0.0 mm 0.00 in0.0 mm
10:18 PM 68.5°F20.3°C 59.5°F15.3°C 73% Calm Calm -- 28.94 in980.0 mb 0.00 in0.0 mm 0.00 in0.0 mm 0.00 in0.0 mm
10:17 PM 68.5°F20.3°C 59.5°F15.3°C 73% Calm Calm -- 28.94 in980.0 mb 0.00 in0.0 mm 0.00 in0.0 mm 0.00 in0.0 mm
10:16 PM 68.5°F20.3°C 59.2°F15.1°C 72% Calm Calm -- 28.94 in980.0 mb 0.00 in0.0 mm 0.00 in0.0 mm 0.00 in0.0 mm
10:15 PM 68.5°F20.3°C 59.2°F15.1°C 72% Calm Calm -- 28.94 in980.0 mb 0.00 in0.0 mm 0.00 in0.0 mm 0.00 in0.0 mm
10:14 PM 68.5°F20.3°C 59.2°F15.1°C 72% Calm Calm -- 28.94 in980.0 mb 0.00 in0.0 mm 0.00 in0.0 mm 0.00 in0.0 mm
10:13 PM 68.5°F20.3°C 59.2°F15.1°C 72% Calm Calm -- 28.94 in980.0 mb 0.00 in0.0 mm 0.00 in0.0 mm 0.00 in0.0 mm
10:12 PM 68.5°F20.3°C 59.2°F15.1°C 72% Calm Calm -- 28.94 in980.0 mb 0.00 in0.0 mm 0.00 in0.0 mm 0.00 in0.0 mm
10:11 PM 68.5°F20.3°C 59.2°F15.1°C 72% Calm Calm -- 28.94 in980.0 mb 0.00 in0.0 mm 0.00 in0.0 mm 0.00 in0.0 mm
10:10 PM 68.7°F20.4°C 59.3°F15.2°C 72% Calm Calm -- 28.94 in980.0 mb 0.00 in0.0 mm 0.00 in0.0 mm 0.00 in0.0 mm
10:09 PM 68.7°F20.4°C 59.3°F15.2°C 72% Calm Calm -- 28.94 in980.0 mb 0.00 in0.0 mm 0.00 in0.0 mm 0.00 in0.0 mm
10:08 PM 68.7°F20.4°C 59.3°F15.2°C 72% Calm Calm -- 28.94 in980.0 mb 0.00 in0.0 mm 0.00 in0.0 mm 0.00 in0.0 mm
10:07 PM 68.7°F20.4°C 59.3°F15.2°C 72% Calm Calm -- 28.94 in980.0 mb 0.00 in0.0 mm 0.00 in0.0 mm 0.00 in0.0 mm
10:06 PM 68.7°F20.4°C 59.3°F15.2°C 72% Calm Calm -- 28.94 in980.0 mb 0.00 in0.0 mm 0.00 in0.0 mm 0.00 in0.0 mm
10:05 PM 68.7°F20.4°C 59.3°F15.2°C 72% Calm Calm -- 28.94 in980.0 mb 0.00 in0.0 mm 0.00 in0.0 mm 0.00 in0.0 mm
10:04 PM 68.7°F20.4°C 59.3°F15.2°C 72% Calm Calm -- 28.94 in980.0 mb 0.00 in0.0 mm 0.00 in0.0 mm 0.00 in0.0 mm
10:03 PM 68.7°F20.4°C 59.3°F15.2°C 72% Calm Calm -- 28.94 in980.0 mb 0.00 in0.0 mm 0.00 in0.0 mm 0.00 in0.0 mm
10:02 PM 68.9°F20.5°C 59.5°F15.3°C 72% Calm Calm -- 28.94 in980.0 mb 0.00 in0.0 mm 0.00 in0.0 mm 0.00 in0.0 mm
10:01 PM 68.9°F20.5°C 59.5°F15.3°C 72% Calm Calm -- 28.94 in980.0 mb 0.00 in0.0 mm 0.00 in0.0 mm 0.00 in0.0 mm
10:00 PM 68.9°F20.5°C 59.5°F15.3°C 72% Calm Calm -- 28.94 in980.0 mb 0.00 in0.0 mm 0.00 in0.0 mm 0.00 in0.0 mm
09:59 PM 68.9°F20.5°C 59.5°F15.3°C 72% Calm Calm -- 28.94 in980.0 mb 0.00 in0.0 mm 0.00 in0.0 mm 0.00 in0.0 mm
09:58 PM 68.9°F20.5°C 59.5°F15.3°C 72% Calm Calm -- 28.94 in980.0 mb 0.00 in0.0 mm 0.00 in0.0 mm 0.00 in0.0 mm
09:57 PM 68.9°F20.5°C 59.5°F15.3°C 72% Calm Calm -- 28.94 in980.0 mb 0.00 in0.0 mm 0.00 in0.0 mm 0.00 in0.0 mm
09:56 PM 68.9°F20.5°C 59.6°F15.3°C 72% Calm Calm -- 28.94 in980.0 mb 0.00 in0.0 mm 0.00 in0.0 mm 0.00 in0.0 mm
09:55 PM 69.1°F20.6°C 59.6°F15.3°C 72% Calm Calm -- 28.94 in980.0 mb 0.00 in0.0 mm 0.00 in0.0 mm 0.00 in0.0 mm
09:54 PM 69.1°F20.6°C 59.6°F15.3°C 72% Calm Calm -- 28.94 in980.0 mb 0.00 in0.0 mm 0.00 in0.0 mm 0.00 in0.0 mm
09:53 PM 69.1°F20.6°C 59.6°F15.3°C 72% Calm Calm -- 28.94 in980.0 mb 0.00 in0.0 mm 0.00 in0.0 mm 0.00 in0.0 mm
09:52 PM 69.1°F20.6°C 59.6°F15.3°C 72% Calm Calm -- 28.93 in979.7 mb 0.00 in0.0 mm 0.00 in0.0 mm 0.00 in0.0 mm
09:51 PM 69.1°F20.6°C 59.6°F15.3°C 72% Calm Calm -- 28.94 in980.0 mb 0.00 in0.0 mm 0.00 in0.0 mm 0.00 in0.0 mm
09:50 PM 69.3°F20.7°C 59.8°F15.4°C 72% Calm Calm -- 28.93 in979.7 mb 0.00 in0.0 mm 0.00 in0.0 mm 0.00 in0.0 mm
09:49 PM 69.3°F20.7°C 59.8°F15.4°C 72% Calm Calm -- 28.94 in980.0 mb 0.00 in0.0 mm 0.00 in0.0 mm 0.00 in0.0 mm
09:48 PM 69.3°F20.7°C 59.8°F15.4°C 72% Calm Calm -- 28.94 in980.0 mb 0.00 in0.0 mm 0.00 in0.0 mm 0.00 in0.0 mm
09:47 PM 69.3°F20.7°C 59.8°F15.4°C 72% Calm Calm -- 28.93 in979.7 mb 0.00 in0.0 mm 0.00 in0.0 mm 0.00 in0.0 mm
09:46 PM 69.4°F20.8°C 60.0°F15.6°C 72% Calm Calm -- 28.93 in979.7 mb 0.00 in0.0 mm 0.00 in0.0 mm 0.00 in0.0 mm
09:45 PM 69.4°F20.8°C 60.0°F15.6°C 72% Calm Calm -- 28.93 in979.7 mb 0.00 in0.0 mm 0.00 in0.0 mm 0.00 in0.0 mm
09:44 PM 69.4°F20.8°C 60.0°F15.6°C 72% Calm Calm -- 28.93 in979.7 mb 0.00 in0.0 mm 0.00 in0.0 mm 0.00 in0.0 mm
09:43 PM 69.4°F20.8°C 60.0°F15.6°C 72% Calm Calm -- 28.93 in979.7 mb 0.00 in0.0 mm 0.00 in0.0 mm 0.00 in0.0 mm
09:42 PM 69.4°F20.8°C 60.0°F15.6°C 72% Calm Calm -- 28.93 in979.7 mb 0.00 in0.0 mm 0.00 in0.0 mm 0.00 in0.0 mm
09:41 PM 69.4°F20.8°C 60.0°F15.6°C 72% Calm Calm -- 28.93 in979.7 mb 0.00 in0.0 mm 0.00 in0.0 mm 0.00 in0.0 mm
09:40 PM 69.6°F20.9°C 60.1°F15.6°C 72% Calm Calm -- 28.93 in979.7 mb 0.00 in0.0 mm 0.00 in0.0 mm 0.00 in0.0 mm
09:39 PM 69.6°F20.9°C 60.1°F15.6°C 72% Calm Calm -- 28.93 in979.7 mb 0.00 in0.0 mm 0.00 in0.0 mm 0.00 in0.0 mm
09:38 PM 69.6°F20.9°C 60.1°F15.6°C 72% Calm Calm -- 28.93 in979.7 mb 0.00 in0.0 mm 0.00 in0.0 mm 0.00 in0.0 mm
09:37 PM 69.6°F20.9°C 60.1°F15.6°C 72% Calm Calm -- 28.93 in979.7 mb 0.00 in0.0 mm 0.00 in0.0 mm 0.00 in0.0 mm
09:36 PM 69.6°F20.9°C 60.1°F15.6°C 72% Calm Calm -- 28.93 in979.7 mb 0.00 in0.0 mm 0.00 in0.0 mm 0.00 in0.0 mm
09:35 PM 69.6°F20.9°C 60.1°F15.6°C 72% Calm Calm -- 28.92 in979.3 mb 0.00 in0.0 mm 0.00 in0.0 mm 0.00 in0.0 mm
09:34 PM 69.6°F20.9°C 60.1°F15.6°C 72% Calm Calm -- 28.92 in979.3 mb 0.00 in0.0 mm 0.00 in0.0 mm 0.00 in0.0 mm
09:33 PM 69.8°F21.0°C 60.3°F15.7°C 72% Calm Calm -- 28.92 in979.3 mb 0.00 in0.0 mm 0.00 in0.0 mm 0.00 in0.0 mm
09:32 PM 69.8°F21.0°C 60.3°F15.7°C 72% Calm Calm -- 28.93 in979.7 mb 0.00 in0.0 mm 0.00 in0.0 mm 0.00 in0.0 mm
09:31 PM 70.0°F21.1°C 60.5°F15.8°C 72% Calm Calm -- 28.92 in979.3 mb 0.00 in0.0 mm 0.00 in0.0 mm 0.00 in0.0 mm
09:30 PM 70.0°F21.1°C 60.5°F15.8°C 72% Calm Calm -- 28.92 in979.3 mb 0.00 in0.0 mm 0.00 in0.0 mm 0.00 in0.0 mm
09:29 PM 70.0°F21.1°C 60.1°F15.6°C 71% Calm Calm -- 28.92 in979.3 mb 0.00 in0.0 mm 0.00 in0.0 mm 0.00 in0.0 mm
09:28 PM 70.0°F21.1°C 60.1°F15.6°C 71% Calm Calm -- 28.92 in979.3 mb 0.00 in0.0 mm 0.00 in0.0 mm 0.00 in0.0 mm
09:27 PM 70.0°F21.1°C 60.1°F15.6°C 71% Calm Calm -- 28.91 in979.0 mb 0.00 in0.0 mm 0.00 in0.0 mm 0.00 in0.0 mm
09:26 PM 70.0°F21.1°C 60.1°F15.6°C 71% Calm Calm -- 28.92 in979.3 mb 0.00 in0.0 mm 0.00 in0.0 mm 0.00 in0.0 mm
09:25 PM 70.2°F21.2°C 60.3°F15.7°C 71% Calm Calm -- 28.91 in979.0 mb 0.00 in0.0 mm 0.00 in0.0 mm 0.00 in0.0 mm
09:24 PM 70.2°F21.2°C 60.3°F15.7°C 71% Calm Calm -- 28.92 in979.3 mb 0.00 in0.0 mm 0.00 in0.0 mm 0.00 in0.0 mm
09:23 PM 70.2°F21.2°C 60.3°F15.7°C 71% Calm Calm -- 28.91 in979.0 mb 0.00 in0.0 mm 0.00 in0.0 mm 0.00 in0.0 mm
09:22 PM 70.3°F21.3°C 60.5°F15.8°C 71% Calm Calm -- 28.91 in979.0 mb 0.00 in0.0 mm 0.00 in0.0 mm 0.00 in0.0 mm
09:21 PM 70.3°F21.3°C 60.5°F15.8°C 71% Calm Calm -- 28.91 in979.0 mb 0.00 in0.0 mm 0.00 in0.0 mm 0.00 in0.0 mm
09:20 PM 70.3°F21.3°C 60.5°F15.8°C 71% Calm Calm -- 28.91 in979.0 mb 0.00 in0.0 mm 0.00 in0.0 mm 0.00 in0.0 mm
09:19 PM 70.3°F21.3°C 60.5°F15.8°C 71% Calm Calm -- 28.91 in979.0 mb 0.00 in0.0 mm 0.00 in0.0 mm 0.00 in0.0 mm
09:18 PM 70.3°F21.3°C 60.5°F15.8°C 71% Calm Calm -- 28.91 in979.0 mb 0.00 in0.0 mm 0.00 in0.0 mm 0.00 in0.0 mm
09:17 PM 70.3°F21.3°C 60.5°F15.8°C 71% Calm Calm -- 28.91 in979.0 mb 0.00 in0.0 mm 0.00 in0.0 mm 0.00 in0.0 mm
09:16 PM 70.5°F21.4°C 60.6°F15.9°C 71% Calm Calm -- 28.91 in979.0 mb 0.00 in0.0 mm 0.00 in0.0 mm 0.00 in0.0 mm
09:15 PM 70.5°F21.4°C 60.6°F15.9°C 71% Calm Calm -- 28.91 in979.0 mb 0.00 in0.0 mm 0.00 in0.0 mm 0.00 in0.0 mm
09:14 PM 70.5°F21.4°C 60.6°F15.9°C 71% Calm Calm -- 28.91 in979.0 mb 0.00 in0.0 mm 0.00 in0.0 mm 0.00 in0.0 mm
09:13 PM 70.5°F21.4°C 60.6°F15.9°C 71% Calm Calm -- 28.91 in979.0 mb 0.00 in0.0 mm 0.00 in0.0 mm 0.00 in0.0 mm
09:12 PM 70.7°F21.5°C 60.8°F16.0°C 71% Calm Calm -- 28.91 in979.0 mb 0.00 in0.0 mm 0.00 in0.0 mm 0.00 in0.0 mm
09:11 PM 70.7°F21.5°C 60.8°F16.0°C 71% Calm Calm -- 28.91 in979.0 mb 0.00 in0.0 mm 0.00 in0.0 mm 0.00 in0.0 mm
09:10 PM 70.7°F21.5°C 60.8°F16.0°C 71% Calm Calm -- 28.91 in979.0 mb 0.00 in0.0 mm 0.00 in0.0 mm 0.00 in0.0 mm
09:09 PM 70.7°F21.5°C 60.8°F16.0°C 71% Calm Calm -- 28.91 in979.0 mb 0.00 in0.0 mm 0.00 in0.0 mm 0.00 in0.0 mm
09:08 PM 70.9°F21.6°C 61.0°F16.1°C 71% Calm Calm -- 28.91 in979.0 mb 0.00 in0.0 mm 0.00 in0.0 mm 0.00 in0.0 mm
09:07 PM 70.9°F21.6°C 61.0°F16.1°C 71% Calm Calm -- 28.91 in979.0 mb 0.00 in0.0 mm 0.00 in0.0 mm 0.00 in0.0 mm
09:06 PM 70.9°F21.6°C 61.0°F16.1°C 71% Calm Calm -- 28.91 in979.0 mb 0.00 in0.0 mm 0.00 in0.0 mm 0.00 in0.0 mm
09:05 PM 70.9°F21.6°C 61.0°F16.1°C 71% Calm Calm -- 28.91 in979.0 mb 0.00 in0.0 mm 0.00 in0.0 mm 0.00 in0.0 mm
09:04 PM 70.9°F21.6°C 61.0°F16.1°C 71% Calm Calm -- 28.91 in979.0 mb 0.00 in0.0 mm 0.00 in0.0 mm 0.00 in0.0 mm
09:03 PM 70.9°F21.6°C 61.0°F16.1°C 71% Calm Calm -- 28.91 in979.0 mb 0.00 in0.0 mm 0.00 in0.0 mm 0.00 in0.0 mm
09:02 PM 71.2°F21.8°C 61.4°F16.3°C 71% Calm Calm -- 28.91 in979.0 mb 0.00 in0.0 mm 0.00 in0.0 mm 0.00 in0.0 mm
09:01 PM 71.2°F21.8°C 61.4°F16.3°C 71% Calm Calm -- 28.91 in979.0 mb 0.00 in0.0 mm 0.00 in0.0 mm 0.00 in0.0 mm
09:00 PM 71.2°F21.8°C 61.4°F16.3°C 71% Calm Calm -- 28.91 in979.0 mb 0.00 in0.0 mm 0.00 in0.0 mm 0.00 in0.0 mm
08:59 PM 71.2°F21.8°C 61.4°F16.3°C 71% Calm Calm -- 28.91 in979.0 mb 0.00 in0.0 mm 0.00 in0.0 mm 0.00 in0.0 mm
08:58 PM 71.2°F21.8°C 61.4°F16.3°C 71% Calm Calm -- 28.91 in979.0 mb 0.00 in0.0 mm 0.00 in0.0 mm 0.00 in0.0 mm
08:57 PM 71.2°F21.8°C 61.4°F16.3°C 71% Calm Calm -- 28.91 in979.0 mb 0.00 in0.0 mm 0.00 in0.0 mm 0.00 in0.0 mm
08:56 PM 71.4°F21.9°C 61.5°F16.4°C 71% Calm Calm -- 28.91 in979.0 mb 0.00 in0.0 mm 0.00 in0.0 mm 0.00 in0.0 mm
08:55 PM 71.4°F21.9°C 61.5°F16.4°C 71% Calm Calm -- 28.91 in979.0 mb 0.00 in0.0 mm 0.00 in0.0 mm 0.00 in0.0 mm
08:54 PM 71.4°F21.9°C 61.2°F16.2°C 70% Calm Calm 0.7 mph1.1 kmh 28.91 in979.0 mb 0.00 in0.0 mm 0.00 in0.0 mm 0.00 in0.0 mm
08:53 PM 71.4°F21.9°C 61.2°F16.2°C 70% Calm Calm 0.7 mph1.1 kmh 28.91 in979.0 mb 0.00 in0.0 mm 0.00 in0.0 mm 0.00 in0.0 mm
08:52 PM 71.4°F21.9°C 61.2°F16.2°C 70% Calm Calm 0.7 mph1.1 kmh 28.91 in979.0 mb 0.00 in0.0 mm 0.00 in0.0 mm 0.00 in0.0 mm
08:51 PM 71.4°F21.9°C 61.2°F16.2°C 70% Calm Calm 0.7 mph1.1 kmh 28.91 in979.0 mb 0.00 in0.0 mm 0.00 in0.0 mm 0.00 in0.0 mm
08:50 PM 71.4°F21.9°C 61.2°F16.2°C 70% Calm Calm 1.8 mph2.9 kmh 28.91 in979.0 mb 0.00 in0.0 mm 0.00 in0.0 mm 0.00 in0.0 mm
08:49 PM 71.8°F22.1°C 61.5°F16.4°C 70% Calm Calm 1.8 mph2.9 kmh 28.91 in979.0 mb 0.00 in0.0 mm 0.00 in0.0 mm 0.00 in0.0 mm
08:48 PM 71.8°F22.1°C 61.5°F16.4°C 70% Calm Calm 1.8 mph2.9 kmh 28.91 in979.0 mb 0.00 in0.0 mm 0.00 in0.0 mm 0.00 in0.0 mm
08:47 PM 71.8°F22.1°C 61.5°F16.4°C 70% Calm Calm 1.8 mph2.9 kmh 28.91 in979.0 mb 0.00 in0.0 mm 0.00 in0.0 mm 0.00 in0.0 mm
08:46 PM 71.8°F22.1°C 61.5°F16.4°C 70% Calm Calm 1.8 mph2.9 kmh 28.91 in979.0 mb 0.00 in0.0 mm 0.00 in0.0 mm 0.00 in0.0 mm
08:45 PM 71.8°F22.1°C 61.5°F16.4°C 70% Calm Calm 1.8 mph2.9 kmh 28.91 in979.0 mb 0.00 in0.0 mm 0.00 in0.0 mm 0.00 in0.0 mm
08:44 PM 72.0°F22.2°C 61.7°F16.5°C 70% Calm Calm 1.8 mph2.9 kmh 28.91 in979.0 mb 0.00 in0.0 mm 0.00 in0.0 mm 0.00 in0.0 mm
08:43 PM 72.0°F22.2°C 61.7°F16.5°C 70% Calm Calm 2.2 mph3.5 kmh 28.91 in979.0 mb 0.00 in0.0 mm 0.00 in0.0 mm 0.00 in0.0 mm
08:42 PM 72.0°F22.2°C 61.7°F16.5°C 70% Calm Calm 2.2 mph3.5 kmh 28.91 in979.0 mb 0.00 in0.0 mm 0.00 in0.0 mm 0.00 in0.0 mm
08:41 PM 72.0°F22.2°C 61.7°F16.5°C 70% Calm Calm 2.2 mph3.5 kmh 28.90 in978.7 mb 0.00 in0.0 mm 0.00 in0.0 mm 0.00 in0.0 mm
08:40 PM 72.1°F22.3°C 61.9°F16.6°C 70% Calm Calm 2.2 mph3.5 kmh 28.90 in978.7 mb 0.00 in0.0 mm 0.00 in0.0 mm 0.00 in0.0 mm
08:39 PM 72.1°F22.3°C 61.9°F16.6°C 70% Calm Calm 2.2 mph3.5 kmh 28.90 in978.7 mb 0.00 in0.0 mm 0.00 in0.0 mm 0.00 in0.0 mm
08:38 PM 72.1°F22.3°C 61.9°F16.6°C 70% Calm Calm 2.2 mph3.5 kmh 28.90 in978.7 mb 0.00 in0.0 mm 0.00 in0.0 mm 0.00 in0.0 mm
08:37 PM 72.1°F22.3°C 61.4°F16.3°C 69% Calm Calm 2.2 mph3.5 kmh 28.90 in978.7 mb 0.00 in0.0 mm 0.00 in0.0 mm 0.00 in0.0 mm
08:36 PM 72.1°F22.3°C 61.4°F16.3°C 69% Calm Calm 2.2 mph3.5 kmh 28.90 in978.7 mb 0.00 in0.0 mm 0.00 in0.0 mm 0.00 in0.0 mm
08:35 PM 72.3°F22.4°C 61.6°F16.4°C 69% Calm Calm 2.2 mph3.5 kmh 28.90 in978.7 mb 0.00 in0.0 mm 0.00 in0.0 mm 0.00 in0.0 mm
08:34 PM 72.3°F22.4°C 61.6°F16.4°C 69% 0.7 mph S1.1 kmh S 2.2 mph3.5 kmh 28.90 in978.7 mb 0.00 in0.0 mm 0.00 in0.0 mm 0.00 in0.0 mm
08:33 PM 72.3°F22.4°C 61.6°F16.4°C 69% 2.2 mph S3.5 kmh S 2.2 mph3.5 kmh 28.90 in978.7 mb 0.00 in0.0 mm 0.00 in0.0 mm 0.00 in0.0 mm
08:32 PM 72.3°F22.4°C 61.6°F16.4°C 69% Calm Calm 1.1 mph1.8 kmh 28.90 in978.7 mb 0.00 in0.0 mm 0.00 in0.0 mm 0.00 in0.0 mm
08:31 PM 72.3°F22.4°C 61.6°F16.4°C 69% Calm Calm 1.1 mph1.8 kmh 28.90 in978.7 mb 0.00 in0.0 mm 0.00 in0.0 mm 0.00 in0.0 mm
08:30 PM 72.5°F22.5°C 61.8°F16.6°C 69% Calm Calm -- 28.90 in978.7 mb 0.00 in0.0 mm 0.00 in0.0 mm 0.00 in0.0 mm
08:29 PM 72.5°F22.5°C 61.8°F16.6°C 69% Calm Calm -- 28.90 in978.7 mb 0.00 in0.0 mm 0.00 in0.0 mm 0.00 in0.0 mm
08:28 PM 72.5°F22.5°C 61.8°F16.6°C 69% Calm Calm -- 28.90 in978.7 mb 0.00 in0.0 mm 0.00 in0.0 mm 0.00 in0.0 mm
08:27 PM 72.7°F22.6°C 62.0°F16.7°C 69% Calm Calm -- 28.90 in978.7 mb 0.00 in0.0 mm 0.00 in0.0 mm 0.00 in0.0 mm
08:26 PM 72.7°F22.6°C 62.0°F16.7°C 69% Calm Calm -- 28.90 in978.7 mb 0.00 in0.0 mm 0.00 in0.0 mm 0.00 in0.0 mm
08:25 PM 72.7°F22.6°C 62.0°F16.7°C 69% Calm Calm -- 28.90 in978.7 mb 0.00 in0.0 mm 0.00 in0.0 mm 0.00 in0.0 mm
08:24 PM 72.9°F22.7°C 62.2°F16.8°C 69% Calm Calm -- 28.90 in978.7 mb 0.00 in0.0 mm 0.00 in0.0 mm 0.00 in0.0 mm
08:23 PM 72.9°F22.7°C 62.2°F16.8°C 69% Calm Calm -- 28.90 in978.7 mb 0.00 in0.0 mm 0.00 in0.0 mm 0.00 in0.0 mm
08:22 PM 73.0°F22.8°C 62.3°F16.8°C 69% Calm Calm -- 28.90 in978.7 mb 0.00 in0.0 mm 0.00 in0.0 mm 0.00 in0.0 mm
08:21 PM 73.0°F22.8°C 62.3°F16.8°C 69% Calm Calm -- 28.90 in978.7 mb 0.00 in0.0 mm 0.00 in0.0 mm 0.00 in0.0 mm
08:20 PM 73.0°F22.8°C 62.3°F16.8°C 69% Calm Calm -- 28.90 in978.7 mb 0.00 in0.0 mm 0.00 in0.0 mm 0.00 in0.0 mm
08:19 PM 73.2°F22.9°C 62.5°F16.9°C 69% Calm Calm -- 28.90 in978.7 mb 0.00 in0.0 mm 0.00 in0.0 mm 0.00 in0.0 mm
08:18 PM 73.2°F22.9°C 62.5°F16.9°C 69% Calm Calm -- 28.90 in978.7 mb 0.00 in0.0 mm 0.00 in0.0 mm 0.00 in0.0 mm
08:17 PM 73.2°F22.9°C 62.5°F16.9°C 69% Calm Calm -- 28.90 in978.7 mb 0.00 in0.0 mm 0.00 in0.0 mm 0.00 in0.0 mm
08:16 PM 73.2°F22.9°C 62.5°F16.9°C 69% Calm Calm -- 28.90 in978.7 mb 0.00 in0.0 mm 0.00 in0.0 mm 0.00 in0.0 mm
08:15 PM 73.2°F22.9°C 62.5°F16.9°C 69% Calm Calm -- 28.90 in978.7 mb 0.00 in0.0 mm 0.00 in0.0 mm 0.00 in0.0 mm
08:14 PM 73.4°F23.0°C 62.2°F16.8°C 68% Calm Calm -- 28.90 in978.7 mb 0.00 in0.0 mm 0.00 in0.0 mm 0.00 in0.0 mm
08:13 PM 73.4°F23.0°C 62.2°F16.8°C 68% Calm Calm -- 28.90 in978.7 mb 0.00 in0.0 mm 0.00 in0.0 mm 0.00 in0.0 mm
08:12 PM 73.6°F23.1°C 62.4°F16.9°C 68% Calm Calm 2.0 mph3.2 kmh 28.90 in978.7 mb 0.00 in0.0 mm 0.00 in0.0 mm 0.00 in0.0 mm
08:11 PM 73.6°F23.1°C 62.4°F16.9°C 68% Calm Calm 2.9 mph4.7 kmh 28.90 in978.7 mb 0.00 in0.0 mm 0.00 in0.0 mm 0.00 in0.0 mm
08:10 PM 73.8°F23.2°C 62.6°F17.0°C 68% Calm Calm 2.9 mph4.7 kmh 28.90 in978.7 mb 0.00 in0.0 mm 0.00 in0.0 mm 0.00 in0.0 mm
08:09 PM 73.8°F23.2°C 62.6°F17.0°C 68% Calm Calm 4.0 mph6.4 kmh 28.90 in978.7 mb 0.00 in0.0 mm 0.00 in0.0 mm 0.00 in0.0 mm
08:08 PM 73.9°F23.3°C 62.3°F16.8°C 67% Calm Calm 4.0 mph6.4 kmh 28.90 in978.7 mb 0.00 in0.0 mm 0.00 in0.0 mm 0.00 in0.0 mm
08:07 PM 73.9°F23.3°C 62.3°F16.8°C 67% Calm Calm 4.0 mph6.4 kmh 28.90 in978.7 mb 0.00 in0.0 mm 0.00 in0.0 mm 0.00 in0.0 mm
08:06 PM 73.9°F23.3°C 62.3°F16.8°C 67% Calm Calm 4.0 mph6.4 kmh 28.90 in978.7 mb 0.00 in0.0 mm 0.00 in0.0 mm 0.00 in0.0 mm
08:05 PM 74.1°F23.4°C 62.5°F16.9°C 67% Calm Calm 4.0 mph6.4 kmh 28.90 in978.7 mb 0.00 in0.0 mm 0.00 in0.0 mm 0.00 in0.0 mm
08:04 PM 74.1°F23.4°C 62.5°F16.9°C 67% Calm Calm 4.5 mph7.2 kmh 28.90 in978.7 mb 0.00 in0.0 mm 0.00 in0.0 mm 0.00 in0.0 mm
08:03 PM 74.1°F23.4°C 62.5°F16.9°C 67% Calm Calm 4.5 mph7.2 kmh 28.90 in978.7 mb 0.00 in0.0 mm 0.00 in0.0 mm 0.00 in0.0 mm
08:02 PM 74.3°F23.5°C 62.6°F17.0°C 67% Calm Calm 4.5 mph7.2 kmh 28.90 in978.7 mb 0.00 in0.0 mm 0.00 in0.0 mm 0.00 in0.0 mm
08:01 PM 74.5°F23.6°C 62.3°F16.8°C 66% Calm Calm 4.5 mph7.2 kmh 28.90 in978.7 mb 0.00 in0.0 mm 0.00 in0.0 mm 0.00 in0.0 mm
08:00 PM 74.5°F23.6°C 62.3°F16.8°C 66% Calm Calm 4.5 mph7.2 kmh 28.90 in978.7 mb 0.00 in0.0 mm 0.00 in0.0 mm 0.00 in0.0 mm
07:59 PM 74.5°F23.6°C 62.3°F16.8°C 66% 2.9 mph SSE4.7 kmh SSE 4.5 mph7.2 kmh 28.90 in978.7 mb 0.00 in0.0 mm 0.00 in0.0 mm 0.00 in0.0 mm
07:58 PM 74.5°F23.6°C 62.3°F16.8°C 66% 1.3 mph SSE2.1 kmh SSE 4.5 mph7.2 kmh 28.90 in978.7 mb 0.00 in0.0 mm 0.00 in0.0 mm 0.00 in0.0 mm
07:57 PM 74.8°F23.8°C 62.7°F17.1°C 66% 2.2 mph SSE3.5 kmh SSE 4.5 mph7.2 kmh 28.90 in978.7 mb 0.00 in0.0 mm 0.00 in0.0 mm 0.00 in0.0 mm
07:56 PM 74.8°F23.8°C 62.7°F17.1°C 66% 0.4 mph SSE0.6 kmh SSE 4.5 mph7.2 kmh 28.90 in978.7 mb 0.00 in0.0 mm 0.00 in0.0 mm 0.00 in0.0 mm
07:55 PM 74.8°F23.8°C 62.7°F17.1°C 66% 4.0 mph S6.4 kmh S 4.5 mph7.2 kmh 28.90 in978.7 mb 0.00 in0.0 mm 0.00 in0.0 mm 0.00 in0.0 mm
07:54 PM 75.0°F23.9°C 62.9°F17.2°C 66% 0.4 mph S0.6 kmh S 3.8 mph6.1 kmh 28.90 in978.7 mb 0.00 in0.0 mm 0.00 in0.0 mm 0.00 in0.0 mm
07:53 PM 75.0°F23.9°C 62.9°F17.2°C 66% Calm Calm 4.0 mph6.4 kmh 28.90 in978.7 mb 0.00 in0.0 mm 0.00 in0.0 mm 0.00 in0.0 mm
07:52 PM 75.0°F23.9°C 62.9°F17.2°C 66% Calm Calm 4.0 mph6.4 kmh 28.90 in978.7 mb 0.00 in0.0 mm 0.00 in0.0 mm 0.00 in0.0 mm
07:51 PM 75.0°F23.9°C 62.9°F17.2°C 66% 2.5 mph S4.0 kmh S 4.5 mph7.2 kmh 28.90 in978.7 mb 0.00 in0.0 mm 0.00 in0.0 mm 0.00 in0.0 mm
07:50 PM 75.2°F24.0°C 63.0°F17.2°C 66% 3.1 mph S5.0 kmh S 4.5 mph7.2 kmh 28.90 in978.7 mb 0.00 in0.0 mm 0.00 in0.0 mm 0.00 in0.0 mm
07:49 PM 75.4°F24.1°C 63.2°F17.3°C 66% Calm Calm 4.5 mph7.2 kmh 28.89 in978.3 mb 0.00 in0.0 mm 0.00 in0.0 mm 0.00 in0.0 mm
07:48 PM 75.4°F24.1°C 62.8°F17.1°C 65% 0.7 mph S1.1 kmh S 4.5 mph7.2 kmh 28.90 in978.7 mb 0.00 in0.0 mm 0.00 in0.0 mm 0.00 in0.0 mm
07:47 PM 75.4°F24.1°C 62.8°F17.1°C 65% 0.4 mph S0.6 kmh S 4.5 mph7.2 kmh 28.89 in978.3 mb 0.00 in0.0 mm 0.00 in0.0 mm 0.00 in0.0 mm
07:46 PM 75.6°F24.2°C 62.9°F17.2°C 65% 2.9 mph S4.7 kmh S 4.9 mph7.9 kmh 28.90 in978.7 mb 0.00 in0.0 mm 0.00 in0.0 mm 0.00 in0.0 mm
07:45 PM 75.6°F24.2°C 62.9°F17.2°C 65% Calm Calm 4.9 mph7.9 kmh 28.90 in978.7 mb 0.00 in0.0 mm 0.00 in0.0 mm 0.00 in0.0 mm
07:44 PM 75.7°F24.3°C 63.1°F17.3°C 65% Calm Calm 5.1 mph8.2 kmh 28.90 in978.7 mb 0.00 in0.0 mm 0.00 in0.0 mm 0.00 in0.0 mm
07:43 PM 75.7°F24.3°C 63.1°F17.3°C 65% 4.0 mph S6.4 kmh S 5.6 mph9.0 kmh 28.90 in978.7 mb 0.00 in0.0 mm 0.00 in0.0 mm 0.00 in0.0 mm
07:42 PM 75.7°F24.3°C 63.1°F17.3°C 65% 0.4 mph S0.6 kmh S 5.6 mph9.0 kmh 28.90 in978.7 mb 0.00 in0.0 mm 0.00 in0.0 mm 0.00 in0.0 mm
07:41 PM 75.9°F24.4°C 63.3°F17.4°C 65% 2.2 mph S3.5 kmh S 6.0 mph9.7 kmh 28.90 in978.7 mb 0.00 in0.0 mm 0.00 in0.0 mm 0.00 in0.0 mm
07:40 PM 75.9°F24.4°C 63.3°F17.4°C 65% 4.0 mph S6.4 kmh S 7.8 mph12.6 kmh 28.90 in978.7 mb 0.00 in0.0 mm 0.00 in0.0 mm 0.00 in0.0 mm
07:39 PM 75.9°F24.4°C 63.3°F17.4°C 65% 3.8 mph S6.1 kmh S 7.8 mph12.6 kmh 28.89 in978.3 mb 0.00 in0.0 mm 0.00 in0.0 mm 0.00 in0.0 mm
07:38 PM 75.9°F24.4°C 63.3°F17.4°C 65% Calm Calm 7.8 mph12.6 kmh 28.90 in978.7 mb 0.00 in0.0 mm 0.00 in0.0 mm 0.00 in0.0 mm
07:37 PM 76.1°F24.5°C 63.4°F17.4°C 65% 1.8 mph SSE2.9 kmh SSE 7.8 mph12.6 kmh 28.90 in978.7 mb 0.00 in0.0 mm 0.00 in0.0 mm 0.00 in0.0 mm
07:36 PM 76.3°F24.6°C 63.2°F17.3°C 64% 4.9 mph SSE7.9 kmh SSE 7.8 mph12.6 kmh 28.89 in978.3 mb 0.00 in0.0 mm 0.00 in0.0 mm 0.00 in0.0 mm
07:35 PM 76.3°F24.6°C 63.2°F17.3°C 64% 1.3 mph SSE2.1 kmh SSE 7.8 mph12.6 kmh 28.89 in978.3 mb 0.00 in0.0 mm 0.00 in0.0 mm 0.00 in0.0 mm
07:34 PM 76.3°F24.6°C 63.2°F17.3°C 64% 4.5 mph SSE7.2 kmh SSE 7.8 mph12.6 kmh 28.89 in978.3 mb 0.00 in0.0 mm 0.00 in0.0 mm 0.00 in0.0 mm
07:33 PM 76.5°F24.7°C 63.3°F17.4°C 64% Calm Calm 7.8 mph12.6 kmh 28.89 in978.3 mb 0.00 in0.0 mm 0.00 in0.0 mm 0.00 in0.0 mm
07:32 PM 76.6°F24.8°C 63.5°F17.5°C 64% 1.1 mph SSE1.8 kmh SSE 7.8 mph12.6 kmh 28.89 in978.3 mb 0.00 in0.0 mm 0.00 in0.0 mm 0.00 in0.0 mm
07:31 PM 76.6°F24.8°C 63.5°F17.5°C 64% 5.6 mph SSE9.0 kmh SSE 7.8 mph12.6 kmh 28.89 in978.3 mb 0.00 in0.0 mm 0.00 in0.0 mm 0.00 in0.0 mm
07:30 PM 76.8°F24.9°C 63.7°F17.6°C 64% 5.8 mph SSE9.3 kmh SSE 7.4 mph11.9 kmh 28.89 in978.3 mb 0.00 in0.0 mm 0.00 in0.0 mm 0.00 in0.0 mm
07:29 PM 76.8°F24.9°C 63.7°F17.6°C 64% 3.8 mph S6.1 kmh S 7.6 mph12.2 kmh 28.89 in978.3 mb 0.00 in0.0 mm 0.00 in0.0 mm 0.00 in0.0 mm
07:28 PM 77.0°F25.0°C 63.9°F17.7°C 64% 4.0 mph S6.4 kmh S 7.6 mph12.2 kmh 28.89 in978.3 mb 0.00 in0.0 mm 0.00 in0.0 mm 0.00 in0.0 mm
07:27 PM 77.0°F25.0°C 63.9°F17.7°C 64% 2.2 mph S3.5 kmh S 7.6 mph12.2 kmh 28.89 in978.3 mb 0.00 in0.0 mm 0.00 in0.0 mm 0.00 in0.0 mm
07:26 PM 77.2°F25.1°C 63.6°F17.6°C 63% 3.4 mph S5.5 kmh S 7.6 mph12.2 kmh 28.89 in978.3 mb 0.00 in0.0 mm 0.00 in0.0 mm 0.00 in0.0 mm
07:25 PM 77.2°F25.1°C 63.6°F17.6°C 63% 3.1 mph S5.0 kmh S 7.6 mph12.2 kmh 28.89 in978.3 mb 0.00 in0.0 mm 0.00 in0.0 mm 0.00 in0.0 mm
07:24 PM 77.4°F25.2°C 63.8°F17.7°C 63% Calm Calm 7.6 mph12.2 kmh 28.89 in978.3 mb 0.00 in0.0 mm 0.00 in0.0 mm 0.00 in0.0 mm
07:23 PM 77.5°F25.3°C 63.9°F17.7°C 63% 1.1 mph S1.8 kmh S 9.2 mph14.8 kmh 28.89 in978.3 mb 0.00 in0.0 mm 0.00 in0.0 mm 0.00 in0.0 mm
07:22 PM 77.5°F25.3°C 63.9°F17.7°C 63% 2.5 mph S4.0 kmh S 9.2 mph14.8 kmh 28.89 in978.3 mb 0.00 in0.0 mm 0.00 in0.0 mm 0.00 in0.0 mm
07:21 PM 77.5°F25.3°C 63.9°F17.7°C 63% 5.6 mph S9.0 kmh S 9.2 mph14.8 kmh 28.89 in978.3 mb 0.00 in0.0 mm 0.00 in0.0 mm 0.00 in0.0 mm
07:20 PM 77.7°F25.4°C 64.1°F17.8°C 63% 6.5 mph S10.5 kmh S 9.2 mph14.8 kmh 28.89 in978.3 mb 0.00 in0.0 mm 0.00 in0.0 mm 0.00 in0.0 mm
07:19 PM 77.7°F25.4°C 64.1°F17.8°C 63% 7.6 mph S12.2 kmh S 9.8 mph15.8 kmh 28.89 in978.3 mb 0.00 in0.0 mm 0.00 in0.0 mm 0.00 in0.0 mm
07:18 PM 77.9°F25.5°C 64.3°F17.9°C 63% 4.3 mph S6.9 kmh S 9.8 mph15.8 kmh 28.89 in978.3 mb 0.00 in0.0 mm 0.00 in0.0 mm 0.00 in0.0 mm
07:17 PM 77.9°F25.5°C 64.3°F17.9°C 63% 1.3 mph S2.1 kmh S 9.8 mph15.8 kmh 28.89 in978.3 mb 0.00 in0.0 mm 0.00 in0.0 mm 0.00 in0.0 mm
07:16 PM 78.1°F25.6°C 64.5°F18.1°C 63% 2.0 mph S3.2 kmh S 9.8 mph15.8 kmh 28.89 in978.3 mb 0.00 in0.0 mm 0.00 in0.0 mm 0.00 in0.0 mm
07:15 PM 78.1°F25.6°C 64.5°F18.1°C 63% 4.9 mph S7.9 kmh S 9.8 mph15.8 kmh 28.89 in978.3 mb 0.00 in0.0 mm 0.00 in0.0 mm 0.00 in0.0 mm
07:14 PM 78.1°F25.6°C 64.5°F18.1°C 63% 7.4 mph S11.9 kmh S 9.8 mph15.8 kmh 28.89 in978.3 mb 0.00 in0.0 mm 0.00 in0.0 mm 0.00 in0.0 mm
07:13 PM 78.3°F25.7°C 64.6°F18.1°C 63% 9.2 mph S14.8 kmh S 9.8 mph15.8 kmh 28.89 in978.3 mb 0.00 in0.0 mm 0.00 in0.0 mm 0.00 in0.0 mm
07:12 PM 78.4°F25.8°C 64.8°F18.2°C 63% 7.6 mph S12.2 kmh S 9.8 mph15.8 kmh 28.89 in978.3 mb 0.00 in0.0 mm 0.00 in0.0 mm 0.00 in0.0 mm
07:11 PM 78.4°F25.8°C 64.8°F18.2°C 63% 7.2 mph S11.6 kmh S 9.8 mph15.8 kmh 28.89 in978.3 mb 0.00 in0.0 mm 0.00 in0.0 mm 0.00 in0.0 mm
07:10 PM 78.6°F25.9°C 65.0°F18.3°C 63% 7.8 mph S12.6 kmh S 9.8 mph15.8 kmh 28.89 in978.3 mb 0.00 in0.0 mm 0.00 in0.0 mm 0.00 in0.0 mm
07:09 PM 78.6°F25.9°C 65.0°F18.3°C 63% 6.7 mph S10.8 kmh S 8.7 mph14.0 kmh 28.89 in978.3 mb 0.00 in0.0 mm 0.00 in0.0 mm 0.00 in0.0 mm
07:08 PM 78.6°F25.9°C 65.0°F18.3°C 63% 4.5 mph S7.2 kmh S 8.7 mph14.0 kmh 28.89 in978.3 mb 0.00 in0.0 mm 0.00 in0.0 mm 0.00 in0.0 mm
07:07 PM 78.6°F25.9°C 65.0°F18.3°C 63% 6.7 mph S10.8 kmh S 9.8 mph15.8 kmh 28.89 in978.3 mb 0.00 in0.0 mm 0.00 in0.0 mm 0.00 in0.0 mm
07:06 PM 78.6°F25.9°C 65.0°F18.3°C 63% 6.7 mph S10.8 kmh S 9.8 mph15.8 kmh 28.89 in978.3 mb 0.00 in0.0 mm 0.00 in0.0 mm 0.00 in0.0 mm
07:05 PM 78.8°F26.0°C 65.2°F18.4°C 63% 6.7 mph S10.8 kmh S 9.8 mph15.8 kmh 28.89 in978.3 mb 0.00 in0.0 mm 0.00 in0.0 mm 0.00 in0.0 mm
07:04 PM 79.0°F26.1°C 64.9°F18.3°C 62% 5.1 mph S8.2 kmh S 9.8 mph15.8 kmh 28.89 in978.3 mb 0.00 in0.0 mm 0.00 in0.0 mm 0.00 in0.0 mm
07:03 PM 79.0°F26.1°C 64.9°F18.3°C 62% 2.2 mph S3.5 kmh S 9.8 mph15.8 kmh 28.89 in978.3 mb 0.00 in0.0 mm 0.00 in0.0 mm 0.00 in0.0 mm
07:02 PM 79.2°F26.2°C 65.0°F18.3°C 62% 3.1 mph S5.0 kmh S 9.8 mph15.8 kmh 28.89 in978.3 mb 0.00 in0.0 mm 0.00 in0.0 mm 0.00 in0.0 mm
07:01 PM 79.2°F26.2°C 65.0°F18.3°C 62% 7.4 mph S11.9 kmh S 9.8 mph15.8 kmh 28.89 in978.3 mb 0.00 in0.0 mm 0.00 in0.0 mm 0.00 in0.0 mm
07:00 PM 79.2°F26.2°C 65.0°F18.3°C 62% 7.6 mph S12.2 kmh S 9.8 mph15.8 kmh 28.89 in978.3 mb 0.00 in0.0 mm 0.00 in0.0 mm 0.00 in0.0 mm
06:59 PM 79.3°F26.3°C 65.2°F18.4°C 62% 6.5 mph S10.5 kmh S 9.8 mph15.8 kmh 28.89 in978.3 mb 0.00 in0.0 mm 0.00 in0.0 mm 0.00 in0.0 mm
06:58 PM 79.3°F26.3°C 65.2°F18.4°C 62% 6.7 mph S10.8 kmh S 9.8 mph15.8 kmh 28.89 in978.3 mb 0.00 in0.0 mm 0.00 in0.0 mm 0.00 in0.0 mm
06:57 PM 79.5°F26.4°C 65.4°F18.6°C 62% 8.5 mph S13.7 kmh S 8.5 mph13.7 kmh 28.89 in978.3 mb 0.00 in0.0 mm 0.00 in0.0 mm 0.00 in0.0 mm
06:56 PM 79.5°F26.4°C 65.4°F18.6°C 62% 5.6 mph S9.0 kmh S 8.1 mph13.0 kmh 28.89 in978.3 mb 0.00 in0.0 mm 0.00 in0.0 mm 0.00 in0.0 mm
06:55 PM 79.7°F26.5°C 65.6°F18.7°C 62% 4.5 mph S7.2 kmh S 8.1 mph13.0 kmh 28.89 in978.3 mb 0.00 in0.0 mm 0.00 in0.0 mm 0.00 in0.0 mm
06:54 PM 79.7°F26.5°C 65.6°F18.7°C 62% 3.4 mph S5.5 kmh S 8.1 mph13.0 kmh 28.89 in978.3 mb 0.00 in0.0 mm 0.00 in0.0 mm 0.00 in0.0 mm
06:53 PM 79.9°F26.6°C 65.7°F18.7°C 62% 7.6 mph S12.2 kmh S 8.1 mph13.0 kmh 28.89 in978.3 mb 0.00 in0.0 mm 0.00 in0.0 mm 0.00 in0.0 mm
06:52 PM 79.9°F26.6°C 65.7°F18.7°C 62% 1.3 mph S2.1 kmh S 8.1 mph13.0 kmh 28.89 in978.3 mb 0.00 in0.0 mm 0.00 in0.0 mm 0.00 in0.0 mm
06:51 PM 80.1°F26.7°C 65.9°F18.8°C 62% 4.5 mph S7.2 kmh S 8.1 mph13.0 kmh 28.89 in978.3 mb 0.00 in0.0 mm 0.00 in0.0 mm 0.00 in0.0 mm
06:50 PM 80.2°F26.8°C 65.6°F18.7°C 61% 4.7 mph S7.6 kmh S 8.1 mph13.0 kmh 28.89 in978.3 mb 0.00 in0.0 mm 0.00 in0.0 mm 0.00 in0.0 mm
06:49 PM 80.2°F26.8°C 65.6°F18.7°C 61% 3.1 mph S5.0 kmh S 8.5 mph13.7 kmh 28.89 in978.3 mb 0.00 in0.0 mm 0.00 in0.0 mm 0.00 in0.0 mm
06:48 PM 80.4°F26.9°C 65.8°F18.8°C 61% 8.1 mph S13.0 kmh S 8.5 mph13.7 kmh 28.89 in978.3 mb 0.00 in0.0 mm 0.00 in0.0 mm 0.00 in0.0 mm
06:47 PM 80.4°F26.9°C 65.8°F18.8°C 61% 4.3 mph S6.9 kmh S 8.5 mph13.7 kmh 28.89 in978.3 mb 0.00 in0.0 mm 0.00 in0.0 mm 0.00 in0.0 mm
06:46 PM 80.4°F26.9°C 65.8°F18.8°C 61% 6.9 mph S11.1 kmh S 8.9 mph14.3 kmh 28.89 in978.3 mb 0.00 in0.0 mm 0.00 in0.0 mm 0.00 in0.0 mm
06:45 PM 80.6°F27.0°C 65.9°F18.8°C 61% 2.0 mph S3.2 kmh S 10.7 mph17.2 kmh 28.89 in978.3 mb 0.00 in0.0 mm 0.00 in0.0 mm 0.00 in0.0 mm
06:44 PM 80.8°F27.1°C 66.1°F18.9°C 61% 3.1 mph S5.0 kmh S 10.7 mph17.2 kmh 28.89 in978.3 mb 0.00 in0.0 mm 0.00 in0.0 mm 0.00 in0.0 mm
06:43 PM 80.8°F27.1°C 66.1°F18.9°C 61% 4.3 mph S6.9 kmh S 10.7 mph17.2 kmh 28.89 in978.3 mb 0.00 in0.0 mm 0.00 in0.0 mm 0.00 in0.0 mm
06:42 PM 80.8°F27.1°C 66.1°F18.9°C 61% 0.4 mph S0.6 kmh S 10.7 mph17.2 kmh 28.89 in978.3 mb 0.00 in0.0 mm 0.00 in0.0 mm 0.00 in0.0 mm
06:41 PM 81.0°F27.2°C 66.3°F19.1°C 61% 4.3 mph S6.9 kmh S 10.7 mph17.2 kmh 28.89 in978.3 mb 0.00 in0.0 mm 0.00 in0.0 mm 0.00 in0.0 mm
06:40 PM 81.1°F27.3°C 66.4°F19.1°C 61% 5.1 mph S8.2 kmh S 10.7 mph17.2 kmh 28.89 in978.3 mb 0.00 in0.0 mm 0.00 in0.0 mm 0.00 in0.0 mm
06:39 PM 81.1°F27.3°C 66.4°F19.1°C 61% 3.4 mph S5.5 kmh S 10.7 mph17.2 kmh 28.89 in978.3 mb 0.00 in0.0 mm 0.00 in0.0 mm 0.00 in0.0 mm
06:38 PM 81.1°F27.3°C 66.4°F19.1°C 61% 4.9 mph S7.9 kmh S 10.7 mph17.2 kmh 28.89 in978.3 mb 0.00 in0.0 mm 0.00 in0.0 mm 0.00 in0.0 mm
06:37 PM 81.3°F27.4°C 66.6°F19.2°C 61% 4.7 mph S7.6 kmh S 10.7 mph17.2 kmh 28.89 in978.3 mb 0.00 in0.0 mm 0.00 in0.0 mm 0.00 in0.0 mm
06:36 PM 81.3°F27.4°C 66.6°F19.2°C 61% 5.8 mph S9.3 kmh S 11.0 mph17.7 kmh 28.89 in978.3 mb 0.00 in0.0 mm 0.00 in0.0 mm 0.00 in0.0 mm
06:35 PM 81.3°F27.4°C 66.6°F19.2°C 61% 9.8 mph S15.8 kmh S 11.0 mph17.7 kmh 28.89 in978.3 mb 0.00 in0.0 mm 0.00 in0.0 mm 0.00 in0.0 mm
06:34 PM 81.5°F27.5°C 66.7°F19.3°C 61% 6.5 mph S10.5 kmh S 11.0 mph17.7 kmh 28.89 in978.3 mb 0.00 in0.0 mm 0.00 in0.0 mm 0.00 in0.0 mm
06:33 PM 81.5°F27.5°C 66.7°F19.3°C 61% 4.5 mph S7.2 kmh S 11.0 mph17.7 kmh 28.89 in978.3 mb 0.00 in0.0 mm 0.00 in0.0 mm 0.00 in0.0 mm
06:32 PM 81.7°F27.6°C 66.9°F19.4°C 61% 7.2 mph S11.6 kmh S 11.0 mph17.7 kmh 28.89 in978.3 mb 0.00 in0.0 mm 0.00 in0.0 mm 0.00 in0.0 mm
06:31 PM 81.7°F27.6°C 66.9°F19.4°C 61% 4.7 mph S7.6 kmh S 11.0 mph17.7 kmh 28.89 in978.3 mb 0.00 in0.0 mm 0.00 in0.0 mm 0.00 in0.0 mm
06:30 PM 81.7°F27.6°C 66.9°F19.4°C 61% 4.7 mph S7.6 kmh S 11.0 mph17.7 kmh 28.89 in978.3 mb 0.00 in0.0 mm 0.00 in0.0 mm 0.00 in0.0 mm
06:29 PM 81.7°F27.6°C 66.9°F19.4°C 61% 9.2 mph S14.8 kmh S 11.0 mph17.7 kmh 28.89 in978.3 mb 0.00 in0.0 mm 0.00 in0.0 mm 0.00 in0.0 mm
06:28 PM 82.0°F27.8°C 67.2°F19.6°C 61% 3.4 mph S5.5 kmh S 11.0 mph17.7 kmh 28.89 in978.3 mb 0.00 in0.0 mm 0.00 in0.0 mm 0.00 in0.0 mm
06:27 PM 82.0°F27.8°C 67.2°F19.6°C 61% 8.5 mph S13.7 kmh S 11.0 mph17.7 kmh 28.89 in978.3 mb 0.00 in0.0 mm 0.00 in0.0 mm 0.00 in0.0 mm
06:26 PM 82.0°F27.8°C 67.2°F19.6°C 61% 9.4 mph S15.1 kmh S 10.3 mph16.6 kmh 28.89 in978.3 mb 0.00 in0.0 mm 0.00 in0.0 mm 0.00 in0.0 mm
06:25 PM 82.0°F27.8°C 67.2°F19.6°C 61% 7.4 mph S11.9 kmh S 10.3 mph16.6 kmh 28.89 in978.3 mb 0.00 in0.0 mm 0.00 in0.0 mm 0.00 in0.0 mm
06:24 PM 82.0°F27.8°C 67.2°F19.6°C 61% 6.0 mph S9.7 kmh S 10.3 mph16.6 kmh 28.89 in978.3 mb 0.00 in0.0 mm 0.00 in0.0 mm 0.00 in0.0 mm
06:23 PM 82.0°F27.8°C 67.2°F19.6°C 61% 8.1 mph S13.0 kmh S 11.6 mph18.7 kmh 28.89 in978.3 mb 0.00 in0.0 mm 0.00 in0.0 mm 0.00 in0.0 mm
06:22 PM 82.0°F27.8°C 67.2°F19.6°C 61% 6.5 mph S10.5 kmh S 12.1 mph19.5 kmh 28.89 in978.3 mb 0.00 in0.0 mm 0.00 in0.0 mm 0.00 in0.0 mm
06:21 PM 82.0°F27.8°C 67.2°F19.6°C 61% 4.5 mph S7.2 kmh S 12.1 mph19.5 kmh 28.89 in978.3 mb 0.00 in0.0 mm 0.00 in0.0 mm 0.00 in0.0 mm
06:20 PM 82.2°F27.9°C 67.4°F19.7°C 61% 7.6 mph S12.2 kmh S 12.1 mph19.5 kmh 28.89 in978.3 mb 0.00 in0.0 mm 0.00 in0.0 mm 0.00 in0.0 mm
06:19 PM 82.2°F27.9°C 67.4°F19.7°C 61% 2.7 mph SSW4.3 kmh SSW 12.1 mph19.5 kmh 28.89 in978.3 mb 0.00 in0.0 mm 0.00 in0.0 mm 0.00 in0.0 mm
06:18 PM 82.2°F27.9°C 67.4°F19.7°C 61% 9.8 mph S15.8 kmh S 12.1 mph19.5 kmh 28.89 in978.3 mb 0.00 in0.0 mm 0.00 in0.0 mm 0.00 in0.0 mm
06:17 PM 82.2°F27.9°C 67.4°F19.7°C 61% 7.2 mph S11.6 kmh S 12.1 mph19.5 kmh 28.89 in978.3 mb 0.00 in0.0 mm 0.00 in0.0 mm 0.00 in0.0 mm
06:16 PM 82.2°F27.9°C 67.4°F19.7°C 61% 6.3 mph S10.1 kmh S 12.1 mph19.5 kmh 28.89 in978.3 mb 0.00 in0.0 mm 0.00 in0.0 mm 0.00 in0.0 mm
06:15 PM 82.2°F27.9°C 67.4°F19.7°C 61% 4.9 mph S7.9 kmh S 12.1 mph19.5 kmh 28.89 in978.3 mb 0.00 in0.0 mm 0.00 in0.0 mm 0.00 in0.0 mm
06:14 PM 82.2°F27.9°C 67.4°F19.7°C 61% 6.5 mph S10.5 kmh S 12.1 mph19.5 kmh 28.89 in978.3 mb 0.00 in0.0 mm 0.00 in0.0 mm 0.00 in0.0 mm
06:13 PM 82.2°F27.9°C 67.4°F19.7°C 61% 10.1 mph S16.3 kmh S 12.1 mph19.5 kmh 28.90 in978.7 mb 0.00 in0.0 mm 0.00 in0.0 mm 0.00 in0.0 mm
06:12 PM 82.2°F27.9°C 67.4°F19.7°C 61% 9.6 mph S15.4 kmh S 11.2 mph18.0 kmh 28.89 in978.3 mb 0.00 in0.0 mm 0.00 in0.0 mm 0.00 in0.0 mm
06:11 PM 82.2°F27.9°C 67.4°F19.7°C 61% 10.5 mph S16.9 kmh S 10.5 mph16.9 kmh 28.90 in978.7 mb 0.00 in0.0 mm 0.00 in0.0 mm 0.00 in0.0 mm
06:10 PM 82.2°F27.9°C 67.4°F19.7°C 61% 7.8 mph S12.6 kmh S 10.7 mph17.2 kmh 28.90 in978.7 mb 0.00 in0.0 mm 0.00 in0.0 mm 0.00 in0.0 mm
06:09 PM 82.2°F27.9°C 67.4°F19.7°C 61% 7.6 mph S12.2 kmh S 10.7 mph17.2 kmh 28.90 in978.7 mb 0.00 in0.0 mm 0.00 in0.0 mm 0.00 in0.0 mm
06:08 PM 82.2°F27.9°C 67.4°F19.7°C 61% 7.6 mph S12.2 kmh S 11.0 mph17.7 kmh 28.90 in978.7 mb 0.00 in0.0 mm 0.00 in0.0 mm 0.00 in0.0 mm
06:07 PM 82.2°F27.9°C 67.4°F19.7°C 61% 7.8 mph S12.6 kmh S 11.0 mph17.7 kmh 28.90 in978.7 mb 0.00 in0.0 mm 0.00 in0.0 mm 0.00 in0.0 mm
06:06 PM 82.2°F27.9°C 67.4°F19.7°C 61% 3.4 mph S5.5 kmh S 11.0 mph17.7 kmh 28.90 in978.7 mb 0.00 in0.0 mm 0.00 in0.0 mm 0.00 in0.0 mm
06:05 PM 82.4°F28.0°C 67.6°F19.8°C 61% 4.7 mph S7.6 kmh S 11.0 mph17.7 kmh 28.90 in978.7 mb 0.00 in0.0 mm 0.00 in0.0 mm 0.00 in0.0 mm
06:04 PM 82.2°F27.9°C 67.4°F19.7°C 61% 5.1 mph S8.2 kmh S 11.0 mph17.7 kmh 28.90 in978.7 mb 0.00 in0.0 mm 0.00 in0.0 mm 0.00 in0.0 mm
06:03 PM 82.2°F27.9°C 67.4°F19.7°C 61% 5.8 mph S9.3 kmh S 11.0 mph17.7 kmh 28.89 in978.3 mb 0.00 in0.0 mm 0.00 in0.0 mm 0.00 in0.0 mm
06:02 PM 82.2°F27.9°C 67.4°F19.7°C 61% 7.8 mph S12.6 kmh S 11.0 mph17.7 kmh 28.90 in978.7 mb 0.00 in0.0 mm 0.00 in0.0 mm 0.00 in0.0 mm
06:01 PM 82.2°F27.9°C 67.4°F19.7°C 61% 5.4 mph S8.7 kmh S 11.0 mph17.7 kmh 28.90 in978.7 mb 0.00 in0.0 mm 0.00 in0.0 mm 0.00 in0.0 mm
06:00 PM 82.2°F27.9°C 67.4°F19.7°C 61% 7.8 mph SSW12.6 kmh SSW 11.0 mph17.7 kmh 28.90 in978.7 mb 0.00 in0.0 mm 0.00 in0.0 mm 0.00 in0.0 mm
05:59 PM 82.2°F27.9°C 67.4°F19.7°C 61% 4.9 mph SSW7.9 kmh SSW 11.0 mph17.7 kmh 28.90 in978.7 mb 0.00 in0.0 mm 0.00 in0.0 mm 0.00 in0.0 mm
05:58 PM 82.2°F27.9°C 67.4°F19.7°C 61% 7.6 mph SSW12.2 kmh SSW 10.5 mph16.9 kmh 28.90 in978.7 mb 0.00 in0.0 mm 0.00 in0.0 mm 0.00 in0.0 mm
05:57 PM 82.2°F27.9°C 67.8°F19.9°C 62% 4.3 mph SSW6.9 kmh SSW 10.3 mph16.6 kmh 28.90 in978.7 mb 0.00 in0.0 mm 0.00 in0.0 mm 0.00 in0.0 mm
05:56 PM 82.2°F27.9°C 67.8°F19.9°C 62% 4.9 mph SSW7.9 kmh SSW 10.3 mph16.6 kmh 28.90 in978.7 mb 0.00 in0.0 mm 0.00 in0.0 mm 0.00 in0.0 mm
05:55 PM 82.2°F27.9°C 67.8°F19.9°C 62% 6.0 mph SSW9.7 kmh SSW 10.3 mph16.6 kmh 28.90 in978.7 mb 0.00 in0.0 mm 0.00 in0.0 mm 0.00 in0.0 mm
05:54 PM 82.2°F27.9°C 67.8°F19.9°C 62% 6.0 mph SSW9.7 kmh SSW 10.3 mph16.6 kmh 28.90 in978.7 mb 0.00 in0.0 mm 0.00 in0.0 mm 0.00 in0.0 mm
05:53 PM 82.2°F27.9°C 67.8°F19.9°C 62% 9.4 mph SSW15.1 kmh SSW 10.3 mph16.6 kmh 28.90 in978.7 mb 0.00 in0.0 mm 0.00 in0.0 mm 0.00 in0.0 mm
05:52 PM 82.2°F27.9°C 67.8°F19.9°C 62% 2.7 mph SSW4.3 kmh SSW 10.3 mph16.6 kmh 28.90 in978.7 mb 0.00 in0.0 mm 0.00 in0.0 mm 0.00 in0.0 mm
05:51 PM 82.0°F27.8°C 67.7°F19.8°C 62% 7.2 mph SSW11.6 kmh SSW 10.3 mph16.6 kmh 28.90 in978.7 mb 0.00 in0.0 mm 0.00 in0.0 mm 0.00 in0.0 mm
05:50 PM 82.0°F27.8°C 67.7°F19.8°C 62% 4.9 mph SSW7.9 kmh SSW 9.4 mph15.1 kmh 28.90 in978.7 mb 0.00 in0.0 mm 0.00 in0.0 mm 0.00 in0.0 mm
05:49 PM 82.0°F27.8°C 67.7°F19.8°C 62% 9.4 mph S15.1 kmh S 9.4 mph15.1 kmh 28.90 in978.7 mb 0.00 in0.0 mm 0.00 in0.0 mm 0.00 in0.0 mm
05:48 PM 82.0°F27.8°C 67.7°F19.8°C 62% 6.9 mph S11.1 kmh S 9.2 mph14.8 kmh 28.90 in978.7 mb 0.00 in0.0 mm 0.00 in0.0 mm 0.00 in0.0 mm
05:47 PM 82.0°F27.8°C 67.7°F19.8°C 62% 5.8 mph S9.3 kmh S 8.5 mph13.7 kmh 28.90 in978.7 mb 0.00 in0.0 mm 0.00 in0.0 mm 0.00 in0.0 mm
05:46 PM 82.0°F27.8°C 67.7°F19.8°C 62% 4.5 mph S7.2 kmh S 8.7 mph14.0 kmh 28.90 in978.7 mb 0.00 in0.0 mm 0.00 in0.0 mm 0.00 in0.0 mm
05:45 PM 81.7°F27.6°C 67.4°F19.7°C 62% 3.6 mph S5.8 kmh S 8.7 mph14.0 kmh 28.91 in979.0 mb 0.00 in0.0 mm 0.00 in0.0 mm 0.00 in0.0 mm
05:44 PM 81.7°F27.6°C 67.4°F19.7°C 62% 4.9 mph S7.9 kmh S 8.7 mph14.0 kmh 28.90 in978.7 mb 0.00 in0.0 mm 0.00 in0.0 mm 0.00 in0.0 mm
05:43 PM 81.7°F27.6°C 67.4°F19.7°C 62% 2.0 mph S3.2 kmh S 8.7 mph14.0 kmh 28.91 in979.0 mb 0.00 in0.0 mm 0.00 in0.0 mm 0.00 in0.0 mm
05:42 PM 81.7°F27.6°C 67.4°F19.7°C 62% 4.5 mph S7.2 kmh S 8.7 mph14.0 kmh 28.91 in979.0 mb 0.00 in0.0 mm 0.00 in0.0 mm 0.00 in0.0 mm
05:41 PM 81.7°F27.6°C 67.4°F19.7°C 62% 3.8 mph S6.1 kmh S 8.7 mph14.0 kmh 28.91 in979.0 mb 0.00 in0.0 mm 0.00 in0.0 mm 0.00 in0.0 mm
05:40 PM 81.7°F27.6°C 67.4°F19.7°C 62% 4.0 mph S6.4 kmh S 9.4 mph15.1 kmh 28.91 in979.0 mb 0.00 in0.0 mm 0.00 in0.0 mm 0.00 in0.0 mm
05:39 PM 81.7°F27.6°C 67.4°F19.7°C 62% 4.3 mph S6.9 kmh S 9.4 mph15.1 kmh 28.91 in979.0 mb 0.00 in0.0 mm 0.00 in0.0 mm 0.00 in0.0 mm
05:38 PM 81.7°F27.6°C 67.4°F19.7°C 62% 4.9 mph S7.9 kmh S 9.4 mph15.1 kmh 28.91 in979.0 mb 0.00 in0.0 mm 0.00 in0.0 mm 0.00 in0.0 mm
05:37 PM 81.7°F27.6°C 67.4°F19.7°C 62% 4.7 mph S7.6 kmh S 11.2 mph18.0 kmh 28.91 in979.0 mb 0.00 in0.0 mm 0.00 in0.0 mm 0.00 in0.0 mm
05:36 PM 81.7°F27.6°C 67.4°F19.7°C 62% 8.7 mph S14.0 kmh S 11.4 mph18.3 kmh 28.91 in979.0 mb 0.00 in0.0 mm 0.00 in0.0 mm 0.00 in0.0 mm
05:35 PM 81.7°F27.6°C 67.4°F19.7°C 62% 2.0 mph S3.2 kmh S 12.5 mph20.1 kmh 28.91 in979.0 mb 0.00 in0.0 mm 0.00 in0.0 mm 0.00 in0.0 mm
05:34 PM 81.7°F27.6°C 67.4°F19.7°C 62% 3.4 mph S5.5 kmh S 12.5 mph20.1 kmh 28.91 in979.0 mb 0.00 in0.0 mm 0.00 in0.0 mm 0.00 in0.0 mm
05:33 PM 81.7°F27.6°C 67.4°F19.7°C 62% 3.8 mph S6.1 kmh S 12.5 mph20.1 kmh 28.91 in979.0 mb 0.00 in0.0 mm 0.00 in0.0 mm 0.00 in0.0 mm
05:32 PM 81.7°F27.6°C 67.4°F19.7°C 62% 4.7 mph S7.6 kmh S 12.5 mph20.1 kmh 28.90 in978.7 mb 0.00 in0.0 mm 0.00 in0.0 mm 0.00 in0.0 mm
05:31 PM 81.7°F27.6°C 67.4°F19.7°C 62% 3.6 mph S5.8 kmh S 12.5 mph20.1 kmh 28.90 in978.7 mb 0.00 in0.0 mm 0.00 in0.0 mm 0.00 in0.0 mm
05:30 PM 81.7°F27.6°C 67.4°F19.7°C 62% 2.5 mph S4.0 kmh S 12.5 mph20.1 kmh 28.91 in979.0 mb 0.00 in0.0 mm 0.00 in0.0 mm 0.00 in0.0 mm
05:29 PM 81.9°F27.7°C 67.5°F19.7°C 62% 3.4 mph S5.5 kmh S 12.5 mph20.1 kmh 28.91 in979.0 mb 0.00 in0.0 mm 0.00 in0.0 mm 0.00 in0.0 mm
05:28 PM 81.9°F27.7°C 67.5°F19.7°C 62% 5.6 mph S9.0 kmh S 12.5 mph20.1 kmh 28.91 in979.0 mb 0.00 in0.0 mm 0.00 in0.0 mm 0.00 in0.0 mm
05:27 PM 81.9°F27.7°C 68.0°F20.0°C 63% 11.2 mph S18.0 kmh S 12.5 mph20.1 kmh 28.91 in979.0 mb 0.00 in0.0 mm 0.00 in0.0 mm 0.00 in0.0 mm
05:26 PM 82.0°F27.8°C 68.1°F20.1°C 63% 9.6 mph S15.4 kmh S 12.5 mph20.1 kmh 28.91 in979.0 mb 0.00 in0.0 mm 0.00 in0.0 mm 0.00 in0.0 mm
05:25 PM 82.0°F27.8°C 68.1°F20.1°C 63% 8.1 mph S13.0 kmh S 10.7 mph17.2 kmh 28.91 in979.0 mb 0.00 in0.0 mm 0.00 in0.0 mm 0.00 in0.0 mm
05:24 PM 82.0°F27.8°C 68.1°F20.1°C 63% 8.1 mph S13.0 kmh S 10.7 mph17.2 kmh 28.91 in979.0 mb 0.00 in0.0 mm 0.00 in0.0 mm 0.00 in0.0 mm
05:23 PM 82.0°F27.8°C 68.1°F20.1°C 63% 5.1 mph S8.2 kmh S 11.0 mph17.7 kmh 28.91 in979.0 mb 0.00 in0.0 mm 0.00 in0.0 mm 0.00 in0.0 mm
05:22 PM 82.0°F27.8°C 68.1°F20.1°C 63% 3.4 mph S5.5 kmh S 11.0 mph17.7 kmh 28.91 in979.0 mb 0.00 in0.0 mm 0.00 in0.0 mm 0.00 in0.0 mm
05:21 PM 82.0°F27.8°C 68.1°F20.1°C 63% 8.1 mph S13.0 kmh S 11.0 mph17.7 kmh 28.91 in979.0 mb 0.00 in0.0 mm 0.00 in0.0 mm 0.00 in0.0 mm
05:20 PM 82.0°F27.8°C 68.1°F20.1°C 63% 6.0 mph S9.7 kmh S 11.0 mph17.7 kmh 28.91 in979.0 mb 0.00 in0.0 mm 0.00 in0.0 mm 0.00 in0.0 mm
05:19 PM 81.9°F27.7°C 68.0°F20.0°C 63% 7.4 mph S11.9 kmh S 11.0 mph17.7 kmh 28.91 in979.0 mb 0.00 in0.0 mm 0.00 in0.0 mm 0.00 in0.0 mm
05:18 PM 81.7°F27.6°C 67.8°F19.9°C 63% 5.1 mph S8.2 kmh S 11.0 mph17.7 kmh 28.91 in979.0 mb 0.00 in0.0 mm 0.00 in0.0 mm 0.00 in0.0 mm
05:17 PM 81.7°F27.6°C 67.8°F19.9°C 63% 5.4 mph S8.7 kmh S 11.0 mph17.7 kmh 28.91 in979.0 mb 0.00 in0.0 mm 0.00 in0.0 mm 0.00 in0.0 mm
05:16 PM 81.7°F27.6°C 67.8°F19.9°C 63% 10.7 mph S17.2 kmh S 11.0 mph17.7 kmh 28.91 in979.0 mb 0.00 in0.0 mm 0.00 in0.0 mm 0.00 in0.0 mm
05:15 PM 81.7°F27.6°C 68.3°F20.2°C 64% 9.8 mph S15.8 kmh S 11.0 mph17.7 kmh 28.91 in979.0 mb 0.00 in0.0 mm 0.00 in0.0 mm 0.00 in0.0 mm
05:14 PM 81.7°F27.6°C 68.3°F20.2°C 64% 5.8 mph S9.3 kmh S 11.0 mph17.7 kmh 28.91 in979.0 mb 0.00 in0.0 mm 0.00 in0.0 mm 0.00 in0.0 mm
05:13 PM 81.5°F27.5°C 68.1°F20.1°C 64% 11.0 mph S17.7 kmh S 11.0 mph17.7 kmh 28.91 in979.0 mb 0.00 in0.0 mm 0.00 in0.0 mm 0.00 in0.0 mm
05:12 PM 81.5°F27.5°C 68.1°F20.1°C 64% 8.1 mph S13.0 kmh S 10.5 mph16.9 kmh 28.91 in979.0 mb 0.00 in0.0 mm 0.00 in0.0 mm 0.00 in0.0 mm
05:11 PM 81.3°F27.4°C 67.9°F19.9°C 64% 8.9 mph S14.3 kmh S 10.5 mph16.9 kmh 28.91 in979.0 mb 0.00 in0.0 mm 0.00 in0.0 mm 0.00 in0.0 mm
05:10 PM 81.3°F27.4°C 67.9°F19.9°C 64% 6.3 mph S10.1 kmh S 10.5 mph16.9 kmh 28.91 in979.0 mb 0.00 in0.0 mm 0.00 in0.0 mm 0.00 in0.0 mm
05:09 PM 81.3°F27.4°C 67.9°F19.9°C 64% 6.9 mph S11.1 kmh S 10.5 mph16.9 kmh 28.91 in979.0 mb 0.00 in0.0 mm 0.00 in0.0 mm 0.00 in0.0 mm
05:08 PM 81.3°F27.4°C 67.9°F19.9°C 64% 7.4 mph SSW11.9 kmh SSW 11.2 mph18.0 kmh 28.92 in979.3 mb 0.00 in0.0 mm 0.00 in0.0 mm 0.00 in0.0 mm
05:07 PM 81.1°F27.3°C 67.8°F19.9°C 64% 4.9 mph SSW7.9 kmh SSW 11.2 mph18.0 kmh 28.92 in979.3 mb 0.00 in0.0 mm 0.00 in0.0 mm 0.00 in0.0 mm
05:06 PM 81.1°F27.3°C 67.8°F19.9°C 64% 7.6 mph SSW12.2 kmh SSW 11.2 mph18.0 kmh 28.91 in979.0 mb 0.00 in0.0 mm 0.00 in0.0 mm 0.00 in0.0 mm
05:05 PM 81.1°F27.3°C 67.8°F19.9°C 64% 10.1 mph SSW16.3 kmh SSW 11.4 mph18.3 kmh 28.92 in979.3 mb 0.00 in0.0 mm 0.00 in0.0 mm 0.00 in0.0 mm
05:04 PM 81.1°F27.3°C 67.8°F19.9°C 64% 4.5 mph SSW7.2 kmh SSW 11.4 mph18.3 kmh 28.92 in979.3 mb 0.00 in0.0 mm 0.00 in0.0 mm 0.00 in0.0 mm
05:03 PM 81.1°F27.3°C 67.8°F19.9°C 64% 8.3 mph SSW13.4 kmh SSW 11.4 mph18.3 kmh 28.92 in979.3 mb 0.00 in0.0 mm 0.00 in0.0 mm 0.00 in0.0 mm
05:02 PM 81.0°F27.2°C 67.6°F19.8°C 64% 1.3 mph SSW2.1 kmh SSW 11.4 mph18.3 kmh 28.92 in979.3 mb 0.00 in0.0 mm 0.00 in0.0 mm 0.00 in0.0 mm
05:01 PM 81.0°F27.2°C 67.6°F19.8°C 64% 4.7 mph SSW7.6 kmh SSW 11.4 mph18.3 kmh 28.91 in979.0 mb 0.00 in0.0 mm 0.00 in0.0 mm 0.00 in0.0 mm
05:00 PM 80.8°F27.1°C 67.9°F19.9°C 65% 4.5 mph SSW7.2 kmh SSW 11.4 mph18.3 kmh 28.92 in979.3 mb 0.00 in0.0 mm 0.00 in0.0 mm 0.00 in0.0 mm
04:59 PM 80.8°F27.1°C 67.9°F19.9°C 65% 3.8 mph SSW6.1 kmh SSW 11.4 mph18.3 kmh 28.92 in979.3 mb 0.00 in0.0 mm 0.00 in0.0 mm 0.00 in0.0 mm
04:58 PM 80.6°F27.0°C 67.7°F19.8°C 65% 11.2 mph SSW18.0 kmh SSW 11.4 mph18.3 kmh 28.92 in979.3 mb 0.00 in0.0 mm 0.00 in0.0 mm 0.00 in0.0 mm
04:57 PM 80.6°F27.0°C 67.7°F19.8°C 65% 8.3 mph SSW13.4 kmh SSW 11.4 mph18.3 kmh 28.92 in979.3 mb 0.00 in0.0 mm 0.00 in0.0 mm 0.00 in0.0 mm
04:56 PM 80.4°F26.9°C 67.6°F19.8°C 65% 11.4 mph SSW18.3 kmh SSW 11.4 mph18.3 kmh 28.91 in979.0 mb 0.00 in0.0 mm 0.00 in0.0 mm 0.00 in0.0 mm
04:55 PM 80.4°F26.9°C 67.6°F19.8°C 65% 7.4 mph SSW11.9 kmh SSW 11.0 mph17.7 kmh 28.92 in979.3 mb 0.00 in0.0 mm 0.00 in0.0 mm 0.00 in0.0 mm
04:54 PM 80.4°F26.9°C 67.6°F19.8°C 65% 5.8 mph S9.3 kmh S 10.7 mph17.2 kmh 28.92 in979.3 mb 0.00 in0.0 mm 0.00 in0.0 mm 0.00 in0.0 mm
04:53 PM 80.4°F26.9°C 67.6°F19.8°C 65% 7.2 mph S11.6 kmh S 11.9 mph19.2 kmh 28.92 in979.3 mb 0.00 in0.0 mm 0.00 in0.0 mm 0.00 in0.0 mm
04:52 PM 80.2°F26.8°C 67.4°F19.7°C 65% 9.2 mph S14.8 kmh S 13.0 mph20.9 kmh 28.92 in979.3 mb 0.00 in0.0 mm 0.00 in0.0 mm 0.00 in0.0 mm
04:51 PM 80.2°F26.8°C 67.4°F19.7°C 65% 8.3 mph S13.4 kmh S 13.0 mph20.9 kmh 28.92 in979.3 mb 0.00 in0.0 mm 0.00 in0.0 mm 0.00 in0.0 mm
04:50 PM 80.2°F26.8°C 67.4°F19.7°C 65% 4.3 mph S6.9 kmh S 13.0 mph20.9 kmh 28.92 in979.3 mb 0.00 in0.0 mm 0.00 in0.0 mm 0.00 in0.0 mm
04:49 PM 80.2°F26.8°C 67.4°F19.7°C 65% 5.6 mph S9.0 kmh S 13.0 mph20.9 kmh 28.92 in979.3 mb 0.00 in0.0 mm 0.00 in0.0 mm 0.00 in0.0 mm
04:48 PM 80.2°F26.8°C 67.4°F19.7°C 65% 7.8 mph S12.6 kmh S 13.4 mph21.6 kmh 28.91 in979.0 mb 0.00 in0.0 mm 0.00 in0.0 mm 0.00 in0.0 mm
04:47 PM 80.2°F26.8°C 67.4°F19.7°C 65% 4.3 mph S6.9 kmh S 13.4 mph21.6 kmh 28.92 in979.3 mb 0.00 in0.0 mm 0.00 in0.0 mm 0.00 in0.0 mm
04:46 PM 80.1°F26.7°C 67.2°F19.6°C 65% 6.0 mph S9.7 kmh S 13.4 mph21.6 kmh 28.91 in979.0 mb 0.00 in0.0 mm 0.00 in0.0 mm 0.00 in0.0 mm
04:45 PM 80.1°F26.7°C 67.2°F19.6°C 65% 8.3 mph S13.4 kmh S 13.4 mph21.6 kmh 28.91 in979.0 mb 0.00 in0.0 mm 0.00 in0.0 mm 0.00 in0.0 mm
04:44 PM 80.1°F26.7°C 67.7°F19.8°C 66% 10.1 mph S16.3 kmh S 13.4 mph21.6 kmh 28.91 in979.0 mb 0.00 in0.0 mm 0.00 in0.0 mm 0.00 in0.0 mm
04:43 PM 79.9°F26.6°C 67.5°F19.7°C 66% 8.7 mph S14.0 kmh S 13.4 mph21.6 kmh 28.91 in979.0 mb 0.00 in0.0 mm 0.00 in0.0 mm 0.00 in0.0 mm
04:42 PM 79.9°F26.6°C 67.5°F19.7°C 66% 10.1 mph S16.3 kmh S 13.4 mph21.6 kmh 28.91 in979.0 mb 0.00 in0.0 mm 0.00 in0.0 mm 0.00 in0.0 mm
04:41 PM 79.7°F26.5°C 67.3°F19.6°C 66% 8.3 mph S13.4 kmh S 13.4 mph21.6 kmh 28.91 in979.0 mb 0.00 in0.0 mm 0.00 in0.0 mm 0.00 in0.0 mm
04:40 PM 79.7°F26.5°C 67.3°F19.6°C 66% 6.3 mph S10.1 kmh S 13.4 mph21.6 kmh 28.91 in979.0 mb 0.00 in0.0 mm 0.00 in0.0 mm 0.00 in0.0 mm
04:39 PM 79.5°F26.4°C 67.1°F19.5°C 66% 11.0 mph S17.7 kmh S 13.4 mph21.6 kmh 28.91 in979.0 mb 0.00 in0.0 mm 0.00 in0.0 mm 0.00 in0.0 mm
04:38 PM 79.5°F26.4°C 67.1°F19.5°C 66% 7.2 mph S11.6 kmh S 12.8 mph20.6 kmh 28.92 in979.3 mb 0.00 in0.0 mm 0.00 in0.0 mm 0.00 in0.0 mm
04:37 PM 79.5°F26.4°C 67.1°F19.5°C 66% 9.4 mph S15.1 kmh S 12.8 mph20.6 kmh 28.91 in979.0 mb 0.00 in0.0 mm 0.00 in0.0 mm 0.00 in0.0 mm
04:36 PM 79.3°F26.3°C 67.0°F19.4°C 66% 6.5 mph S10.5 kmh S 12.8 mph20.6 kmh 28.92 in979.3 mb 0.00 in0.0 mm 0.00 in0.0 mm 0.00 in0.0 mm
04:35 PM 79.3°F26.3°C 67.0°F19.4°C 66% 11.4 mph S18.3 kmh S 12.8 mph20.6 kmh 28.91 in979.0 mb 0.00 in0.0 mm 0.00 in0.0 mm 0.00 in0.0 mm
04:34 PM 79.3°F26.3°C 67.0°F19.4°C 66% 9.8 mph S15.8 kmh S 12.1 mph19.5 kmh 28.92 in979.3 mb 0.00 in0.0 mm 0.00 in0.0 mm 0.00 in0.0 mm
04:33 PM 79.2°F26.2°C 66.8°F19.3°C 66% 9.8 mph S15.8 kmh S 12.1 mph19.5 kmh 28.92 in979.3 mb 0.00 in0.0 mm 0.00 in0.0 mm 0.00 in0.0 mm
04:32 PM 79.2°F26.2°C 66.8°F19.3°C 66% 7.8 mph S12.6 kmh S 12.1 mph19.5 kmh 28.92 in979.3 mb 0.00 in0.0 mm 0.00 in0.0 mm 0.00 in0.0 mm
04:31 PM 79.2°F26.2°C 66.8°F19.3°C 66% 9.6 mph S15.4 kmh S 12.1 mph19.5 kmh 28.91 in979.0 mb 0.00 in0.0 mm 0.00 in0.0 mm 0.00 in0.0 mm
04:30 PM 79.2°F26.2°C 66.8°F19.3°C 66% 7.6 mph S12.2 kmh S 12.1 mph19.5 kmh 28.91 in979.0 mb 0.00 in0.0 mm 0.00 in0.0 mm 0.00 in0.0 mm
04:29 PM 79.0°F26.1°C 66.6°F19.2°C 66% 8.5 mph S13.7 kmh S 12.1 mph19.5 kmh 28.91 in979.0 mb 0.00 in0.0 mm 0.00 in0.0 mm 0.00 in0.0 mm
04:28 PM 79.0°F26.1°C 66.6°F19.2°C 66% 8.3 mph S13.4 kmh S 12.1 mph19.5 kmh 28.92 in979.3 mb 0.00 in0.0 mm 0.00 in0.0 mm 0.00 in0.0 mm
04:27 PM 79.0°F26.1°C 66.6°F19.2°C 66% 7.6 mph S12.2 kmh S 12.1 mph19.5 kmh 28.92 in979.3 mb 0.00 in0.0 mm 0.00 in0.0 mm 0.00 in0.0 mm
04:26 PM 79.0°F26.1°C 66.6°F19.2°C 66% 9.2 mph S14.8 kmh S 12.1 mph19.5 kmh 28.92 in979.3 mb 0.00 in0.0 mm 0.00 in0.0 mm 0.00 in0.0 mm
04:25 PM 79.0°F26.1°C 66.6°F19.2°C 66% 7.4 mph S11.9 kmh S 12.1 mph19.5 kmh 28.92 in979.3 mb 0.00 in0.0 mm 0.00 in0.0 mm 0.00 in0.0 mm
04:24 PM 79.0°F26.1°C 66.6°F19.2°C 66% 6.0 mph S9.7 kmh S 12.1 mph19.5 kmh 28.92 in979.3 mb 0.00 in0.0 mm 0.00 in0.0 mm 0.00 in0.0 mm
04:23 PM 78.8°F26.0°C 66.5°F19.2°C 66% 7.4 mph S11.9 kmh S 12.1 mph19.5 kmh 28.92 in979.3 mb 0.00 in0.0 mm 0.00 in0.0 mm 0.00 in0.0 mm
04:22 PM 78.8°F26.0°C 66.5°F19.2°C 66% 7.8 mph S12.6 kmh S 12.5 mph20.1 kmh 28.92 in979.3 mb 0.00 in0.0 mm 0.00 in0.0 mm 0.00 in0.0 mm
04:21 PM 78.6°F25.9°C 66.3°F19.1°C 66% 7.2 mph S11.6 kmh S 12.5 mph20.1 kmh 28.92 in979.3 mb 0.00 in0.0 mm 0.00 in0.0 mm 0.00 in0.0 mm
04:20 PM 78.6°F25.9°C 66.3°F19.1°C 66% 7.2 mph S11.6 kmh S 12.5 mph20.1 kmh 28.92 in979.3 mb 0.00 in0.0 mm 0.00 in0.0 mm 0.00 in0.0 mm
04:19 PM 78.6°F25.9°C 66.3°F19.1°C 66% 9.2 mph S14.8 kmh S 12.5 mph20.1 kmh 28.92 in979.3 mb 0.00 in0.0 mm 0.00 in0.0 mm 0.00 in0.0 mm
04:18 PM 78.6°F25.9°C 66.3°F19.1°C 66% 8.3 mph S13.4 kmh S 12.5 mph20.1 kmh 28.92 in979.3 mb 0.00 in0.0 mm 0.00 in0.0 mm 0.00 in0.0 mm
04:17 PM 78.6°F25.9°C 66.7°F19.3°C 67% 8.9 mph S14.3 kmh S 12.5 mph20.1 kmh 28.92 in979.3 mb 0.00 in0.0 mm 0.00 in0.0 mm 0.00 in0.0 mm
04:16 PM 78.6°F25.9°C 66.7°F19.3°C 67% 9.2 mph S14.8 kmh S 12.5 mph20.1 kmh 28.92 in979.3 mb 0.00 in0.0 mm 0.00 in0.0 mm 0.00 in0.0 mm
04:15 PM 78.6°F25.9°C 66.7°F19.3°C 67% 9.2 mph S14.8 kmh S 12.5 mph20.1 kmh 28.92 in979.3 mb 0.00 in0.0 mm 0.00 in0.0 mm 0.00 in0.0 mm
04:14 PM 78.6°F25.9°C 66.7°F19.3°C 67% 4.3 mph S6.9 kmh S 12.5 mph20.1 kmh 28.92 in979.3 mb 0.00 in0.0 mm 0.00 in0.0 mm 0.00 in0.0 mm
04:13 PM 78.6°F25.9°C 66.7°F19.3°C 67% 9.2 mph S14.8 kmh S 12.5 mph20.1 kmh 28.92 in979.3 mb 0.00 in0.0 mm 0.00 in0.0 mm 0.00 in0.0 mm
04:12 PM 78.6°F25.9°C 66.7°F19.3°C 67% 10.7 mph S17.2 kmh S 12.5 mph20.1 kmh 28.92 in979.3 mb 0.00 in0.0 mm 0.00 in0.0 mm 0.00 in0.0 mm
04:11 PM 78.6°F25.9°C 66.7°F19.3°C 67% 6.5 mph S10.5 kmh S 12.5 mph20.1 kmh 28.92 in979.3 mb 0.00 in0.0 mm 0.00 in0.0 mm 0.00 in0.0 mm
04:10 PM 78.6°F25.9°C 66.7°F19.3°C 67% 3.8 mph S6.1 kmh S 12.5 mph20.1 kmh 28.92 in979.3 mb 0.00 in0.0 mm 0.00 in0.0 mm 0.00 in0.0 mm
04:09 PM 78.6°F25.9°C 66.7°F19.3°C 67% 8.5 mph S13.7 kmh S 12.5 mph20.1 kmh 28.92 in979.3 mb 0.00 in0.0 mm 0.00 in0.0 mm 0.00 in0.0 mm
04:08 PM 78.6°F25.9°C 66.7°F19.3°C 67% 7.4 mph S11.9 kmh S 12.5 mph20.1 kmh 28.92 in979.3 mb 0.00 in0.0 mm 0.00 in0.0 mm 0.00 in0.0 mm
04:07 PM 78.6°F25.9°C 66.5°F19.2°C 67% 5.4 mph S8.7 kmh S 12.5 mph20.1 kmh 28.92 in979.3 mb 0.00 in0.0 mm 0.00 in0.0 mm 0.00 in0.0 mm
04:06 PM 78.4°F25.8°C 66.5°F19.2°C 67% 7.4 mph S11.9 kmh S 12.5 mph20.1 kmh 28.93 in979.7 mb 0.00 in0.0 mm 0.00 in0.0 mm 0.00 in0.0 mm
04:05 PM 78.4°F25.8°C 66.5°F19.2°C 67% 1.8 mph SSW2.9 kmh SSW 12.5 mph20.1 kmh 28.92 in979.3 mb 0.00 in0.0 mm 0.00 in0.0 mm 0.00 in0.0 mm
04:04 PM 78.3°F25.7°C 66.4°F19.1°C 67% 6.3 mph S10.1 kmh S 12.5 mph20.1 kmh 28.93 in979.7 mb 0.00 in0.0 mm 0.00 in0.0 mm 0.00 in0.0 mm
04:03 PM 78.1°F25.6°C 66.2°F19.0°C 67% 8.7 mph SSW14.0 kmh SSW 12.5 mph20.1 kmh 28.92 in979.3 mb 0.00 in0.0 mm 0.00 in0.0 mm 0.00 in0.0 mm
04:02 PM 78.1°F25.6°C 66.2°F19.0°C 67% 8.3 mph S13.4 kmh S 10.7 mph17.2 kmh 28.92 in979.3 mb 0.00 in0.0 mm 0.00 in0.0 mm 0.00 in0.0 mm
04:01 PM 78.1°F25.6°C 66.2°F19.0°C 67% 10.1 mph S16.3 kmh S 10.7 mph17.2 kmh 28.92 in979.3 mb 0.00 in0.0 mm 0.00 in0.0 mm 0.00 in0.0 mm
04:00 PM 77.9°F25.5°C 66.0°F18.9°C 67% 8.1 mph S13.0 kmh S 10.7 mph17.2 kmh 28.92 in979.3 mb 0.00 in0.0 mm 0.00 in0.0 mm 0.00 in0.0 mm
03:59 PM 77.9°F25.5°C 66.0°F18.9°C 67% 10.5 mph S16.9 kmh S 10.7 mph17.2 kmh 28.92 in979.3 mb 0.00 in0.0 mm 0.00 in0.0 mm 0.00 in0.0 mm
03:58 PM 77.9°F25.5°C 66.0°F18.9°C 67% 8.9 mph S14.3 kmh S 11.6 mph18.7 kmh 28.92 in979.3 mb 0.00 in0.0 mm 0.00 in0.0 mm 0.00 in0.0 mm
03:57 PM 77.7°F25.4°C 65.9°F18.8°C 67% 5.4 mph S8.7 kmh S 11.6 mph18.7 kmh 28.92 in979.3 mb 0.00 in0.0 mm 0.00 in0.0 mm 0.00 in0.0 mm
03:56 PM 77.7°F25.4°C 65.9°F18.8°C 67% 4.9 mph S7.9 kmh S 11.6 mph18.7 kmh 28.92 in979.3 mb 0.00 in0.0 mm 0.00 in0.0 mm 0.00 in0.0 mm
03:55 PM 77.9°F25.5°C 66.0°F18.9°C 67% 6.7 mph S10.8 kmh S 11.6 mph18.7 kmh 28.92 in979.3 mb 0.00 in0.0 mm 0.00 in0.0 mm 0.00 in0.0 mm
03:54 PM 77.9°F25.5°C 66.0°F18.9°C 67% 4.7 mph S7.6 kmh S 11.6 mph18.7 kmh 28.92 in979.3 mb 0.00 in0.0 mm 0.00 in0.0 mm 0.00 in0.0 mm
03:53 PM 77.9°F25.5°C 66.0°F18.9°C 67% 4.3 mph S6.9 kmh S 11.6 mph18.7 kmh 28.92 in979.3 mb 0.00 in0.0 mm 0.00 in0.0 mm 0.00 in0.0 mm
03:52 PM 77.9°F25.5°C 66.0°F18.9°C 67% 8.3 mph S13.4 kmh S 11.6 mph18.7 kmh 28.92 in979.3 mb 0.00 in0.0 mm 0.00 in0.0 mm 0.00 in0.0 mm
03:51 PM 77.9°F25.5°C 66.0°F18.9°C 67% 8.7 mph S14.0 kmh S 11.6 mph18.7 kmh 28.92 in979.3 mb 0.00 in0.0 mm 0.00 in0.0 mm 0.00 in0.0 mm
03:50 PM 77.9°F25.5°C 66.5°F19.2°C 68% 8.5 mph S13.7 kmh S 11.6 mph18.7 kmh 28.92 in979.3 mb 0.00 in0.0 mm 0.00 in0.0 mm 0.00 in0.0 mm
03:49 PM 77.9°F25.5°C 66.5°F19.2°C 68% 6.7 mph S10.8 kmh S 11.6 mph18.7 kmh 28.92 in979.3 mb 0.00 in0.0 mm 0.00 in0.0 mm 0.00 in0.0 mm
03:48 PM 77.9°F25.5°C 66.5°F19.2°C 68% 9.8 mph S15.8 kmh S 10.5 mph16.9 kmh 28.92 in979.3 mb 0.00 in0.0 mm 0.00 in0.0 mm 0.00 in0.0 mm
03:47 PM 77.9°F25.5°C 66.5°F19.2°C 68% 8.9 mph S14.3 kmh S 10.5 mph16.9 kmh 28.92 in979.3 mb 0.00 in0.0 mm 0.00 in0.0 mm 0.00 in0.0 mm
03:46 PM 77.9°F25.5°C 66.5°F19.2°C 68% 7.6 mph S12.2 kmh S 10.5 mph16.9 kmh 28.92 in979.3 mb 0.00 in0.0 mm 0.00 in0.0 mm 0.00 in0.0 mm
03:45 PM 77.9°F25.5°C 66.5°F19.2°C 68% 9.4 mph S15.1 kmh S 10.5 mph16.9 kmh 28.92 in979.3 mb 0.00 in0.0 mm 0.00 in0.0 mm 0.00 in0.0 mm
03:44 PM 77.9°F25.5°C 66.5°F19.2°C 68% 4.5 mph S7.2 kmh S 10.5 mph16.9 kmh 28.92 in979.3 mb 0.00 in0.0 mm 0.00 in0.0 mm 0.00 in0.0 mm
03:43 PM 77.9°F25.5°C 66.5°F19.2°C 68% 7.8 mph S12.6 kmh S 11.9 mph19.2 kmh 28.92 in979.3 mb 0.00 in0.0 mm 0.00 in0.0 mm 0.00 in0.0 mm
03:42 PM 77.9°F25.5°C 66.5°F19.2°C 68% 6.5 mph SSW10.5 kmh SSW 12.8 mph20.6 kmh 28.92 in979.3 mb 0.00 in0.0 mm 0.00 in0.0 mm 0.00 in0.0 mm
03:41 PM 77.7°F25.4°C 66.3°F19.1°C 68% 4.3 mph S6.9 kmh S 12.8 mph20.6 kmh 28.92 in979.3 mb 0.00 in0.0 mm 0.00 in0.0 mm 0.00 in0.0 mm
03:40 PM 77.7°F25.4°C 66.3°F19.1°C 68% 10.3 mph S16.6 kmh S 12.8 mph20.6 kmh 28.93 in979.7 mb 0.00 in0.0 mm 0.00 in0.0 mm 0.00 in0.0 mm
03:39 PM 77.7°F25.4°C 66.3°F19.1°C 68% 9.4 mph S15.1 kmh S 12.8 mph20.6 kmh 28.93 in979.7 mb 0.00 in0.0 mm 0.00 in0.0 mm 0.00 in0.0 mm
03:38 PM 77.7°F25.4°C 66.8°F19.3°C 69% 6.9 mph S11.1 kmh S 12.8 mph20.6 kmh 28.93 in979.7 mb 0.00 in0.0 mm 0.00 in0.0 mm 0.00 in0.0 mm
03:37 PM 77.7°F25.4°C 66.8°F19.3°C 69% 5.8 mph S9.3 kmh S 12.8 mph20.6 kmh 28.93 in979.7 mb 0.00 in0.0 mm 0.00 in0.0 mm 0.00 in0.0 mm
03:36 PM 77.5°F25.3°C 66.6°F19.2°C 69% 6.5 mph S10.5 kmh S 12.8 mph20.6 kmh 28.93 in979.7 mb 0.00 in0.0 mm 0.00 in0.0 mm 0.00 in0.0 mm
03:35 PM 77.5°F25.3°C 66.6°F19.2°C 69% 6.0 mph S9.7 kmh S 12.8 mph20.6 kmh 28.93 in979.7 mb 0.00 in0.0 mm 0.00 in0.0 mm 0.00 in0.0 mm
03:34 PM 77.4°F25.2°C 66.4°F19.1°C 69% 10.5 mph S16.9 kmh S 12.8 mph20.6 kmh 28.93 in979.7 mb 0.00 in0.0 mm 0.00 in0.0 mm 0.00 in0.0 mm
03:33 PM 77.2°F25.1°C 66.3°F19.1°C 69% 11.9 mph S19.2 kmh S 12.8 mph20.6 kmh 28.93 in979.7 mb 0.00 in0.0 mm 0.00 in0.0 mm 0.00 in0.0 mm
03:32 PM 77.2°F25.1°C 66.3°F19.1°C 69% 12.8 mph S20.6 kmh S 12.8 mph20.6 kmh 28.93 in979.7 mb 0.00 in0.0 mm 0.00 in0.0 mm 0.00 in0.0 mm
03:31 PM 77.2°F25.1°C 66.3°F19.1°C 69% 7.8 mph S12.6 kmh S 11.2 mph18.0 kmh 28.93 in979.7 mb 0.00 in0.0 mm 0.00 in0.0 mm 0.00 in0.0 mm
03:30 PM 77.0°F25.0°C 66.1°F18.9°C 69% 7.4 mph S11.9 kmh S 11.2 mph18.0 kmh 28.93 in979.7 mb 0.00 in0.0 mm 0.00 in0.0 mm 0.00 in0.0 mm
03:29 PM 76.8°F24.9°C 65.9°F18.8°C 69% 4.3 mph S6.9 kmh S 11.2 mph18.0 kmh 28.93 in979.7 mb 0.00 in0.0 mm 0.00 in0.0 mm 0.00 in0.0 mm
03:28 PM 76.8°F24.9°C 65.9°F18.8°C 69% 7.6 mph S12.2 kmh S 11.2 mph18.0 kmh 28.93 in979.7 mb 0.00 in0.0 mm 0.00 in0.0 mm 0.00 in0.0 mm
03:27 PM 76.8°F24.9°C 65.9°F18.8°C 69% 11.2 mph S18.0 kmh S 11.6 mph18.7 kmh 28.93 in979.7 mb 0.00 in0.0 mm 0.00 in0.0 mm 0.00 in0.0 mm
03:26 PM 76.6°F24.8°C 66.2°F19.0°C 70% 8.5 mph S13.7 kmh S 11.6 mph18.7 kmh 28.93 in979.7 mb 0.00 in0.0 mm 0.00 in0.0 mm 0.00 in0.0 mm
03:25 PM 76.6°F24.8°C 66.2°F19.0°C 70% 5.4 mph S8.7 kmh S 12.5 mph20.1 kmh 28.93 in979.7 mb 0.00 in0.0 mm 0.00 in0.0 mm 0.00 in0.0 mm
03:24 PM 76.6°F24.8°C 66.2°F19.0°C 70% 8.5 mph S13.7 kmh S 13.6 mph21.9 kmh 28.93 in979.7 mb 0.00 in0.0 mm 0.00 in0.0 mm 0.00 in0.0 mm
03:23 PM 76.5°F24.7°C 66.0°F18.9°C 70% 7.2 mph S11.6 kmh S 13.6 mph21.9 kmh 28.93 in979.7 mb 0.00 in0.0 mm 0.00 in0.0 mm 0.00 in0.0 mm
03:22 PM 76.3°F24.6°C 65.8°F18.8°C 70% 6.0 mph S9.7 kmh S 13.6 mph21.9 kmh 28.94 in980.0 mb 0.00 in0.0 mm 0.00 in0.0 mm 0.00 in0.0 mm
03:21 PM 76.3°F24.6°C 65.8°F18.8°C 70% 6.7 mph S10.8 kmh S 13.6 mph21.9 kmh 28.94 in980.0 mb 0.00 in0.0 mm 0.00 in0.0 mm 0.00 in0.0 mm
03:20 PM 76.3°F24.6°C 65.8°F18.8°C 70% 8.1 mph S13.0 kmh S 13.6 mph21.9 kmh 28.94 in980.0 mb 0.00 in0.0 mm 0.00 in0.0 mm 0.00 in0.0 mm
03:19 PM 76.3°F24.6°C 65.8°F18.8°C 70% 7.8 mph S12.6 kmh S 13.6 mph21.9 kmh 28.94 in980.0 mb 0.00 in0.0 mm 0.00 in0.0 mm 0.00 in0.0 mm
03:18 PM 76.3°F24.6°C 65.8°F18.8°C 70% 6.9 mph S11.1 kmh S 13.6 mph21.9 kmh 28.94 in980.0 mb 0.00 in0.0 mm 0.00 in0.0 mm 0.00 in0.0 mm
03:17 PM 76.1°F24.5°C 65.7°F18.7°C 70% 11.6 mph SSW18.7 kmh SSW 13.6 mph21.9 kmh 28.94 in980.0 mb 0.00 in0.0 mm 0.00 in0.0 mm 0.00 in0.0 mm
03:16 PM 76.1°F24.5°C 65.7°F18.7°C 70% 9.4 mph SSW15.1 kmh SSW 13.6 mph21.9 kmh 28.94 in980.0 mb 0.00 in0.0 mm 0.00 in0.0 mm 0.00 in0.0 mm
03:15 PM 75.9°F24.4°C 65.5°F18.6°C 70% 8.7 mph SSW14.0 kmh SSW 13.6 mph21.9 kmh 28.94 in980.0 mb 0.00 in0.0 mm 0.00 in0.0 mm 0.00 in0.0 mm
03:14 PM 75.9°F24.4°C 65.5°F18.6°C 70% 6.5 mph SSW10.5 kmh SSW 11.2 mph18.0 kmh 28.93 in979.7 mb 0.00 in0.0 mm 0.00 in0.0 mm 0.00 in0.0 mm
03:13 PM 75.9°F24.4°C 65.5°F18.6°C 70% 6.9 mph SSW11.1 kmh SSW 8.7 mph14.0 kmh 28.93 in979.7 mb 0.00 in0.0 mm 0.00 in0.0 mm 0.00 in0.0 mm
03:12 PM 75.9°F24.4°C 65.9°F18.8°C 71% 7.8 mph SSW12.6 kmh SSW 8.1 mph13.0 kmh 28.93 in979.7 mb 0.00 in0.0 mm 0.00 in0.0 mm 0.00 in0.0 mm
03:11 PM 75.7°F24.3°C 65.7°F18.7°C 71% 2.2 mph SSW3.5 kmh SSW 8.7 mph14.0 kmh 28.93 in979.7 mb 0.00 in0.0 mm 0.00 in0.0 mm 0.00 in0.0 mm
03:10 PM 75.7°F24.3°C 65.7°F18.7°C 71% 4.0 mph SSW6.4 kmh SSW 10.3 mph16.6 kmh 28.93 in979.7 mb 0.00 in0.0 mm 0.00 in0.0 mm 0.00 in0.0 mm
03:09 PM 75.7°F24.3°C 65.7°F18.7°C 71% 4.0 mph SSW6.4 kmh SSW 10.3 mph16.6 kmh 28.93 in979.7 mb 0.00 in0.0 mm 0.00 in0.0 mm 0.00 in0.0 mm
03:08 PM 75.7°F24.3°C 65.7°F18.7°C 71% 0.7 mph SSW1.1 kmh SSW 10.7 mph17.2 kmh 28.94 in980.0 mb 0.00 in0.0 mm 0.00 in0.0 mm 0.00 in0.0 mm
03:07 PM 75.6°F24.2°C 65.5°F18.6°C 71% 5.1 mph SSW8.2 kmh SSW 11.4 mph18.3 kmh 28.94 in980.0 mb 0.00 in0.0 mm 0.00 in0.0 mm 0.00 in0.0 mm
03:06 PM 75.4°F24.1°C 65.3°F18.5°C 71% 6.7 mph SSW10.8 kmh SSW 11.6 mph18.7 kmh 28.94 in980.0 mb 0.00 in0.0 mm 0.00 in0.0 mm 0.00 in0.0 mm
03:05 PM 75.4°F24.1°C 65.3°F18.5°C 71% Calm Calm 11.6 mph18.7 kmh 28.93 in979.7 mb 0.00 in0.0 mm 0.00 in0.0 mm 0.00 in0.0 mm
03:04 PM 75.4°F24.1°C 65.3°F18.5°C 71% 3.8 mph SSW6.1 kmh SSW 11.6 mph18.7 kmh 28.94 in980.0 mb 0.00 in0.0 mm 0.00 in0.0 mm 0.00 in0.0 mm
03:03 PM 75.4°F24.1°C 65.3°F18.5°C 71% 1.3 mph SSW2.1 kmh SSW 11.6 mph18.7 kmh 28.94 in980.0 mb 0.00 in0.0 mm 0.00 in0.0 mm 0.00 in0.0 mm
03:02 PM 75.2°F24.0°C 65.2°F18.4°C 71% 5.4 mph SSW8.7 kmh SSW 11.6 mph18.7 kmh 28.94 in980.0 mb 0.00 in0.0 mm 0.00 in0.0 mm 0.00 in0.0 mm
03:01 PM 75.0°F23.9°C 65.0°F18.3°C 71% 4.3 mph SSW6.9 kmh SSW 11.6 mph18.7 kmh 28.93 in979.7 mb 0.00 in0.0 mm 0.00 in0.0 mm 0.00 in0.0 mm
03:00 PM 75.0°F23.9°C 65.0°F18.3°C 71% 4.9 mph SSW7.9 kmh SSW 11.6 mph18.7 kmh 28.94 in980.0 mb 0.00 in0.0 mm 0.00 in0.0 mm 0.00 in0.0 mm
02:59 PM 75.0°F23.9°C 65.4°F18.6°C 72% 5.6 mph SSW9.0 kmh SSW 11.6 mph18.7 kmh 28.94 in980.0 mb 0.00 in0.0 mm 0.00 in0.0 mm 0.00 in0.0 mm
02:58 PM 75.0°F23.9°C 65.4°F18.6°C 72% 6.9 mph SSW11.1 kmh SSW 11.6 mph18.7 kmh 28.93 in979.7 mb 0.00 in0.0 mm 0.00 in0.0 mm 0.00 in0.0 mm
02:57 PM 75.0°F23.9°C 65.4°F18.6°C 72% 11.6 mph SSW18.7 kmh SSW 11.6 mph18.7 kmh 28.93 in979.7 mb 0.00 in0.0 mm 0.00 in0.0 mm 0.00 in0.0 mm
02:56 PM 74.8°F23.8°C 64.8°F18.2°C 71% 5.8 mph S9.3 kmh S 11.0 mph17.7 kmh 28.94 in980.0 mb 0.00 in0.0 mm 0.00 in0.0 mm 0.00 in0.0 mm
02:55 PM 74.8°F23.8°C 65.2°F18.4°C 72% 5.4 mph S8.7 kmh S 11.2 mph18.0 kmh 28.94 in980.0 mb 0.00 in0.0 mm 0.00 in0.0 mm 0.00 in0.0 mm
02:54 PM 74.8°F23.8°C 65.2°F18.4°C 72% 6.0 mph S9.7 kmh S 11.2 mph18.0 kmh 28.94 in980.0 mb 0.00 in0.0 mm 0.00 in0.0 mm 0.00 in0.0 mm
02:53 PM 74.8°F23.8°C 65.2°F18.4°C 72% 3.4 mph S5.5 kmh S 11.2 mph18.0 kmh 28.94 in980.0 mb 0.00 in0.0 mm 0.00 in0.0 mm 0.00 in0.0 mm
02:52 PM 74.8°F23.8°C 65.2°F18.4°C 72% 4.7 mph S7.6 kmh S 11.2 mph18.0 kmh 28.94 in980.0 mb 0.00 in0.0 mm 0.00 in0.0 mm 0.00 in0.0 mm
02:51 PM 74.5°F23.6°C 64.9°F18.3°C 72% Calm Calm 11.2 mph18.0 kmh 28.94 in980.0 mb 0.00 in0.0 mm 0.00 in0.0 mm 0.00 in0.0 mm
02:50 PM 74.5°F23.6°C 64.9°F18.3°C 72% 7.6 mph S12.2 kmh S 11.2 mph18.0 kmh 28.94 in980.0 mb 0.00 in0.0 mm 0.00 in0.0 mm 0.00 in0.0 mm
02:49 PM 74.5°F23.6°C 64.9°F18.3°C 72% 5.4 mph S8.7 kmh S 11.2 mph18.0 kmh 28.94 in980.0 mb 0.00 in0.0 mm 0.00 in0.0 mm 0.00 in0.0 mm
02:48 PM 74.3°F23.5°C 64.7°F18.2°C 72% 9.4 mph S15.1 kmh S 11.2 mph18.0 kmh 28.94 in980.0 mb 0.00 in0.0 mm 0.00 in0.0 mm 0.00 in0.0 mm
02:47 PM 74.1°F23.4°C 64.9°F18.3°C 73% 7.4 mph S11.9 kmh S 11.2 mph18.0 kmh 28.94 in980.0 mb 0.00 in0.0 mm 0.00 in0.0 mm 0.00 in0.0 mm
02:46 PM 74.1°F23.4°C 64.9°F18.3°C 73% 11.2 mph S18.0 kmh S 11.2 mph18.0 kmh 28.94 in980.0 mb 0.00 in0.0 mm 0.00 in0.0 mm 0.00 in0.0 mm
02:45 PM 73.9°F23.3°C 64.8°F18.2°C 73% 7.2 mph S11.6 kmh S 9.6 mph15.4 kmh 28.94 in980.0 mb 0.00 in0.0 mm 0.00 in0.0 mm 0.00 in0.0 mm
02:44 PM 73.9°F23.3°C 64.8°F18.2°C 73% 6.0 mph S9.7 kmh S 9.2 mph14.8 kmh 28.94 in980.0 mb 0.00 in0.0 mm 0.00 in0.0 mm 0.00 in0.0 mm
02:43 PM 73.9°F23.3°C 64.8°F18.2°C 73% 6.7 mph S10.8 kmh S 8.1 mph13.0 kmh 28.94 in980.0 mb 0.00 in0.0 mm 0.00 in0.0 mm 0.00 in0.0 mm
02:42 PM 73.8°F23.2°C 64.6°F18.1°C 73% 3.4 mph SSW5.5 kmh SSW 6.9 mph11.1 kmh 28.94 in980.0 mb 0.00 in0.0 mm 0.00 in0.0 mm 0.00 in0.0 mm
02:41 PM 73.8°F23.2°C 64.6°F18.1°C 73% Calm Calm 6.9 mph11.1 kmh 28.94 in980.0 mb 0.00 in0.0 mm 0.00 in0.0 mm 0.00 in0.0 mm
02:40 PM 73.6°F23.1°C 64.4°F18.0°C 73% Calm Calm 6.9 mph11.1 kmh 28.94 in980.0 mb 0.00 in0.0 mm 0.00 in0.0 mm 0.00 in0.0 mm
02:39 PM 73.6°F23.1°C 64.4°F18.0°C 73% 4.9 mph SSW7.9 kmh SSW 6.9 mph11.1 kmh 28.95 in980.4 mb 0.00 in0.0 mm 0.00 in0.0 mm 0.00 in0.0 mm
02:38 PM 73.6°F23.1°C 64.4°F18.0°C 73% 6.7 mph SSW10.8 kmh SSW 6.7 mph10.8 kmh 28.95 in980.4 mb 0.00 in0.0 mm 0.00 in0.0 mm 0.00 in0.0 mm
02:37 PM 73.4°F23.0°C 64.3°F17.9°C 73% 3.8 mph SSW6.1 kmh SSW 5.1 mph8.2 kmh 28.95 in980.4 mb 0.00 in0.0 mm 0.00 in0.0 mm 0.00 in0.0 mm
02:36 PM 73.2°F22.9°C 64.1°F17.8°C 73% Calm Calm 5.1 mph8.2 kmh 28.95 in980.4 mb 0.00 in0.0 mm 0.00 in0.0 mm 0.00 in0.0 mm
02:35 PM 73.2°F22.9°C 64.1°F17.8°C 73% Calm Calm 5.1 mph8.2 kmh 28.95 in980.4 mb 0.00 in0.0 mm 0.00 in0.0 mm 0.00 in0.0 mm
02:34 PM 73.2°F22.9°C 64.1°F17.8°C 73% Calm Calm 5.1 mph8.2 kmh 28.95 in980.4 mb 0.00 in0.0 mm 0.00 in0.0 mm 0.00 in0.0 mm
02:33 PM 73.2°F22.9°C 64.1°F17.8°C 73% Calm Calm 5.4 mph8.7 kmh 28.95 in980.4 mb 0.00 in0.0 mm 0.00 in0.0 mm 0.00 in0.0 mm
02:32 PM 73.2°F22.9°C 64.1°F17.8°C 73% Calm Calm 7.4 mph11.9 kmh 28.95 in980.4 mb 0.00 in0.0 mm 0.00 in0.0 mm 0.00 in0.0 mm
02:31 PM 73.0°F22.8°C 63.9°F17.7°C 73% Calm Calm 7.4 mph11.9 kmh 28.95 in980.4 mb 0.00 in0.0 mm 0.00 in0.0 mm 0.00 in0.0 mm
02:30 PM 73.0°F22.8°C 63.9°F17.7°C 73% 0.9 mph S1.4 kmh S 7.4 mph11.9 kmh 28.95 in980.4 mb 0.00 in0.0 mm 0.00 in0.0 mm 0.00 in0.0 mm
02:29 PM 73.0°F22.8°C 63.9°F17.7°C 73% 3.1 mph S5.0 kmh S 7.4 mph11.9 kmh 28.95 in980.4 mb 0.00 in0.0 mm 0.00 in0.0 mm 0.00 in0.0 mm
02:28 PM 73.0°F22.8°C 63.9°F17.7°C 73% 2.9 mph S4.7 kmh S 7.6 mph12.2 kmh 28.95 in980.4 mb 0.00 in0.0 mm 0.00 in0.0 mm 0.00 in0.0 mm
02:27 PM 72.9°F22.7°C 63.7°F17.6°C 73% 1.6 mph S2.6 kmh S 7.6 mph12.2 kmh 28.95 in980.4 mb 0.00 in0.0 mm 0.00 in0.0 mm 0.00 in0.0 mm
02:26 PM 72.7°F22.6°C 63.6°F17.6°C 73% 2.5 mph S4.0 kmh S 7.6 mph12.2 kmh 28.95 in980.4 mb 0.00 in0.0 mm 0.00 in0.0 mm 0.00 in0.0 mm
02:25 PM 72.7°F22.6°C 63.6°F17.6°C 73% 2.7 mph S4.3 kmh S 7.6 mph12.2 kmh 28.95 in980.4 mb 0.00 in0.0 mm 0.00 in0.0 mm 0.00 in0.0 mm
02:24 PM 72.7°F22.6°C 63.6°F17.6°C 73% 4.0 mph S6.4 kmh S 9.4 mph15.1 kmh 28.95 in980.4 mb 0.00 in0.0 mm 0.00 in0.0 mm 0.00 in0.0 mm
02:23 PM 72.5°F22.5°C 63.4°F17.4°C 73% 7.4 mph S11.9 kmh S 9.4 mph15.1 kmh 28.95 in980.4 mb 0.00 in0.0 mm 0.00 in0.0 mm 0.00 in0.0 mm
02:22 PM 72.5°F22.5°C 63.4°F17.4°C 73% 3.8 mph S6.1 kmh S 9.4 mph15.1 kmh 28.95 in980.4 mb 0.00 in0.0 mm 0.00 in0.0 mm 0.00 in0.0 mm
02:21 PM 72.5°F22.5°C 63.4°F17.4°C 73% Calm Calm 9.4 mph15.1 kmh 28.95 in980.4 mb 0.00 in0.0 mm 0.00 in0.0 mm 0.00 in0.0 mm
02:20 PM 72.3°F22.4°C 63.2°F17.3°C 73% 0.7 mph S1.1 kmh S 9.4 mph15.1 kmh 28.95 in980.4 mb 0.00 in0.0 mm 0.00 in0.0 mm 0.00 in0.0 mm
02:19 PM 72.3°F22.4°C 63.2°F17.3°C 73% 5.6 mph S9.0 kmh S 9.4 mph15.1 kmh 28.95 in980.4 mb 0.00 in0.0 mm 0.00 in0.0 mm 0.00 in0.0 mm
02:18 PM 72.3°F22.4°C 63.2°F17.3°C 73% 5.6 mph S9.0 kmh S 9.4 mph15.1 kmh 28.95 in980.4 mb 0.00 in0.0 mm 0.00 in0.0 mm 0.00 in0.0 mm
02:17 PM 72.1°F22.3°C 63.4°F17.4°C 74% 4.5 mph S7.2 kmh S 9.4 mph15.1 kmh 28.95 in980.4 mb 0.00 in0.0 mm 0.00 in0.0 mm 0.00 in0.0 mm
02:16 PM 72.1°F22.3°C 63.4°F17.4°C 74% 5.6 mph S9.0 kmh S 9.4 mph15.1 kmh 28.95 in980.4 mb 0.00 in0.0 mm 0.00 in0.0 mm 0.00 in0.0 mm
02:15 PM 72.1°F22.3°C 63.4°F17.4°C 74% 6.7 mph S10.8 kmh S 9.4 mph15.1 kmh 28.95 in980.4 mb 0.00 in0.0 mm 0.00 in0.0 mm 0.00 in0.0 mm
02:14 PM 72.1°F22.3°C 63.4°F17.4°C 74% 4.9 mph S7.9 kmh S 9.4 mph15.1 kmh 28.95 in980.4 mb 0.00 in0.0 mm 0.00 in0.0 mm 0.00 in0.0 mm
02:13 PM 72.1°F22.3°C 63.4°F17.4°C 74% 8.7 mph S14.0 kmh S 9.4 mph15.1 kmh 28.95 in980.4 mb 0.00 in0.0 mm 0.00 in0.0 mm 0.00 in0.0 mm
02:12 PM 72.0°F22.2°C 63.2°F17.3°C 74% 6.3 mph S10.1 kmh S 10.3 mph16.6 kmh 28.95 in980.4 mb 0.00 in0.0 mm 0.00 in0.0 mm 0.00 in0.0 mm
02:11 PM 72.0°F22.2°C 63.2°F17.3°C 74% Calm Calm 10.3 mph16.6 kmh 28.95 in980.4 mb 0.00 in0.0 mm 0.00 in0.0 mm 0.00 in0.0 mm
02:10 PM 71.8°F22.1°C 63.0°F17.2°C 74% 2.9 mph S4.7 kmh S 10.3 mph16.6 kmh 28.95 in980.4 mb 0.00 in0.0 mm 0.00 in0.0 mm 0.00 in0.0 mm
02:09 PM 71.8°F22.1°C 63.0°F17.2°C 74% Calm Calm 10.3 mph16.6 kmh 28.95 in980.4 mb 0.00 in0.0 mm 0.00 in0.0 mm 0.00 in0.0 mm
02:08 PM 71.8°F22.1°C 63.0°F17.2°C 74% 3.6 mph S5.8 kmh S 10.3 mph16.6 kmh 28.95 in980.4 mb 0.00 in0.0 mm 0.00 in0.0 mm 0.00 in0.0 mm
02:07 PM 71.8°F22.1°C 63.0°F17.2°C 74% Calm Calm 10.7 mph17.2 kmh 28.95 in980.4 mb 0.00 in0.0 mm 0.00 in0.0 mm 0.00 in0.0 mm
02:06 PM 71.8°F22.1°C 63.0°F17.2°C 74% 2.2 mph S3.5 kmh S 11.6 mph18.7 kmh 28.95 in980.4 mb 0.00 in0.0 mm 0.00 in0.0 mm 0.00 in0.0 mm
02:05 PM 71.6°F22.0°C 62.9°F17.2°C 74% 6.5 mph S10.5 kmh S 13.6 mph21.9 kmh 28.95 in980.4 mb 0.00 in0.0 mm 0.00 in0.0 mm 0.00 in0.0 mm
02:04 PM 71.6°F22.0°C 62.9°F17.2°C 74% 6.5 mph S10.5 kmh S 13.6 mph21.9 kmh 28.95 in980.4 mb 0.00 in0.0 mm 0.00 in0.0 mm 0.00 in0.0 mm
02:03 PM 71.6°F22.0°C 62.9°F17.2°C 74% 4.7 mph S7.6 kmh S 13.6 mph21.9 kmh 28.95 in980.4 mb 0.00 in0.0 mm 0.00 in0.0 mm 0.00 in0.0 mm
02:02 PM 71.4°F21.9°C 62.7°F17.1°C 74% 10.3 mph S16.6 kmh S 13.6 mph21.9 kmh 28.95 in980.4 mb 0.00 in0.0 mm 0.00 in0.0 mm 0.00 in0.0 mm
02:01 PM 71.4°F21.9°C 62.7°F17.1°C 74% 4.9 mph S7.9 kmh S 13.6 mph21.9 kmh 28.95 in980.4 mb 0.00 in0.0 mm 0.00 in0.0 mm 0.00 in0.0 mm
02:00 PM 71.4°F21.9°C 62.7°F17.1°C 74% 8.1 mph S13.0 kmh S 13.6 mph21.9 kmh 28.95 in980.4 mb 0.00 in0.0 mm 0.00 in0.0 mm 0.00 in0.0 mm
01:59 PM 71.4°F21.9°C 62.7°F17.1°C 74% 7.6 mph S12.2 kmh S 13.6 mph21.9 kmh 28.95 in980.4 mb 0.00 in0.0 mm 0.00 in0.0 mm 0.00 in0.0 mm
01:58 PM 71.4°F21.9°C 63.0°F17.2°C 75% 3.4 mph S5.5 kmh S 13.6 mph21.9 kmh 28.95 in980.4 mb 0.00 in0.0 mm 0.00 in0.0 mm 0.00 in0.0 mm
01:57 PM 71.4°F21.9°C 63.0°F17.2°C 75% 10.7 mph S17.2 kmh S 13.6 mph21.9 kmh 28.94 in980.0 mb 0.00 in0.0 mm 0.00 in0.0 mm 0.00 in0.0 mm
01:56 PM 71.2°F21.8°C 62.9°F17.2°C 75% 3.8 mph S6.1 kmh S 13.6 mph21.9 kmh 28.95 in980.4 mb 0.00 in0.0 mm 0.00 in0.0 mm 0.00 in0.0 mm
01:55 PM 71.2°F21.8°C 62.9°F17.2°C 75% 7.4 mph S11.9 kmh S 13.4 mph21.6 kmh 28.94 in980.0 mb 0.00 in0.0 mm 0.00 in0.0 mm 0.00 in0.0 mm
01:54 PM 71.2°F21.8°C 62.9°F17.2°C 75% 11.9 mph S19.2 kmh S 13.4 mph21.6 kmh 28.94 in980.0 mb 0.00 in0.0 mm 0.00 in0.0 mm 0.00 in0.0 mm
01:53 PM 71.2°F21.8°C 62.9°F17.2°C 75% 6.3 mph S10.1 kmh S 11.4 mph18.3 kmh 28.94 in980.0 mb 0.00 in0.0 mm 0.00 in0.0 mm 0.00 in0.0 mm
01:52 PM 71.2°F21.8°C 62.9°F17.2°C 75% 4.7 mph S7.6 kmh S 11.4 mph18.3 kmh 28.94 in980.0 mb 0.00 in0.0 mm 0.00 in0.0 mm 0.00 in0.0 mm
01:51 PM 70.9°F21.6°C 62.5°F16.9°C 75% 9.2 mph S14.8 kmh S 11.4 mph18.3 kmh 28.94 in980.0 mb 0.00 in0.0 mm 0.00 in0.0 mm 0.00 in0.0 mm
01:50 PM 70.9°F21.6°C 62.5°F16.9°C 75% 3.6 mph S5.8 kmh S 11.4 mph18.3 kmh 28.94 in980.0 mb 0.00 in0.0 mm 0.00 in0.0 mm 0.00 in0.0 mm
01:49 PM 70.9°F21.6°C 62.5°F16.9°C 75% 7.4 mph S11.9 kmh S 11.4 mph18.3 kmh 28.94 in980.0 mb 0.00 in0.0 mm 0.00 in0.0 mm 0.00 in0.0 mm
01:48 PM 70.7°F21.5°C 62.3°F16.8°C 75% 6.7 mph S10.8 kmh S 11.4 mph18.3 kmh 28.94 in980.0 mb 0.00 in0.0 mm 0.00 in0.0 mm 0.00 in0.0 mm
01:47 PM 70.5°F21.4°C 62.2°F16.8°C 75% 9.6 mph S15.4 kmh S 11.4 mph18.3 kmh 28.94 in980.0 mb 0.00 in0.0 mm 0.00 in0.0 mm 0.00 in0.0 mm
01:46 PM 70.5°F21.4°C 62.2°F16.8°C 75% 6.0 mph S9.7 kmh S 10.7 mph17.2 kmh 28.94 in980.0 mb 0.00 in0.0 mm 0.00 in0.0 mm 0.00 in0.0 mm
01:45 PM 70.3°F21.3°C 62.0°F16.7°C 75% 4.7 mph S7.6 kmh S 10.7 mph17.2 kmh 28.94 in980.0 mb 0.00 in0.0 mm 0.00 in0.0 mm 0.00 in0.0 mm
01:44 PM 70.3°F21.3°C 62.0°F16.7°C 75% 7.8 mph S12.6 kmh S 10.7 mph17.2 kmh 28.94 in980.0 mb 0.00 in0.0 mm 0.00 in0.0 mm 0.00 in0.0 mm
01:43 PM 70.2°F21.2°C 62.2°F16.8°C 76% 10.7 mph S17.2 kmh S 10.7 mph17.2 kmh 28.94 in980.0 mb 0.00 in0.0 mm 0.00 in0.0 mm 0.00 in0.0 mm
01:42 PM 70.0°F21.1°C 62.0°F16.7°C 76% 6.0 mph S9.7 kmh S 9.2 mph14.8 kmh 28.94 in980.0 mb 0.00 in0.0 mm 0.00 in0.0 mm 0.00 in0.0 mm
01:41 PM 70.0°F21.1°C 61.6°F16.4°C 75% 5.6 mph S9.0 kmh S 9.2 mph14.8 kmh 28.94 in980.0 mb 0.00 in0.0 mm 0.00 in0.0 mm 0.00 in0.0 mm
01:40 PM 69.8°F21.0°C 61.4°F16.3°C 75% 6.5 mph S10.5 kmh S 7.2 mph11.6 kmh 28.94 in980.0 mb 0.00 in0.0 mm 0.00 in0.0 mm 0.00 in0.0 mm
01:39 PM 69.6°F20.9°C 61.3°F16.3°C 75% 4.9 mph S7.9 kmh S 7.2 mph11.6 kmh 28.94 in980.0 mb 0.00 in0.0 mm 0.00 in0.0 mm 0.00 in0.0 mm
01:38 PM 69.6°F20.9°C 61.3°F16.3°C 75% 3.8 mph SSW6.1 kmh SSW 7.2 mph11.6 kmh 28.94 in980.0 mb 0.00 in0.0 mm 0.00 in0.0 mm 0.00 in0.0 mm
01:37 PM 69.6°F20.9°C 61.3°F16.3°C 75% Calm Calm 7.2 mph11.6 kmh 28.94 in980.0 mb 0.00 in0.0 mm 0.00 in0.0 mm 0.00 in0.0 mm
01:36 PM 69.6°F20.9°C 61.6°F16.4°C 76% 6.7 mph SSW10.8 kmh SSW 7.2 mph11.6 kmh 28.94 in980.0 mb 0.00 in0.0 mm 0.00 in0.0 mm 0.00 in0.0 mm
01:35 PM 69.4°F20.8°C 61.5°F16.4°C 76% 4.7 mph SSW7.6 kmh SSW 7.2 mph11.6 kmh 28.94 in980.0 mb 0.00 in0.0 mm 0.00 in0.0 mm 0.00 in0.0 mm
01:34 PM 69.4°F20.8°C 61.5°F16.4°C 76% 4.5 mph SSW7.2 kmh SSW 7.2 mph11.6 kmh 28.94 in980.0 mb 0.00 in0.0 mm 0.00 in0.0 mm 0.00 in0.0 mm
01:33 PM 69.3°F20.7°C 61.3°F16.3°C 76% 3.1 mph SSW5.0 kmh SSW 6.3 mph10.1 kmh 28.94 in980.0 mb 0.00 in0.0 mm 0.00 in0.0 mm 0.00 in0.0 mm
01:32 PM 69.3°F20.7°C 61.3°F16.3°C 76% 5.6 mph SSW9.0 kmh SSW 6.3 mph10.1 kmh 28.94 in980.0 mb 0.00 in0.0 mm 0.00 in0.0 mm 0.00 in0.0 mm
01:31 PM 69.1°F20.6°C 61.2°F16.2°C 76% 2.9 mph SSW4.7 kmh SSW 6.3 mph10.1 kmh 28.94 in980.0 mb 0.00 in0.0 mm 0.00 in0.0 mm 0.00 in0.0 mm
01:30 PM 69.1°F20.6°C 61.2°F16.2°C 76% Calm Calm 6.7 mph10.8 kmh 28.94 in980.0 mb 0.00 in0.0 mm 0.00 in0.0 mm 0.00 in0.0 mm
01:29 PM 69.1°F20.6°C 61.2°F16.2°C 76% Calm Calm 6.7 mph10.8 kmh 28.94 in980.0 mb 0.00 in0.0 mm 0.00 in0.0 mm 0.00 in0.0 mm
01:28 PM 69.1°F20.6°C 61.2°F16.2°C 76% Calm Calm 6.7 mph10.8 kmh 28.94 in980.0 mb 0.00 in0.0 mm 0.00 in0.0 mm 0.00 in0.0 mm
01:27 PM 68.9°F20.5°C 61.0°F16.1°C 76% Calm Calm 10.1 mph16.3 kmh 28.94 in980.0 mb 0.00 in0.0 mm 0.00 in0.0 mm 0.00 in0.0 mm
01:26 PM 68.9°F20.5°C 61.0°F16.1°C 76% 3.4 mph SSW5.5 kmh SSW 10.1 mph16.3 kmh 28.94 in980.0 mb 0.00 in0.0 mm 0.00 in0.0 mm 0.00 in0.0 mm
01:25 PM 68.9°F20.5°C 60.6°F15.9°C 75% 1.1 mph SSW1.8 kmh SSW 11.0 mph17.7 kmh 28.93 in979.7 mb 0.00 in0.0 mm 0.00 in0.0 mm 0.00 in0.0 mm
01:24 PM 68.9°F20.5°C 60.6°F15.9°C 75% 5.4 mph SSW8.7 kmh SSW 11.0 mph17.7 kmh 28.93 in979.7 mb 0.00 in0.0 mm 0.00 in0.0 mm 0.00 in0.0 mm
01:23 PM 68.9°F20.5°C 60.6°F15.9°C 75% 2.9 mph SSW4.7 kmh SSW 11.0 mph17.7 kmh 28.93 in979.7 mb 0.00 in0.0 mm 0.00 in0.0 mm 0.00 in0.0 mm
01:22 PM 68.7°F20.4°C 60.5°F15.8°C 75% 2.2 mph SSW3.5 kmh SSW 11.0 mph17.7 kmh 28.93 in979.7 mb 0.00 in0.0 mm 0.00 in0.0 mm 0.00 in0.0 mm
01:21 PM 68.7°F20.4°C 60.5°F15.8°C 75% 6.7 mph SSW10.8 kmh SSW 11.0 mph17.7 kmh 28.93 in979.7 mb 0.00 in0.0 mm 0.00 in0.0 mm 0.00 in0.0 mm
01:20 PM 68.7°F20.4°C 60.5°F15.8°C 75% 3.6 mph S5.8 kmh S 11.4 mph18.3 kmh 28.93 in979.7 mb 0.00 in0.0 mm 0.00 in0.0 mm 0.00 in0.0 mm
01:19 PM 68.7°F20.4°C 60.5°F15.8°C 75% 5.1 mph S8.2 kmh S 11.4 mph18.3 kmh 28.93 in979.7 mb 0.00 in0.0 mm 0.00 in0.0 mm 0.00 in0.0 mm
01:18 PM 68.7°F20.4°C 60.5°F15.8°C 75% 6.5 mph S10.5 kmh S 11.4 mph18.3 kmh 28.93 in979.7 mb 0.00 in0.0 mm 0.00 in0.0 mm 0.00 in0.0 mm
01:17 PM 68.7°F20.4°C 60.8°F16.0°C 76% 6.5 mph S10.5 kmh S 11.4 mph18.3 kmh 28.93 in979.7 mb 0.00 in0.0 mm 0.00 in0.0 mm 0.00 in0.0 mm
01:16 PM 68.7°F20.4°C 60.5°F15.8°C 75% 3.8 mph S6.1 kmh S 11.4 mph18.3 kmh 28.93 in979.7 mb 0.00 in0.0 mm 0.00 in0.0 mm 0.00 in0.0 mm
01:15 PM 68.7°F20.4°C 60.5°F15.8°C 75% 4.0 mph S6.4 kmh S 11.4 mph18.3 kmh 28.93 in979.7 mb 0.00 in0.0 mm 0.00 in0.0 mm 0.00 in0.0 mm
01:14 PM 68.7°F20.4°C 60.5°F15.8°C 75% 3.4 mph S5.5 kmh S 11.4 mph18.3 kmh 28.93 in979.7 mb 0.00 in0.0 mm 0.00 in0.0 mm 0.00 in0.0 mm
01:13 PM 68.7°F20.4°C 60.5°F15.8°C 75% 5.6 mph S9.0 kmh S 11.4 mph18.3 kmh 28.93 in979.7 mb 0.00 in0.0 mm 0.00 in0.0 mm 0.00 in0.0 mm
01:12 PM 68.7°F20.4°C 60.8°F16.0°C 76% 6.5 mph S10.5 kmh S 11.4 mph18.3 kmh 28.93 in979.7 mb 0.00 in0.0 mm 0.00 in0.0 mm 0.00 in0.0 mm
01:11 PM 68.7°F20.4°C 60.8°F16.0°C 76% 4.0 mph S6.4 kmh S 11.4 mph18.3 kmh 28.93 in979.7 mb 0.00 in0.0 mm 0.00 in0.0 mm 0.00 in0.0 mm
01:10 PM 68.7°F20.4°C 60.8°F16.0°C 76% 9.6 mph S15.4 kmh S 11.0 mph17.7 kmh 28.93 in979.7 mb 0.00 in0.0 mm 0.00 in0.0 mm 0.00 in0.0 mm
01:09 PM 68.7°F20.4°C 60.8°F16.0°C 76% 8.5 mph S13.7 kmh S 11.0 mph17.7 kmh 28.93 in979.7 mb 0.00 in0.0 mm 0.00 in0.0 mm 0.00 in0.0 mm
01:08 PM 68.7°F20.4°C 60.8°F16.0°C 76% 6.7 mph S10.8 kmh S 11.0 mph17.7 kmh 28.93 in979.7 mb 0.00 in0.0 mm 0.00 in0.0 mm 0.00 in0.0 mm
01:07 PM 68.7°F20.4°C 60.8°F16.0°C 76% 3.1 mph SSW5.0 kmh SSW 11.0 mph17.7 kmh 28.93 in979.7 mb 0.00 in0.0 mm 0.00 in0.0 mm 0.00 in0.0 mm
01:06 PM 68.7°F20.4°C 60.8°F16.0°C 76% 10.1 mph SSW16.3 kmh SSW 11.0 mph17.7 kmh 28.93 in979.7 mb 0.00 in0.0 mm 0.00 in0.0 mm 0.00 in0.0 mm
01:05 PM 68.7°F20.4°C 60.8°F16.0°C 76% 2.0 mph SSW3.2 kmh SSW 7.4 mph11.9 kmh 28.93 in979.7 mb 0.00 in0.0 mm 0.00 in0.0 mm 0.00 in0.0 mm
01:04 PM 68.7°F20.4°C 60.8°F16.0°C 76% 3.8 mph SSW6.1 kmh SSW 7.2 mph11.6 kmh 28.93 in979.7 mb 0.00 in0.0 mm 0.00 in0.0 mm 0.00 in0.0 mm
01:03 PM 68.7°F20.4°C 60.8°F16.0°C 76% 4.5 mph SSW7.2 kmh SSW 7.2 mph11.6 kmh 28.93 in979.7 mb 0.00 in0.0 mm 0.00 in0.0 mm 0.00 in0.0 mm
01:02 PM 68.7°F20.4°C 60.8°F16.0°C 76% 2.0 mph SSW3.2 kmh SSW 6.5 mph10.5 kmh 28.93 in979.7 mb 0.00 in0.0 mm 0.00 in0.0 mm 0.00 in0.0 mm
01:01 PM 68.7°F20.4°C 60.8°F16.0°C 76% 4.0 mph SSW6.4 kmh SSW 6.5 mph10.5 kmh 28.93 in979.7 mb 0.00 in0.0 mm 0.00 in0.0 mm 0.00 in0.0 mm
01:00 PM 68.7°F20.4°C 60.8°F16.0°C 76% 5.1 mph S8.2 kmh S 7.2 mph11.6 kmh 28.93 in979.7 mb 0.00 in0.0 mm 0.00 in0.0 mm 0.00 in0.0 mm
12:59 PM 68.7°F20.4°C 60.8°F16.0°C 76% 3.1 mph S5.0 kmh S 7.2 mph11.6 kmh 28.93 in979.7 mb 0.00 in0.0 mm 0.00 in0.0 mm 0.00 in0.0 mm
12:58 PM 68.7°F20.4°C 60.8°F16.0°C 76% 2.0 mph S3.2 kmh S 7.2 mph11.6 kmh 28.93 in979.7 mb 0.00 in0.0 mm 0.00 in0.0 mm 0.00 in0.0 mm
12:57 PM 68.7°F20.4°C 60.8°F16.0°C 76% Calm Calm 7.2 mph11.6 kmh 28.93 in979.7 mb 0.00 in0.0 mm 0.00 in0.0 mm 0.00 in0.0 mm
12:56 PM 68.5°F20.3°C 60.7°F15.9°C 76% 1.6 mph S2.6 kmh S 7.2 mph11.6 kmh 28.93 in979.7 mb 0.00 in0.0 mm 0.00 in0.0 mm 0.00 in0.0 mm
12:55 PM 68.5°F20.3°C 60.7°F15.9°C 76% 0.7 mph S1.1 kmh S 9.8 mph15.8 kmh 28.94 in980.0 mb 0.00 in0.0 mm 0.00 in0.0 mm 0.00 in0.0 mm
12:54 PM 68.5°F20.3°C 60.7°F15.9°C 76% 5.8 mph S9.3 kmh S 9.8 mph15.8 kmh 28.94 in980.0 mb 0.00 in0.0 mm 0.00 in0.0 mm 0.00 in0.0 mm
12:53 PM 68.5°F20.3°C 60.7°F15.9°C 76% 6.5 mph S10.5 kmh S 9.8 mph15.8 kmh 28.94 in980.0 mb 0.00 in0.0 mm 0.00 in0.0 mm 0.00 in0.0 mm
12:52 PM 68.5°F20.3°C 60.7°F15.9°C 76% Calm Calm 9.8 mph15.8 kmh 28.94 in980.0 mb 0.00 in0.0 mm 0.00 in0.0 mm 0.00 in0.0 mm
12:51 PM 68.5°F20.3°C 60.7°F15.9°C 76% 3.1 mph S5.0 kmh S 9.8 mph15.8 kmh 28.93 in979.7 mb 0.00 in0.0 mm 0.00 in0.0 mm 0.00 in0.0 mm
12:50 PM 68.5°F20.3°C 60.7°F15.9°C 76% 4.9 mph S7.9 kmh S 9.8 mph15.8 kmh 28.94 in980.0 mb 0.00 in0.0 mm 0.00 in0.0 mm 0.00 in0.0 mm
12:49 PM 68.4°F20.2°C 60.5°F15.8°C 76% 5.1 mph S8.2 kmh S 9.8 mph15.8 kmh 28.94 in980.0 mb 0.00 in0.0 mm 0.00 in0.0 mm 0.00 in0.0 mm
12:48 PM 68.4°F20.2°C 60.5°F15.8°C 76% 5.4 mph S8.7 kmh S 9.8 mph15.8 kmh 28.94 in980.0 mb 0.00 in0.0 mm 0.00 in0.0 mm 0.00 in0.0 mm
12:47 PM 68.4°F20.2°C 60.5°F15.8°C 76% 5.4 mph S8.7 kmh S 9.8 mph15.8 kmh 28.94 in980.0 mb 0.00 in0.0 mm 0.00 in0.0 mm 0.00 in0.0 mm
12:46 PM 68.2°F20.1°C 60.3°F15.7°C 76% 6.5 mph S10.5 kmh S 9.8 mph15.8 kmh 28.94 in980.0 mb 0.00 in0.0 mm 0.00 in0.0 mm 0.00 in0.0 mm
12:45 PM 68.2°F20.1°C 60.3°F15.7°C 76% 8.3 mph S13.4 kmh S 8.3 mph13.4 kmh 28.94 in980.0 mb 0.00 in0.0 mm 0.00 in0.0 mm 0.00 in0.0 mm
12:44 PM 68.2°F20.1°C 60.3°F15.7°C 76% 3.4 mph S5.5 kmh S 7.8 mph12.6 kmh 28.94 in980.0 mb 0.00 in0.0 mm 0.00 in0.0 mm 0.00 in0.0 mm
12:43 PM 68.2°F20.1°C 60.3°F15.7°C 76% 4.3 mph S6.9 kmh S 7.8 mph12.6 kmh 28.94 in980.0 mb 0.00 in0.0 mm 0.00 in0.0 mm 0.00 in0.0 mm
12:42 PM 68.2°F20.1°C 60.3°F15.7°C 76% 7.4 mph S11.9 kmh S 8.3 mph13.4 kmh 28.94 in980.0 mb 0.00 in0.0 mm 0.00 in0.0 mm 0.00 in0.0 mm
12:41 PM 68.2°F20.1°C 60.7°F15.9°C 77% Calm Calm 10.1 mph16.3 kmh 28.94 in980.0 mb 0.00 in0.0 mm 0.00 in0.0 mm 0.00 in0.0 mm
12:40 PM 68.0°F20.0°C 60.6°F15.9°C 77% 3.4 mph S5.5 kmh S 10.1 mph16.3 kmh 28.94 in980.0 mb 0.00 in0.0 mm 0.00 in0.0 mm 0.00 in0.0 mm
12:39 PM 67.8°F19.9°C 60.0°F15.6°C 76% 3.8 mph S6.1 kmh S 10.1 mph16.3 kmh 28.94 in980.0 mb 0.00 in0.0 mm 0.00 in0.0 mm 0.00 in0.0 mm
12:38 PM 67.8°F19.9°C 60.0°F15.6°C 76% 1.1 mph S1.8 kmh S 10.1 mph16.3 kmh 28.95 in980.4 mb 0.00 in0.0 mm 0.00 in0.0 mm 0.00 in0.0 mm
12:37 PM 67.8°F19.9°C 60.0°F15.6°C 76% Calm Calm 10.1 mph16.3 kmh 28.95 in980.4 mb 0.00 in0.0 mm 0.00 in0.0 mm 0.00 in0.0 mm
12:36 PM 67.8°F19.9°C 60.0°F15.6°C 76% 3.6 mph S5.8 kmh S 10.5 mph16.9 kmh 28.95 in980.4 mb 0.00 in0.0 mm 0.00 in0.0 mm 0.00 in0.0 mm
12:35 PM 67.8°F19.9°C 60.0°F15.6°C 76% 2.0 mph SSW3.2 kmh SSW 12.8 mph20.6 kmh 28.95 in980.4 mb 0.00 in0.0 mm 0.00 in0.0 mm 0.00 in0.0 mm
12:34 PM 67.8°F19.9°C 60.0°F15.6°C 76% Calm Calm 12.8 mph20.6 kmh 28.95 in980.4 mb 0.00 in0.0 mm 0.00 in0.0 mm 0.00 in0.0 mm
12:33 PM 67.8°F19.9°C 60.0°F15.6°C 76% 5.8 mph S9.3 kmh S 12.8 mph20.6 kmh 28.95 in980.4 mb 0.00 in0.0 mm 0.00 in0.0 mm 0.00 in0.0 mm
12:32 PM 67.8°F19.9°C 60.0°F15.6°C 76% 3.6 mph S5.8 kmh S 12.8 mph20.6 kmh 28.95 in980.4 mb 0.00 in0.0 mm 0.00 in0.0 mm 0.00 in0.0 mm
12:31 PM 67.8°F19.9°C 60.0°F15.6°C 76% 6.9 mph S11.1 kmh S 12.8 mph20.6 kmh 28.95 in980.4 mb 0.00 in0.0 mm 0.00 in0.0 mm 0.00 in0.0 mm
12:30 PM 67.6°F19.8°C 59.8°F15.4°C 76% 5.6 mph S9.0 kmh S 12.8 mph20.6 kmh 28.95 in980.4 mb 0.00 in0.0 mm 0.00 in0.0 mm 0.00 in0.0 mm
12:29 PM 67.6°F19.8°C 59.8°F15.4°C 76% 8.3 mph S13.4 kmh S 12.8 mph20.6 kmh 28.95 in980.4 mb 0.00 in0.0 mm 0.00 in0.0 mm 0.00 in0.0 mm
12:28 PM 67.6°F19.8°C 59.8°F15.4°C 76% 4.5 mph S7.2 kmh S 12.8 mph20.6 kmh 28.95 in980.4 mb 0.00 in0.0 mm 0.00 in0.0 mm 0.00 in0.0 mm
12:27 PM 67.6°F19.8°C 59.8°F15.4°C 76% 7.6 mph S12.2 kmh S 13.0 mph20.9 kmh 28.95 in980.4 mb 0.00 in0.0 mm 0.00 in0.0 mm 0.00 in0.0 mm
12:26 PM 67.6°F19.8°C 59.8°F15.4°C 76% 8.9 mph S14.3 kmh S 13.0 mph20.9 kmh 28.95 in980.4 mb 0.00 in0.0 mm 0.00 in0.0 mm 0.00 in0.0 mm
12:25 PM 67.6°F19.8°C 59.8°F15.4°C 76% 3.6 mph S5.8 kmh S 13.6 mph21.9 kmh 28.96 in980.7 mb 0.00 in0.0 mm 0.00 in0.0 mm 0.00 in0.0 mm
12:24 PM 67.6°F19.8°C 59.8°F15.4°C 76% 9.6 mph S15.4 kmh S 13.6 mph21.9 kmh 28.96 in980.7 mb 0.00 in0.0 mm 0.00 in0.0 mm 0.00 in0.0 mm
12:23 PM 67.6°F19.8°C 59.8°F15.4°C 76% 7.2 mph S11.6 kmh S 14.3 mph23.0 kmh 28.96 in980.7 mb 0.00 in0.0 mm 0.00 in0.0 mm 0.00 in0.0 mm
12:22 PM 67.6°F19.8°C 59.8°F15.4°C 76% 6.9 mph S11.1 kmh S 14.3 mph23.0 kmh 28.96 in980.7 mb 0.00 in0.0 mm 0.00 in0.0 mm 0.00 in0.0 mm
12:21 PM 67.6°F19.8°C 59.8°F15.4°C 76% 4.5 mph S7.2 kmh S 18.3 mph29.5 kmh 28.96 in980.7 mb 0.00 in0.0 mm 0.00 in0.0 mm 0.00 in0.0 mm
12:20 PM 67.6°F19.8°C 59.8°F15.4°C 76% 8.7 mph S14.0 kmh S 18.3 mph29.5 kmh 28.96 in980.7 mb 0.00 in0.0 mm 0.00 in0.0 mm 0.00 in0.0 mm
12:19 PM 67.6°F19.8°C 59.8°F15.4°C 76% 4.5 mph S7.2 kmh S 18.3 mph29.5 kmh 28.96 in980.7 mb 0.00 in0.0 mm 0.00 in0.0 mm 0.00 in0.0 mm
12:18 PM 67.6°F19.8°C 59.8°F15.4°C 76% 11.9 mph S19.2 kmh S 18.3 mph29.5 kmh 28.96 in980.7 mb 0.00 in0.0 mm 0.00 in0.0 mm 0.00 in0.0 mm
12:17 PM 67.6°F19.8°C 59.8°F15.4°C 76% 10.3 mph S16.6 kmh S 18.3 mph29.5 kmh 28.96 in980.7 mb 0.00 in0.0 mm 0.00 in0.0 mm 0.00 in0.0 mm
12:16 PM 67.6°F19.8°C 59.8°F15.4°C 76% 9.8 mph S15.8 kmh S 18.3 mph29.5 kmh 28.96 in980.7 mb 0.00 in0.0 mm 0.00 in0.0 mm 0.00 in0.0 mm
12:15 PM 67.6°F19.8°C 59.8°F15.4°C 76% 11.0 mph S17.7 kmh S 18.3 mph29.5 kmh 28.96 in980.7 mb 0.00 in0.0 mm 0.00 in0.0 mm 0.00 in0.0 mm
12:14 PM 67.6°F19.8°C 59.8°F15.4°C 76% 12.8 mph S20.6 kmh S 18.3 mph29.5 kmh 28.95 in980.4 mb 0.00 in0.0 mm 0.00 in0.0 mm 0.00 in0.0 mm
12:13 PM 67.6°F19.8°C 59.8°F15.4°C 76% 7.6 mph S12.2 kmh S 18.3 mph29.5 kmh 28.96 in980.7 mb 0.00 in0.0 mm 0.00 in0.0 mm 0.00 in0.0 mm
12:12 PM 67.6°F19.8°C 59.8°F15.4°C 76% 14.8 mph S23.8 kmh S 18.3 mph29.5 kmh 28.96 in980.7 mb 0.00 in0.0 mm 0.00 in0.0 mm 0.00 in0.0 mm
12:11 PM 67.6°F19.8°C 59.8°F15.4°C 76% 9.2 mph S14.8 kmh S 12.8 mph20.6 kmh 28.95 in980.4 mb 0.00 in0.0 mm 0.00 in0.0 mm 0.00 in0.0 mm
12:10 PM 67.6°F19.8°C 59.8°F15.4°C 76% 3.4 mph S5.5 kmh S 12.8 mph20.6 kmh 28.95 in980.4 mb 0.00 in0.0 mm 0.00 in0.0 mm 0.00 in0.0 mm
12:09 PM 67.6°F19.8°C 59.8°F15.4°C 76% 5.6 mph S9.0 kmh S 12.8 mph20.6 kmh 28.95 in980.4 mb 0.00 in0.0 mm 0.00 in0.0 mm 0.00 in0.0 mm
12:08 PM 67.6°F19.8°C 59.8°F15.4°C 76% 10.7 mph S17.2 kmh S 12.8 mph20.6 kmh 28.95 in980.4 mb 0.00 in0.0 mm 0.00 in0.0 mm 0.00 in0.0 mm
12:07 PM 67.6°F19.8°C 59.8°F15.4°C 76% 11.6 mph S18.7 kmh S 12.5 mph20.1 kmh 28.96 in980.7 mb 0.00 in0.0 mm 0.00 in0.0 mm 0.00 in0.0 mm
12:06 PM 67.5°F19.7°C 59.6°F15.3°C 76% 9.8 mph S15.8 kmh S 12.5 mph20.1 kmh 28.96 in980.7 mb 0.00 in0.0 mm 0.00 in0.0 mm 0.00 in0.0 mm
12:05 PM 67.5°F19.7°C 59.6°F15.3°C 76% 9.6 mph S15.4 kmh S 12.5 mph20.1 kmh 28.96 in980.7 mb 0.00 in0.0 mm 0.00 in0.0 mm 0.00 in0.0 mm
12:04 PM 67.5°F19.7°C 59.6°F15.3°C 76% 8.3 mph S13.4 kmh S 12.5 mph20.1 kmh 28.96 in980.7 mb 0.00 in0.0 mm 0.00 in0.0 mm 0.00 in0.0 mm
12:03 PM 67.5°F19.7°C 59.6°F15.3°C 76% 5.1 mph S8.2 kmh S 12.5 mph20.1 kmh 28.96 in980.7 mb 0.00 in0.0 mm 0.00 in0.0 mm 0.00 in0.0 mm
12:02 PM 67.3°F19.6°C 59.5°F15.3°C 76% 3.8 mph S6.1 kmh S 12.5 mph20.1 kmh 28.96 in980.7 mb 0.00 in0.0 mm 0.00 in0.0 mm 0.00 in0.0 mm
12:01 PM 67.3°F19.6°C 59.5°F15.3°C 76% 7.8 mph S12.6 kmh S 12.5 mph20.1 kmh 28.96 in980.7 mb 0.00 in0.0 mm 0.00 in0.0 mm 0.00 in0.0 mm
12:00 PM 67.3°F19.6°C 59.5°F15.3°C 76% 7.4 mph S11.9 kmh S 12.5 mph20.1 kmh 28.96 in980.7 mb 0.00 in0.0 mm 0.00 in0.0 mm 0.00 in0.0 mm
11:59 AM 67.3°F19.6°C 59.5°F15.3°C 76% 4.9 mph S7.9 kmh S 11.4 mph18.3 kmh 28.96 in980.7 mb 0.00 in0.0 mm 0.00 in0.0 mm 0.00 in0.0 mm
11:58 AM 67.3°F19.6°C 59.5°F15.3°C 76% 6.3 mph S10.1 kmh S 11.6 mph18.7 kmh 28.96 in980.7 mb 0.00 in0.0 mm 0.00 in0.0 mm 0.00 in0.0 mm
11:57 AM 67.3°F19.6°C 59.5°F15.3°C 76% 7.6 mph S12.2 kmh S 13.9 mph22.4 kmh 28.96 in980.7 mb 0.00 in0.0 mm 0.00 in0.0 mm 0.00 in0.0 mm
11:56 AM 67.3°F19.6°C 59.5°F15.3°C 76% 5.6 mph S9.0 kmh S 13.9 mph22.4 kmh 28.96 in980.7 mb 0.00 in0.0 mm 0.00 in0.0 mm 0.00 in0.0 mm
11:55 AM 67.3°F19.6°C 59.5°F15.3°C 76% 4.7 mph S7.6 kmh S 13.9 mph22.4 kmh 28.96 in980.7 mb 0.00 in0.0 mm 0.00 in0.0 mm 0.00 in0.0 mm
11:54 AM 67.3°F19.6°C 59.5°F15.3°C 76% 8.7 mph S14.0 kmh S 13.9 mph22.4 kmh 28.96 in980.7 mb 0.00 in0.0 mm 0.00 in0.0 mm 0.00 in0.0 mm
11:53 AM 67.3°F19.6°C 59.5°F15.3°C 76% 7.6 mph S12.2 kmh S 13.9 mph22.4 kmh 28.96 in980.7 mb 0.00 in0.0 mm 0.00 in0.0 mm 0.00 in0.0 mm
11:52 AM 67.3°F19.6°C 59.5°F15.3°C 76% 8.1 mph S13.0 kmh S 13.9 mph22.4 kmh 28.96 in980.7 mb 0.00 in0.0 mm 0.00 in0.0 mm 0.00 in0.0 mm
11:51 AM 67.3°F19.6°C 59.5°F15.3°C 76% 5.6 mph S9.0 kmh S 13.9 mph22.4 kmh 28.96 in980.7 mb 0.00 in0.0 mm 0.00 in0.0 mm 0.00 in0.0 mm
11:50 AM 67.3°F19.6°C 59.5°F15.3°C 76% 4.5 mph S7.2 kmh S 13.9 mph22.4 kmh 28.96 in980.7 mb 0.00 in0.0 mm 0.00 in0.0 mm 0.00 in0.0 mm
11:49 AM 67.3°F19.6°C 59.5°F15.3°C 76% 8.7 mph S14.0 kmh S 13.9 mph22.4 kmh 28.96 in980.7 mb 0.00 in0.0 mm 0.00 in0.0 mm 0.00 in0.0 mm
11:48 AM 67.1°F19.5°C 59.3°F15.2°C 76% 13.9 mph S22.4 kmh S 13.9 mph22.4 kmh 28.96 in980.7 mb 0.00 in0.0 mm 0.00 in0.0 mm 0.00 in0.0 mm
11:47 AM 67.3°F19.6°C 59.5°F15.3°C 76% 8.5 mph S13.7 kmh S 12.1 mph19.5 kmh 28.96 in980.7 mb 0.00 in0.0 mm 0.00 in0.0 mm 0.00 in0.0 mm
11:46 AM 67.3°F19.6°C 59.5°F15.3°C 76% 8.3 mph S13.4 kmh S 11.2 mph18.0 kmh 28.96 in980.7 mb 0.00 in0.0 mm 0.00 in0.0 mm 0.00 in0.0 mm
11:45 AM 67.3°F19.6°C 59.5°F15.3°C 76% 1.8 mph S2.9 kmh S 11.2 mph18.0 kmh 28.96 in980.7 mb 0.00 in0.0 mm 0.00 in0.0 mm 0.00 in0.0 mm
11:44 AM 67.1°F19.5°C 59.3°F15.2°C 76% 6.0 mph S9.7 kmh S 11.2 mph18.0 kmh 28.97 in981.0 mb 0.00 in0.0 mm 0.00 in0.0 mm 0.00 in0.0 mm
11:43 AM 67.1°F19.5°C 59.3°F15.2°C 76% 4.5 mph SSW7.2 kmh SSW 11.2 mph18.0 kmh 28.97 in981.0 mb 0.00 in0.0 mm 0.00 in0.0 mm 0.00 in0.0 mm
11:42 AM 67.1°F19.5°C 59.3°F15.2°C 76% 3.6 mph S5.8 kmh S 11.2 mph18.0 kmh 28.97 in981.0 mb 0.00 in0.0 mm 0.00 in0.0 mm 0.00 in0.0 mm
11:41 AM 67.1°F19.5°C 59.3°F15.2°C 76% 5.4 mph SSW8.7 kmh SSW 10.3 mph16.6 kmh 28.97 in981.0 mb 0.00 in0.0 mm 0.00 in0.0 mm 0.00 in0.0 mm
11:40 AM 67.1°F19.5°C 59.3°F15.2°C 76% 3.4 mph SSW5.5 kmh SSW 10.3 mph16.6 kmh 28.96 in980.7 mb 0.00 in0.0 mm 0.00 in0.0 mm 0.00 in0.0 mm
11:39 AM 67.1°F19.5°C 59.3°F15.2°C 76% 4.0 mph SSW6.4 kmh SSW 10.3 mph16.6 kmh 28.96 in980.7 mb 0.00 in0.0 mm 0.00 in0.0 mm 0.00 in0.0 mm
11:38 AM 67.1°F19.5°C 59.3°F15.2°C 76% 2.0 mph S3.2 kmh S 10.3 mph16.6 kmh 28.96 in980.7 mb 0.00 in0.0 mm 0.00 in0.0 mm 0.00 in0.0 mm
11:37 AM 67.1°F19.5°C 59.3°F15.2°C 76% 6.5 mph S10.5 kmh S 10.3 mph16.6 kmh 28.96 in980.7 mb 0.00 in0.0 mm 0.00 in0.0 mm 0.00 in0.0 mm
11:36 AM 66.9°F19.4°C 59.1°F15.1°C 76% 8.7 mph S14.0 kmh S 11.0 mph17.7 kmh 28.97 in981.0 mb 0.00 in0.0 mm 0.00 in0.0 mm 0.00 in0.0 mm
11:35 AM 66.9°F19.4°C 59.1°F15.1°C 76% 3.8 mph S6.1 kmh S 11.0 mph17.7 kmh 28.97 in981.0 mb 0.00 in0.0 mm 0.00 in0.0 mm 0.00 in0.0 mm
11:34 AM 66.9°F19.4°C 59.1°F15.1°C 76% 5.4 mph S8.7 kmh S 11.0 mph17.7 kmh 28.96 in980.7 mb 0.00 in0.0 mm 0.00 in0.0 mm 0.00 in0.0 mm
11:33 AM 66.9°F19.4°C 59.1°F15.1°C 76% 4.7 mph S7.6 kmh S 11.6 mph18.7 kmh 28.96 in980.7 mb 0.00 in0.0 mm 0.00 in0.0 mm 0.00 in0.0 mm
11:32 AM 66.9°F19.4°C 59.1°F15.1°C 76% 3.4 mph S5.5 kmh S 12.3 mph19.8 kmh 28.96 in980.7 mb 0.00 in0.0 mm 0.00 in0.0 mm 0.00 in0.0 mm
11:31 AM 66.9°F19.4°C 59.1°F15.1°C 76% 1.3 mph S2.1 kmh S 12.3 mph19.8 kmh 28.96 in980.7 mb 0.00 in0.0 mm 0.00 in0.0 mm 0.00 in0.0 mm
11:30 AM 66.9°F19.4°C 59.1°F15.1°C 76% 0.2 mph S0.3 kmh S 16.1 mph25.9 kmh 28.96 in980.7 mb 0.00 in0.0 mm 0.00 in0.0 mm 0.00 in0.0 mm
11:29 AM 66.9°F19.4°C 59.1°F15.1°C 76% 6.9 mph S11.1 kmh S 16.1 mph25.9 kmh 28.96 in980.7 mb 0.00 in0.0 mm 0.00 in0.0 mm 0.00 in0.0 mm
11:28 AM 66.7°F19.3°C 58.9°F14.9°C 76% 7.4 mph S11.9 kmh S 16.1 mph25.9 kmh 28.96 in980.7 mb 0.00 in0.0 mm 0.00 in0.0 mm 0.00 in0.0 mm
11:27 AM 66.7°F19.3°C 58.9°F14.9°C 76% 7.2 mph S11.6 kmh S 16.1 mph25.9 kmh 28.96 in980.7 mb 0.00 in0.0 mm 0.00 in0.0 mm 0.00 in0.0 mm
11:26 AM 66.7°F19.3°C 58.9°F14.9°C 76% 7.4 mph S11.9 kmh S 16.1 mph25.9 kmh 28.96 in980.7 mb 0.00 in0.0 mm 0.00 in0.0 mm 0.00 in0.0 mm
11:25 AM 66.7°F19.3°C 58.9°F14.9°C 76% 7.2 mph S11.6 kmh S 16.1 mph25.9 kmh 28.96 in980.7 mb 0.00 in0.0 mm 0.00 in0.0 mm 0.00 in0.0 mm
11:24 AM 66.7°F19.3°C 58.9°F14.9°C 76% 6.3 mph S10.1 kmh S 16.1 mph25.9 kmh 28.96 in980.7 mb 0.00 in0.0 mm 0.00 in0.0 mm 0.00 in0.0 mm
11:23 AM 66.7°F19.3°C 58.9°F14.9°C 76% 10.7 mph S17.2 kmh S 16.1 mph25.9 kmh 28.96 in980.7 mb 0.00 in0.0 mm 0.00 in0.0 mm 0.00 in0.0 mm
11:22 AM 66.7°F19.3°C 58.9°F14.9°C 76% 6.5 mph S10.5 kmh S 16.1 mph25.9 kmh 28.96 in980.7 mb 0.00 in0.0 mm 0.00 in0.0 mm 0.00 in0.0 mm
11:21 AM 66.7°F19.3°C 58.5°F14.7°C 75% 6.9 mph S11.1 kmh S 16.1 mph25.9 kmh 28.96 in980.7 mb 0.00 in0.0 mm 0.00 in0.0 mm 0.00 in0.0 mm
11:20 AM 66.7°F19.3°C 58.5°F14.7°C 75% 16.1 mph S25.9 kmh S 16.1 mph25.9 kmh 28.96 in980.7 mb 0.00 in0.0 mm 0.00 in0.0 mm 0.00 in0.0 mm
11:19 AM 66.7°F19.3°C 58.5°F14.7°C 75% 12.5 mph S20.1 kmh S 12.5 mph20.1 kmh 28.96 in980.7 mb 0.00 in0.0 mm 0.00 in0.0 mm 0.00 in0.0 mm
11:18 AM 66.7°F19.3°C 58.5°F14.7°C 75% 9.6 mph S15.4 kmh S 12.8 mph20.6 kmh 28.96 in980.7 mb 0.00 in0.0 mm 0.00 in0.0 mm 0.00 in0.0 mm
11:17 AM 66.7°F19.3°C 58.5°F14.7°C 75% 4.5 mph S7.2 kmh S 13.4 mph21.6 kmh 28.96 in980.7 mb 0.00 in0.0 mm 0.00 in0.0 mm 0.00 in0.0 mm
11:16 AM 66.7°F19.3°C 58.5°F14.7°C 75% 4.5 mph S7.2 kmh S 13.4 mph21.6 kmh 28.96 in980.7 mb 0.00 in0.0 mm 0.00 in0.0 mm 0.00 in0.0 mm
11:15 AM 66.7°F19.3°C 58.5°F14.7°C 75% 4.7 mph S7.6 kmh S 13.4 mph21.6 kmh 28.96 in980.7 mb 0.00 in0.0 mm 0.00 in0.0 mm 0.00 in0.0 mm
11:14 AM 66.7°F19.3°C 58.5°F14.7°C 75% 11.2 mph S18.0 kmh S 13.4 mph21.6 kmh 28.96 in980.7 mb 0.00 in0.0 mm 0.00 in0.0 mm 0.00 in0.0 mm
11:13 AM 66.7°F19.3°C 58.5°F14.7°C 75% 3.8 mph S6.1 kmh S 13.4 mph21.6 kmh 28.96 in980.7 mb 0.00 in0.0 mm 0.00 in0.0 mm 0.00 in0.0 mm
11:12 AM 66.7°F19.3°C 58.5°F14.7°C 75% 7.8 mph S12.6 kmh S 15.7 mph25.3 kmh 28.96 in980.7 mb 0.00 in0.0 mm 0.00 in0.0 mm 0.00 in0.0 mm
11:11 AM 66.7°F19.3°C 58.5°F14.7°C 75% 11.4 mph S18.3 kmh S 15.7 mph25.3 kmh 28.96 in980.7 mb 0.00 in0.0 mm 0.00 in0.0 mm 0.00 in0.0 mm
11:10 AM 66.7°F19.3°C 58.5°F14.7°C 75% 9.8 mph S15.8 kmh S 15.7 mph25.3 kmh 28.96 in980.7 mb 0.00 in0.0 mm 0.00 in0.0 mm 0.00 in0.0 mm
11:09 AM 66.7°F19.3°C 58.5°F14.7°C 75% 12.8 mph S20.6 kmh S 15.7 mph25.3 kmh 28.96 in980.7 mb 0.00 in0.0 mm 0.00 in0.0 mm 0.00 in0.0 mm
11:08 AM 66.7°F19.3°C 58.5°F14.7°C 75% 13.4 mph S21.6 kmh S 16.1 mph25.9 kmh 28.96 in980.7 mb 0.00 in0.0 mm 0.00 in0.0 mm 0.00 in0.0 mm
11:07 AM 66.7°F19.3°C 58.5°F14.7°C 75% 9.6 mph S15.4 kmh S 16.1 mph25.9 kmh 28.96 in980.7 mb 0.00 in0.0 mm 0.00 in0.0 mm 0.00 in0.0 mm
11:06 AM 66.6°F19.2°C 58.4°F14.7°C 75% 7.4 mph S11.9 kmh S 16.1 mph25.9 kmh 28.96 in980.7 mb 0.00 in0.0 mm 0.00 in0.0 mm 0.00 in0.0 mm
11:05 AM 66.7°F19.3°C 58.5°F14.7°C 75% 7.4 mph S11.9 kmh S 16.1 mph25.9 kmh 28.96 in980.7 mb 0.00 in0.0 mm 0.00 in0.0 mm 0.00 in0.0 mm
11:04 AM 66.6°F19.2°C 58.4°F14.7°C 75% 9.8 mph S15.8 kmh S 16.1 mph25.9 kmh 28.96 in980.7 mb 0.00 in0.0 mm 0.00 in0.0 mm 0.00 in0.0 mm
11:03 AM 66.6°F19.2°C 58.4°F14.7°C 75% 8.3 mph S13.4 kmh S 16.1 mph25.9 kmh 28.96 in980.7 mb 0.00 in0.0 mm 0.00 in0.0 mm 0.00 in0.0 mm
11:02 AM 66.6°F19.2°C 58.4°F14.7°C 75% 7.8 mph S12.6 kmh S 16.1 mph25.9 kmh 28.96 in980.7 mb 0.00 in0.0 mm 0.00 in0.0 mm 0.00 in0.0 mm
11:01 AM 66.6°F19.2°C 58.4°F14.7°C 75% 7.2 mph S11.6 kmh S 16.1 mph25.9 kmh 28.96 in980.7 mb 0.00 in0.0 mm 0.00 in0.0 mm 0.00 in0.0 mm
11:00 AM 66.6°F19.2°C 58.4°F14.7°C 75% 5.6 mph S9.0 kmh S 16.1 mph25.9 kmh 28.96 in980.7 mb 0.00 in0.0 mm 0.00 in0.0 mm 0.00 in0.0 mm
10:59 AM 66.6°F19.2°C 58.4°F14.7°C 75% 6.5 mph S10.5 kmh S 16.1 mph25.9 kmh 28.96 in980.7 mb 0.00 in0.0 mm 0.00 in0.0 mm 0.00 in0.0 mm
10:58 AM 66.6°F19.2°C 58.4°F14.7°C 75% 10.3 mph S16.6 kmh S 14.8 mph23.8 kmh 28.96 in980.7 mb 0.00 in0.0 mm 0.00 in0.0 mm 0.00 in0.0 mm
10:57 AM 66.6°F19.2°C 58.4°F14.7°C 75% 6.0 mph S9.7 kmh S 14.8 mph23.8 kmh 28.96 in980.7 mb 0.00 in0.0 mm 0.00 in0.0 mm 0.00 in0.0 mm
10:56 AM 66.6°F19.2°C 58.4°F14.7°C 75% 6.7 mph S10.8 kmh S 19.7 mph31.7 kmh 28.96 in980.7 mb 0.00 in0.0 mm 0.00 in0.0 mm 0.00 in0.0 mm
10:55 AM 66.6°F19.2°C 58.4°F14.7°C 75% 4.5 mph S7.2 kmh S 19.7 mph31.7 kmh 28.96 in980.7 mb 0.00 in0.0 mm 0.00 in0.0 mm 0.00 in0.0 mm
10:54 AM 66.6°F19.2°C 58.4°F14.7°C 75% 8.3 mph S13.4 kmh S 23.0 mph37.0 kmh 28.96 in980.7 mb 0.00 in0.0 mm 0.00 in0.0 mm 0.00 in0.0 mm
10:53 AM 66.6°F19.2°C 58.4°F14.7°C 75% 6.3 mph S10.1 kmh S 23.0 mph37.0 kmh 28.96 in980.7 mb 0.00 in0.0 mm 0.00 in0.0 mm 0.00 in0.0 mm
10:52 AM 66.6°F19.2°C 58.4°F14.7°C 75% 11.4 mph S18.3 kmh S 23.0 mph37.0 kmh 28.96 in980.7 mb 0.00 in0.0 mm 0.00 in0.0 mm 0.00 in0.0 mm
10:51 AM 66.6°F19.2°C 58.4°F14.7°C 75% 8.5 mph S13.7 kmh S 23.0 mph37.0 kmh 28.95 in980.4 mb 0.00 in0.0 mm 0.00 in0.0 mm 0.00 in0.0 mm
10:50 AM 66.6°F19.2°C 58.4°F14.7°C 75% 11.0 mph S17.7 kmh S 23.0 mph37.0 kmh 28.95 in980.4 mb 0.00 in0.0 mm 0.00 in0.0 mm 0.00 in0.0 mm
10:49 AM 66.6°F19.2°C 58.4°F14.7°C 75% 11.0 mph S17.7 kmh S 23.0 mph37.0 kmh 28.95 in980.4 mb 0.00 in0.0 mm 0.00 in0.0 mm 0.00 in0.0 mm
10:48 AM 66.6°F19.2°C 58.4°F14.7°C 75% 14.8 mph S23.8 kmh S 23.0 mph37.0 kmh 28.95 in980.4 mb 0.00 in0.0 mm 0.00 in0.0 mm 0.00 in0.0 mm
10:47 AM 66.4°F19.1°C 58.2°F14.6°C 75% 12.1 mph S19.5 kmh S 23.0 mph37.0 kmh 28.95 in980.4 mb 0.00 in0.0 mm 0.00 in0.0 mm 0.00 in0.0 mm
10:46 AM 66.6°F19.2°C 58.4°F14.7°C 75% 15.9 mph S25.6 kmh S 23.0 mph37.0 kmh 28.95 in980.4 mb 0.00 in0.0 mm 0.00 in0.0 mm 0.00 in0.0 mm
10:45 AM 66.6°F19.2°C 58.4°F14.7°C 75% 18.1 mph S29.1 kmh S 23.0 mph37.0 kmh 28.95 in980.4 mb 0.00 in0.0 mm 0.00 in0.0 mm 0.00 in0.0 mm
10:44 AM 66.4°F19.1°C 58.2°F14.6°C 75% 13.9 mph S22.4 kmh S 19.5 mph31.4 kmh 28.95 in980.4 mb 0.00 in0.0 mm 0.00 in0.0 mm 0.00 in0.0 mm
10:43 AM 66.4°F19.1°C 58.2°F14.6°C 75% 14.1 mph S22.7 kmh S 19.5 mph31.4 kmh 28.95 in980.4 mb 0.00 in0.0 mm 0.00 in0.0 mm 0.00 in0.0 mm
10:42 AM 66.6°F19.2°C 58.4°F14.7°C 75% 12.3 mph S19.8 kmh S 19.9 mph32.0 kmh 28.95 in980.4 mb 0.00 in0.0 mm 0.00 in0.0 mm 0.00 in0.0 mm
10:41 AM 66.4°F19.1°C 58.2°F14.6°C 75% 18.1 mph S29.1 kmh S 19.9 mph32.0 kmh 28.95 in980.4 mb 0.00 in0.0 mm 0.00 in0.0 mm 0.00 in0.0 mm
10:40 AM 66.6°F19.2°C 58.4°F14.7°C 75% 14.1 mph S22.7 kmh S 21.0 mph33.8 kmh 28.95 in980.4 mb 0.00 in0.0 mm 0.00 in0.0 mm 0.00 in0.0 mm
10:39 AM 66.6°F19.2°C 58.4°F14.7°C 75% 11.6 mph S18.7 kmh S 21.0 mph33.8 kmh 28.95 in980.4 mb 0.00 in0.0 mm 0.00 in0.0 mm 0.00 in0.0 mm
10:38 AM 66.4°F19.1°C 58.2°F14.6°C 75% 17.9 mph SSE28.8 kmh SSE 21.0 mph33.8 kmh 28.95 in980.4 mb 0.00 in0.0 mm 0.00 in0.0 mm 0.00 in0.0 mm
10:37 AM 66.4°F19.1°C 58.2°F14.6°C 75% 18.3 mph SSE29.5 kmh SSE 21.0 mph33.8 kmh 28.95 in980.4 mb 0.00 in0.0 mm 0.00 in0.0 mm 0.00 in0.0 mm
10:36 AM 66.6°F19.2°C 58.4°F14.7°C 75% 13.2 mph SSE21.2 kmh SSE 21.0 mph33.8 kmh 28.95 in980.4 mb 0.00 in0.0 mm 0.00 in0.0 mm 0.00 in0.0 mm
10:35 AM 66.6°F19.2°C 58.4°F14.7°C 75% 8.3 mph SSE13.4 kmh SSE 21.0 mph33.8 kmh 28.95 in980.4 mb 0.00 in0.0 mm 0.00 in0.0 mm 0.00 in0.0 mm
10:34 AM 66.6°F19.2°C 58.4°F14.7°C 75% 11.9 mph SSE19.2 kmh SSE 21.0 mph33.8 kmh 28.95 in980.4 mb 0.00 in0.0 mm 0.00 in0.0 mm 0.00 in0.0 mm
10:33 AM 66.4°F19.1°C 58.2°F14.6°C 75% 15.0 mph SSE24.1 kmh SSE 22.1 mph35.6 kmh 28.95 in980.4 mb 0.00 in0.0 mm 0.00 in0.0 mm 0.00 in0.0 mm
10:32 AM 66.6°F19.2°C 58.4°F14.7°C 75% 13.6 mph SSE21.9 kmh SSE 24.2 mph38.9 kmh 28.95 in980.4 mb 0.00 in0.0 mm 0.00 in0.0 mm 0.00 in0.0 mm
10:31 AM 66.4°F19.1°C 58.2°F14.6°C 75% 14.5 mph SSE23.3 kmh SSE 24.6 mph39.6 kmh 28.95 in980.4 mb 0.00 in0.0 mm 0.00 in0.0 mm 0.00 in0.0 mm
10:30 AM 66.4°F19.1°C 58.2°F14.6°C 75% 15.7 mph SSE25.3 kmh SSE 24.6 mph39.6 kmh 28.95 in980.4 mb 0.00 in0.0 mm 0.00 in0.0 mm 0.00 in0.0 mm
10:29 AM 66.4°F19.1°C 58.2°F14.6°C 75% 15.9 mph SSE25.6 kmh SSE 24.6 mph39.6 kmh 28.95 in980.4 mb 0.00 in0.0 mm 0.00 in0.0 mm 0.00 in0.0 mm
10:28 AM 66.4°F19.1°C 58.2°F14.6°C 75% 14.1 mph SSE22.7 kmh SSE 24.6 mph39.6 kmh 28.95 in980.4 mb 0.00 in0.0 mm 0.00 in0.0 mm 0.00 in0.0 mm
10:27 AM 66.6°F19.2°C 58.4°F14.7°C 75% 13.0 mph SSE20.9 kmh SSE 24.6 mph39.6 kmh 28.95 in980.4 mb 0.00 in0.0 mm 0.00 in0.0 mm 0.00 in0.0 mm
10:26 AM 66.6°F19.2°C 58.4°F14.7°C 75% 16.3 mph SSE26.2 kmh SSE 24.6 mph39.6 kmh 28.95 in980.4 mb 0.00 in0.0 mm 0.00 in0.0 mm 0.00 in0.0 mm
10:25 AM 66.6°F19.2°C 58.4°F14.7°C 75% 13.6 mph SSE21.9 kmh SSE 24.6 mph39.6 kmh 28.95 in980.4 mb 0.00 in0.0 mm 0.00 in0.0 mm 0.00 in0.0 mm
10:24 AM 66.6°F19.2°C 58.4°F14.7°C 75% 15.7 mph SSE25.3 kmh SSE 24.6 mph39.6 kmh 28.95 in980.4 mb 0.00 in0.0 mm 0.00 in0.0 mm 0.00 in0.0 mm
10:23 AM 66.6°F19.2°C 58.4°F14.7°C 75% 14.8 mph SSE23.8 kmh SSE 24.6 mph39.6 kmh 28.95 in980.4 mb 0.00 in0.0 mm 0.00 in0.0 mm 0.00 in0.0 mm
10:22 AM 66.6°F19.2°C 58.4°F14.7°C 75% 17.9 mph S28.8 kmh S 24.6 mph39.6 kmh 28.95 in980.4 mb 0.00 in0.0 mm 0.00 in0.0 mm 0.00 in0.0 mm
10:21 AM 66.6°F19.2°C 58.4°F14.7°C 75% 13.6 mph S21.9 kmh S 19.7 mph31.7 kmh 28.95 in980.4 mb 0.00 in0.0 mm 0.00 in0.0 mm 0.00 in0.0 mm
10:20 AM 66.6°F19.2°C 58.4°F14.7°C 75% 14.3 mph S23.0 kmh S 19.7 mph31.7 kmh 28.95 in980.4 mb 0.00 in0.0 mm 0.00 in0.0 mm 0.00 in0.0 mm
10:19 AM 66.6°F19.2°C 58.4°F14.7°C 75% 13.9 mph S22.4 kmh S 20.4 mph32.8 kmh 28.95 in980.4 mb 0.00 in0.0 mm 0.00 in0.0 mm 0.00 in0.0 mm
10:18 AM 66.6°F19.2°C 58.4°F14.7°C 75% 19.2 mph S30.9 kmh S 20.4 mph32.8 kmh 28.95 in980.4 mb 0.00 in0.0 mm 0.00 in0.0 mm 0.00 in0.0 mm
10:17 AM 66.6°F19.2°C 58.4°F14.7°C 75% 13.2 mph S21.2 kmh S 20.4 mph32.8 kmh 28.95 in980.4 mb 0.00 in0.0 mm 0.00 in0.0 mm 0.00 in0.0 mm
10:16 AM 66.6°F19.2°C 58.4°F14.7°C 75% 9.4 mph S15.1 kmh S 20.4 mph32.8 kmh 28.95 in980.4 mb 0.00 in0.0 mm 0.00 in0.0 mm 0.00 in0.0 mm
10:15 AM 66.6°F19.2°C 58.4°F14.7°C 75% 15.2 mph S24.5 kmh S 20.4 mph32.8 kmh 28.95 in980.4 mb 0.00 in0.0 mm 0.00 in0.0 mm 0.00 in0.0 mm
10:14 AM 66.6°F19.2°C 58.4°F14.7°C 75% 7.2 mph S11.6 kmh S 20.4 mph32.8 kmh 28.95 in980.4 mb 0.00 in0.0 mm 0.00 in0.0 mm 0.00 in0.0 mm
10:13 AM 66.6°F19.2°C 58.4°F14.7°C 75% 10.3 mph S16.6 kmh S 23.7 mph38.1 kmh 28.96 in980.7 mb 0.00 in0.0 mm 0.00 in0.0 mm 0.00 in0.0 mm
10:12 AM 66.6°F19.2°C 58.4°F14.7°C 75% 8.7 mph S14.0 kmh S 23.7 mph38.1 kmh 28.96 in980.7 mb 0.00 in0.0 mm 0.00 in0.0 mm 0.00 in0.0 mm
10:11 AM 66.6°F19.2°C 58.4°F14.7°C 75% 14.5 mph S23.3 kmh S 23.7 mph38.1 kmh 28.95 in980.4 mb 0.00 in0.0 mm 0.00 in0.0 mm 0.00 in0.0 mm
10:10 AM 66.6°F19.2°C 58.4°F14.7°C 75% 13.6 mph S21.9 kmh S 23.7 mph38.1 kmh 28.95 in980.4 mb 0.00 in0.0 mm 0.00 in0.0 mm 0.00 in0.0 mm
10:09 AM 66.6°F19.2°C 58.4°F14.7°C 75% 11.2 mph S18.0 kmh S 23.7 mph38.1 kmh 28.95 in980.4 mb 0.00 in0.0 mm 0.00 in0.0 mm 0.00 in0.0 mm
10:08 AM 66.6°F19.2°C 58.4°F14.7°C 75% 9.4 mph S15.1 kmh S 23.7 mph38.1 kmh 28.95 in980.4 mb 0.00 in0.0 mm 0.00 in0.0 mm 0.00 in0.0 mm
10:07 AM 66.6°F19.2°C 58.4°F14.7°C 75% 15.4 mph S24.8 kmh S 23.7 mph38.1 kmh 28.96 in980.7 mb 0.00 in0.0 mm 0.00 in0.0 mm 0.00 in0.0 mm
10:06 AM 66.6°F19.2°C 58.4°F14.7°C 75% 12.3 mph S19.8 kmh S 23.7 mph38.1 kmh 28.96 in980.7 mb 0.00 in0.0 mm 0.00 in0.0 mm 0.00 in0.0 mm
10:05 AM 66.6°F19.2°C 58.4°F14.7°C 75% 10.1 mph S16.3 kmh S 23.7 mph38.1 kmh 28.96 in980.7 mb 0.00 in0.0 mm 0.00 in0.0 mm 0.00 in0.0 mm
10:04 AM 66.6°F19.2°C 58.4°F14.7°C 75% 13.4 mph S21.6 kmh S 23.7 mph38.1 kmh 28.96 in980.7 mb 0.00 in0.0 mm 0.00 in0.0 mm 0.00 in0.0 mm
10:03 AM 66.6°F19.2°C 58.4°F14.7°C 75% 17.7 mph S28.5 kmh S 23.7 mph38.1 kmh 28.96 in980.7 mb 0.00 in0.0 mm 0.00 in0.0 mm 0.00 in0.0 mm
10:02 AM 66.6°F19.2°C 58.4°F14.7°C 75% 20.4 mph S32.8 kmh S 23.7 mph38.1 kmh 28.96 in980.7 mb 0.00 in0.0 mm 0.00 in0.0 mm 0.00 in0.0 mm
10:01 AM 66.7°F19.3°C 58.5°F14.7°C 75% 18.3 mph S29.5 kmh S 23.7 mph38.1 kmh 28.96 in980.7 mb 0.00 in0.0 mm 0.00 in0.0 mm 0.00 in0.0 mm
10:00 AM 66.6°F19.2°C 58.0°F14.4°C 74% 17.2 mph S27.7 kmh S 23.7 mph38.1 kmh 28.95 in980.4 mb 0.00 in0.0 mm 0.00 in0.0 mm 0.00 in0.0 mm
09:59 AM 66.6°F19.2°C 58.0°F14.4°C 74% 22.4 mph S36.0 kmh S 22.4 mph36.0 kmh 28.95 in980.4 mb 0.00 in0.0 mm 0.00 in0.0 mm 0.00 in0.0 mm
09:58 AM 66.6°F19.2°C 58.0°F14.4°C 74% 13.9 mph S22.4 kmh S 21.5 mph34.6 kmh 28.95 in980.4 mb 0.00 in0.0 mm 0.00 in0.0 mm 0.00 in0.0 mm
09:57 AM 66.6°F19.2°C 58.0°F14.4°C 74% 13.0 mph S20.9 kmh S 20.6 mph33.2 kmh 28.95 in980.4 mb 0.00 in0.0 mm 0.00 in0.0 mm 0.00 in0.0 mm
09:56 AM 66.7°F19.3°C 58.2°F14.6°C 74% 18.8 mph S30.3 kmh S 18.8 mph30.3 kmh 28.95 in980.4 mb 0.00 in0.0 mm 0.00 in0.0 mm 0.00 in0.0 mm
09:55 AM 66.6°F19.2°C 58.0°F14.4°C 74% 13.4 mph S21.6 kmh S 18.6 mph29.9 kmh 28.95 in980.4 mb 0.00 in0.0 mm 0.00 in0.0 mm 0.00 in0.0 mm
09:54 AM 66.6°F19.2°C 58.0°F14.4°C 74% 11.9 mph S19.2 kmh S 18.6 mph29.9 kmh 28.96 in980.7 mb 0.00 in0.0 mm 0.00 in0.0 mm 0.00 in0.0 mm
09:53 AM 66.6°F19.2°C 58.0°F14.4°C 74% 11.4 mph S18.3 kmh S 18.6 mph29.9 kmh 28.95 in980.4 mb 0.00 in0.0 mm 0.00 in0.0 mm 0.00 in0.0 mm
09:52 AM 66.7°F19.3°C 58.2°F14.6°C 74% 6.3 mph S10.1 kmh S 18.6 mph29.9 kmh 28.95 in980.4 mb 0.00 in0.0 mm 0.00 in0.0 mm 0.00 in0.0 mm
09:51 AM 66.7°F19.3°C 58.2°F14.6°C 74% 10.7 mph S17.2 kmh S 18.6 mph29.9 kmh 28.95 in980.4 mb 0.00 in0.0 mm 0.00 in0.0 mm 0.00 in0.0 mm
09:50 AM 66.7°F19.3°C 58.2°F14.6°C 74% 9.6 mph S15.4 kmh S 18.6 mph29.9 kmh 28.95 in980.4 mb 0.00 in0.0 mm 0.00 in0.0 mm 0.00 in0.0 mm
09:49 AM 66.7°F19.3°C 58.2°F14.6°C 74% 16.3 mph S26.2 kmh S 20.6 mph33.2 kmh 28.95 in980.4 mb 0.00 in0.0 mm 0.00 in0.0 mm 0.00 in0.0 mm
09:48 AM 66.7°F19.3°C 58.2°F14.6°C 74% 11.4 mph S18.3 kmh S 20.6 mph33.2 kmh 28.95 in980.4 mb 0.00 in0.0 mm 0.00 in0.0 mm 0.00 in0.0 mm
09:47 AM 66.7°F19.3°C 58.2°F14.6°C 74% 15.0 mph S24.1 kmh S 20.6 mph33.2 kmh 28.95 in980.4 mb 0.00 in0.0 mm 0.00 in0.0 mm 0.00 in0.0 mm
09:46 AM 66.7°F19.3°C 58.2°F14.6°C 74% 13.4 mph S21.6 kmh S 20.6 mph33.2 kmh 28.95 in980.4 mb 0.00 in0.0 mm 0.00 in0.0 mm 0.00 in0.0 mm
09:45 AM 66.7°F19.3°C 58.2°F14.6°C 74% 12.3 mph S19.8 kmh S 20.6 mph33.2 kmh 28.95 in980.4 mb 0.00 in0.0 mm 0.00 in0.0 mm 0.00 in0.0 mm
09:44 AM 66.7°F19.3°C 58.2°F14.6°C 74% 15.9 mph S25.6 kmh S 20.6 mph33.2 kmh 28.95 in980.4 mb 0.00 in0.0 mm 0.00 in0.0 mm 0.00 in0.0 mm
09:43 AM 66.7°F19.3°C 58.2°F14.6°C 74% 15.4 mph S24.8 kmh S 20.6 mph33.2 kmh 28.95 in980.4 mb 0.00 in0.0 mm 0.00 in0.0 mm 0.00 in0.0 mm
09:42 AM 66.7°F19.3°C 58.2°F14.6°C 74% 15.9 mph S25.6 kmh S 20.6 mph33.2 kmh 28.95 in980.4 mb 0.00 in0.0 mm 0.00 in0.0 mm 0.00 in0.0 mm
09:41 AM 66.7°F19.3°C 58.2°F14.6°C 74% 11.9 mph S19.2 kmh S 20.6 mph33.2 kmh 28.95 in980.4 mb 0.00 in0.0 mm 0.00 in0.0 mm 0.00 in0.0 mm
09:40 AM 66.7°F19.3°C 58.2°F14.6°C 74% 20.6 mph S33.2 kmh S 20.6 mph33.2 kmh 28.95 in980.4 mb 0.00 in0.0 mm 0.00 in0.0 mm 0.00 in0.0 mm
09:39 AM 66.7°F19.3°C 58.2°F14.6°C 74% 15.7 mph S25.3 kmh S 20.6 mph33.2 kmh 28.95 in980.4 mb 0.00 in0.0 mm 0.00 in0.0 mm 0.00 in0.0 mm
09:38 AM 66.7°F19.3°C 58.2°F14.6°C 74% 13.4 mph S21.6 kmh S 20.6 mph33.2 kmh 28.95 in980.4 mb 0.00 in0.0 mm 0.00 in0.0 mm 0.00 in0.0 mm
09:37 AM 66.7°F19.3°C 58.2°F14.6°C 74% 13.2 mph S21.2 kmh S 20.6 mph33.2 kmh 28.95 in980.4 mb 0.00 in0.0 mm 0.00 in0.0 mm 0.00 in0.0 mm
09:36 AM 66.7°F19.3°C 58.2°F14.6°C 74% 4.9 mph S7.9 kmh S 20.6 mph33.2 kmh 28.95 in980.4 mb 0.00 in0.0 mm 0.00 in0.0 mm 0.00 in0.0 mm
09:35 AM 66.7°F19.3°C 58.2°F14.6°C 74% 8.7 mph S14.0 kmh S 20.6 mph33.2 kmh 28.95 in980.4 mb 0.00 in0.0 mm 0.00 in0.0 mm 0.00 in0.0 mm
09:34 AM 66.7°F19.3°C 58.2°F14.6°C 74% 10.3 mph S16.6 kmh S 20.6 mph33.2 kmh 28.95 in980.4 mb 0.00 in0.0 mm 0.00 in0.0 mm 0.00 in0.0 mm
09:33 AM 66.7°F19.3°C 58.2°F14.6°C 74% 19.2 mph S30.9 kmh S 20.6 mph33.2 kmh 28.95 in980.4 mb 0.00 in0.0 mm 0.00 in0.0 mm 0.00 in0.0 mm
09:32 AM 66.7°F19.3°C 58.2°F14.6°C 74% 7.8 mph S12.6 kmh S 20.6 mph33.2 kmh 28.95 in980.4 mb 0.00 in0.0 mm 0.00 in0.0 mm 0.00 in0.0 mm
09:31 AM 66.7°F19.3°C 58.2°F14.6°C 74% 10.7 mph S17.2 kmh S 20.6 mph33.2 kmh 28.95 in980.4 mb 0.00 in0.0 mm 0.00 in0.0 mm 0.00 in0.0 mm
09:30 AM 66.7°F19.3°C 58.2°F14.6°C 74% 15.9 mph S25.6 kmh S 20.6 mph33.2 kmh 28.95 in980.4 mb 0.00 in0.0 mm 0.00 in0.0 mm 0.00 in0.0 mm
09:29 AM 66.7°F19.3°C 58.2°F14.6°C 74% 14.3 mph S23.0 kmh S 20.6 mph33.2 kmh 28.95 in980.4 mb 0.00 in0.0 mm 0.00 in0.0 mm 0.00 in0.0 mm
09:28 AM 66.9°F19.4°C 58.4°F14.7°C 74% 11.9 mph S19.2 kmh S 21.7 mph34.9 kmh 28.95 in980.4 mb 0.00 in0.0 mm 0.00 in0.0 mm 0.00 in0.0 mm
09:27 AM 66.9°F19.4°C 58.4°F14.7°C 74% 11.0 mph S17.7 kmh S 21.7 mph34.9 kmh 28.95 in980.4 mb 0.00 in0.0 mm 0.00 in0.0 mm 0.00 in0.0 mm
09:26 AM 66.9°F19.4°C 58.4°F14.7°C 74% 16.3 mph S26.2 kmh S 21.7 mph34.9 kmh 28.95 in980.4 mb 0.00 in0.0 mm 0.00 in0.0 mm 0.00 in0.0 mm
09:25 AM 66.9°F19.4°C 58.7°F14.8°C 75% 14.3 mph S23.0 kmh S 21.7 mph34.9 kmh 28.95 in980.4 mb 0.00 in0.0 mm 0.00 in0.0 mm 0.00 in0.0 mm
09:24 AM 66.9°F19.4°C 58.7°F14.8°C 75% 11.4 mph S18.3 kmh S 21.7 mph34.9 kmh 28.95 in980.4 mb 0.00 in0.0 mm 0.00 in0.0 mm 0.00 in0.0 mm
09:23 AM 66.9°F19.4°C 58.7°F14.8°C 75% 12.5 mph S20.1 kmh S 21.7 mph34.9 kmh 28.95 in980.4 mb 0.00 in0.0 mm 0.00 in0.0 mm 0.00 in0.0 mm
09:22 AM 66.9°F19.4°C 58.7°F14.8°C 75% 8.5 mph S13.7 kmh S 21.7 mph34.9 kmh 28.95 in980.4 mb 0.00 in0.0 mm 0.00 in0.0 mm 0.00 in0.0 mm
09:21 AM 66.9°F19.4°C 58.7°F14.8°C 75% 17.9 mph S28.8 kmh S 21.7 mph34.9 kmh 28.95 in980.4 mb 0.00 in0.0 mm 0.00 in0.0 mm 0.00 in0.0 mm
09:20 AM 66.9°F19.4°C 58.7°F14.8°C 75% 7.4 mph S11.9 kmh S 21.7 mph34.9 kmh 28.95 in980.4 mb 0.00 in0.0 mm 0.00 in0.0 mm 0.00 in0.0 mm
09:19 AM 66.9°F19.4°C 58.7°F14.8°C 75% 13.2 mph S21.2 kmh S 21.7 mph34.9 kmh 28.95 in980.4 mb 0.00 in0.0 mm 0.00 in0.0 mm 0.00 in0.0 mm
09:18 AM 66.9°F19.4°C 58.7°F14.8°C 75% 17.2 mph S27.7 kmh S 20.4 mph32.8 kmh 28.94 in980.0 mb 0.00 in0.0 mm 0.00 in0.0 mm 0.00 in0.0 mm
09:17 AM 66.9°F19.4°C 58.7°F14.8°C 75% 13.6 mph S21.9 kmh S 19.5 mph31.4 kmh 28.95 in980.4 mb 0.00 in0.0 mm 0.00 in0.0 mm 0.00 in0.0 mm
09:16 AM 66.9°F19.4°C 58.7°F14.8°C 75% 12.1 mph S19.5 kmh S 19.5 mph31.4 kmh 28.95 in980.4 mb 0.00 in0.0 mm 0.00 in0.0 mm 0.00 in0.0 mm
09:15 AM 66.9°F19.4°C 58.7°F14.8°C 75% 8.3 mph S13.4 kmh S 19.5 mph31.4 kmh 28.95 in980.4 mb 0.00 in0.0 mm 0.00 in0.0 mm 0.00 in0.0 mm
09:14 AM 66.9°F19.4°C 58.7°F14.8°C 75% 8.5 mph S13.7 kmh S 19.5 mph31.4 kmh 28.95 in980.4 mb 0.00 in0.0 mm 0.00 in0.0 mm 0.00 in0.0 mm
09:13 AM 66.9°F19.4°C 58.7°F14.8°C 75% 8.7 mph S14.0 kmh S 19.5 mph31.4 kmh 28.95 in980.4 mb 0.00 in0.0 mm 0.00 in0.0 mm 0.00 in0.0 mm
09:12 AM 66.7°F19.3°C 58.5°F14.7°C 75% 9.6 mph S15.4 kmh S 19.5 mph31.4 kmh 28.95 in980.4 mb 0.00 in0.0 mm 0.00 in0.0 mm 0.00 in0.0 mm
09:11 AM 66.7°F19.3°C 58.5°F14.7°C 75% 9.2 mph S14.8 kmh S 19.5 mph31.4 kmh 28.95 in980.4 mb 0.00 in0.0 mm 0.00 in0.0 mm 0.00 in0.0 mm
09:10 AM 66.7°F19.3°C 58.5°F14.7°C 75% 9.6 mph S15.4 kmh S 16.1 mph25.9 kmh 28.95 in980.4 mb 0.00 in0.0 mm 0.00 in0.0 mm 0.00 in0.0 mm
09:09 AM 66.7°F19.3°C 58.5°F14.7°C 75% 14.3 mph S23.0 kmh S 16.1 mph25.9 kmh 28.95 in980.4 mb 0.00 in0.0 mm 0.00 in0.0 mm 0.00 in0.0 mm
09:08 AM 66.7°F19.3°C 58.5°F14.7°C 75% 8.3 mph S13.4 kmh S 14.1 mph22.7 kmh 28.95 in980.4 mb 0.00 in0.0 mm 0.00 in0.0 mm 0.00 in0.0 mm
09:07 AM 66.7°F19.3°C 58.5°F14.7°C 75% 4.9 mph S7.9 kmh S 14.1 mph22.7 kmh 28.95 in980.4 mb 0.00 in0.0 mm 0.00 in0.0 mm 0.00 in0.0 mm
09:06 AM 66.7°F19.3°C 58.5°F14.7°C 75% 10.1 mph S16.3 kmh S 14.1 mph22.7 kmh 28.95 in980.4 mb 0.00 in0.0 mm 0.00 in0.0 mm 0.00 in0.0 mm
09:05 AM 66.7°F19.3°C 58.5°F14.7°C 75% 6.0 mph S9.7 kmh S 14.1 mph22.7 kmh 28.95 in980.4 mb 0.00 in0.0 mm 0.00 in0.0 mm 0.00 in0.0 mm
09:04 AM 66.6°F19.2°C 58.4°F14.7°C 75% 7.6 mph S12.2 kmh S 12.5 mph20.1 kmh 28.95 in980.4 mb 0.00 in0.0 mm 0.00 in0.0 mm 0.00 in0.0 mm
09:03 AM 66.6°F19.2°C 58.4°F14.7°C 75% 6.7 mph S10.8 kmh S 12.5 mph20.1 kmh 28.95 in980.4 mb 0.00 in0.0 mm 0.00 in0.0 mm 0.00 in0.0 mm
09:02 AM 66.6°F19.2°C 58.4°F14.7°C 75% 5.1 mph S8.2 kmh S 10.5 mph16.9 kmh 28.95 in980.4 mb 0.00 in0.0 mm 0.00 in0.0 mm 0.00 in0.0 mm
09:01 AM 66.6°F19.2°C 58.4°F14.7°C 75% 9.2 mph S14.8 kmh S 10.5 mph16.9 kmh 28.95 in980.4 mb 0.00 in0.0 mm 0.00 in0.0 mm 0.00 in0.0 mm
09:00 AM 66.6°F19.2°C 58.4°F14.7°C 75% 6.7 mph S10.8 kmh S 13.6 mph21.9 kmh 28.95 in980.4 mb 0.00 in0.0 mm 0.00 in0.0 mm 0.00 in0.0 mm
08:59 AM 66.4°F19.1°C 58.2°F14.6°C 75% 6.9 mph S11.1 kmh S 13.6 mph21.9 kmh 28.95 in980.4 mb 0.00 in0.0 mm 0.00 in0.0 mm 0.00 in0.0 mm
08:58 AM 66.4°F19.1°C 58.2°F14.6°C 75% 6.7 mph S10.8 kmh S 13.6 mph21.9 kmh 28.95 in980.4 mb 0.00 in0.0 mm 0.00 in0.0 mm 0.00 in0.0 mm
08:57 AM 66.4°F19.1°C 58.2°F14.6°C 75% 5.4 mph S8.7 kmh S 13.6 mph21.9 kmh 28.95 in980.4 mb 0.00 in0.0 mm 0.00 in0.0 mm 0.00 in0.0 mm
08:56 AM 66.4°F19.1°C 58.2°F14.6°C 75% 7.6 mph S12.2 kmh S 13.6 mph21.9 kmh 28.95 in980.4 mb 0.00 in0.0 mm 0.00 in0.0 mm 0.00 in0.0 mm
08:55 AM 66.4°F19.1°C 58.2°F14.6°C 75% 7.2 mph S11.6 kmh S 13.6 mph21.9 kmh 28.95 in980.4 mb 0.00 in0.0 mm 0.00 in0.0 mm 0.00 in0.0 mm
08:54 AM 66.4°F19.1°C 58.2°F14.6°C 75% 4.0 mph S6.4 kmh S 13.6 mph21.9 kmh 28.95 in980.4 mb 0.00 in0.0 mm 0.00 in0.0 mm 0.00 in0.0 mm
08:53 AM 66.4°F19.1°C 58.2°F14.6°C 75% 6.0 mph S9.7 kmh S 13.6 mph21.9 kmh 28.95 in980.4 mb 0.00 in0.0 mm 0.00 in0.0 mm 0.00 in0.0 mm
08:52 AM 66.2°F19.0°C 58.0°F14.4°C 75% 7.2 mph S11.6 kmh S 13.6 mph21.9 kmh 28.95 in980.4 mb 0.00 in0.0 mm 0.00 in0.0 mm 0.00 in0.0 mm
08:51 AM 66.2°F19.0°C 58.0°F14.4°C 75% 10.5 mph S16.9 kmh S 13.6 mph21.9 kmh 28.95 in980.4 mb 0.00 in0.0 mm 0.00 in0.0 mm 0.00 in0.0 mm
08:50 AM 66.2°F19.0°C 58.0°F14.4°C 75% 4.7 mph S7.6 kmh S 13.4 mph21.6 kmh 28.95 in980.4 mb 0.00 in0.0 mm 0.00 in0.0 mm 0.00 in0.0 mm
08:49 AM 66.0°F18.9°C 57.8°F14.3°C 75% 11.2 mph S18.0 kmh S 13.4 mph21.6 kmh 28.95 in980.4 mb 0.00 in0.0 mm 0.00 in0.0 mm 0.00 in0.0 mm
08:48 AM 66.0°F18.9°C 57.8°F14.3°C 75% 8.3 mph S13.4 kmh S 13.4 mph21.6 kmh 28.95 in980.4 mb 0.00 in0.0 mm 0.00 in0.0 mm 0.00 in0.0 mm
08:47 AM 66.0°F18.9°C 57.5°F14.2°C 74% 8.7 mph S14.0 kmh S 14.1 mph22.7 kmh 28.95 in980.4 mb 0.00 in0.0 mm 0.00 in0.0 mm 0.00 in0.0 mm
08:46 AM 66.0°F18.9°C 57.5°F14.2°C 74% 3.6 mph S5.8 kmh S 14.1 mph22.7 kmh 28.95 in980.4 mb 0.00 in0.0 mm 0.00 in0.0 mm 0.00 in0.0 mm
08:45 AM 66.0°F18.9°C 57.5°F14.2°C 74% 4.5 mph S7.2 kmh S 14.1 mph22.7 kmh 28.95 in980.4 mb 0.00 in0.0 mm 0.00 in0.0 mm 0.00 in0.0 mm
08:44 AM 66.0°F18.9°C 57.5°F14.2°C 74% 4.3 mph S6.9 kmh S 14.1 mph22.7 kmh 28.95 in980.4 mb 0.00 in0.0 mm 0.00 in0.0 mm 0.00 in0.0 mm
08:43 AM 66.0°F18.9°C 57.5°F14.2°C 74% 5.8 mph S9.3 kmh S 14.1 mph22.7 kmh 28.95 in980.4 mb 0.00 in0.0 mm 0.00 in0.0 mm 0.00 in0.0 mm
08:42 AM 66.0°F18.9°C 57.5°F14.2°C 74% 7.8 mph SSW12.6 kmh SSW 14.1 mph22.7 kmh 28.95 in980.4 mb 0.00 in0.0 mm 0.00 in0.0 mm 0.00 in0.0 mm
08:41 AM 66.0°F18.9°C 57.5°F14.2°C 74% 7.4 mph S11.9 kmh S 14.1 mph22.7 kmh 28.95 in980.4 mb 0.00 in0.0 mm 0.00 in0.0 mm 0.00 in0.0 mm
08:40 AM 66.0°F18.9°C 57.5°F14.2°C 74% 0.9 mph S1.4 kmh S 14.1 mph22.7 kmh 28.95 in980.4 mb 0.00 in0.0 mm 0.00 in0.0 mm 0.00 in0.0 mm
08:39 AM 66.0°F18.9°C 57.5°F14.2°C 74% 5.6 mph S9.0 kmh S 14.1 mph22.7 kmh 28.95 in980.4 mb 0.00 in0.0 mm 0.00 in0.0 mm 0.00 in0.0 mm
08:38 AM 66.0°F18.9°C 57.5°F14.2°C 74% 8.5 mph S13.7 kmh S 14.1 mph22.7 kmh 28.95 in980.4 mb 0.00 in0.0 mm 0.00 in0.0 mm 0.00 in0.0 mm
08:37 AM 66.0°F18.9°C 57.5°F14.2°C 74% 5.1 mph S8.2 kmh S 11.9 mph19.2 kmh 28.95 in980.4 mb 0.00 in0.0 mm 0.00 in0.0 mm 0.00 in0.0 mm
08:36 AM 66.0°F18.9°C 57.5°F14.2°C 74% 9.4 mph S15.1 kmh S 11.9 mph19.2 kmh 28.95 in980.4 mb 0.00 in0.0 mm 0.00 in0.0 mm 0.00 in0.0 mm
08:35 AM 66.0°F18.9°C 57.5°F14.2°C 74% 5.4 mph S8.7 kmh S 12.1 mph19.5 kmh 28.95 in980.4 mb 0.00 in0.0 mm 0.00 in0.0 mm 0.00 in0.0 mm
08:34 AM 66.0°F18.9°C 57.5°F14.2°C 74% 8.7 mph S14.0 kmh S 12.5 mph20.1 kmh 28.95 in980.4 mb 0.00 in0.0 mm 0.00 in0.0 mm 0.00 in0.0 mm
08:33 AM 66.0°F18.9°C 57.5°F14.2°C 74% 10.1 mph S16.3 kmh S 12.5 mph20.1 kmh 28.95 in980.4 mb 0.00 in0.0 mm 0.00 in0.0 mm 0.00 in0.0 mm
08:32 AM 66.0°F18.9°C 57.5°F14.2°C 74% 5.8 mph S9.3 kmh S 12.5 mph20.1 kmh 28.95 in980.4 mb 0.00 in0.0 mm 0.00 in0.0 mm 0.00 in0.0 mm
08:31 AM 66.0°F18.9°C 57.5°F14.2°C 74% 11.2 mph S18.0 kmh S 15.0 mph24.1 kmh 28.95 in980.4 mb 0.00 in0.0 mm 0.00 in0.0 mm 0.00 in0.0 mm
08:30 AM 66.0°F18.9°C 57.5°F14.2°C 74% 4.7 mph S7.6 kmh S 15.0 mph24.1 kmh 28.95 in980.4 mb 0.00 in0.0 mm 0.00 in0.0 mm 0.00 in0.0 mm
08:29 AM 66.0°F18.9°C 57.5°F14.2°C 74% 4.3 mph S6.9 kmh S 15.0 mph24.1 kmh 28.95 in980.4 mb 0.00 in0.0 mm 0.00 in0.0 mm 0.00 in0.0 mm
08:28 AM 66.0°F18.9°C 57.5°F14.2°C 74% 5.6 mph S9.0 kmh S 15.0 mph24.1 kmh 28.95 in980.4 mb 0.00 in0.0 mm 0.00 in0.0 mm 0.00 in0.0 mm
08:27 AM 66.0°F18.9°C 57.5°F14.2°C 74% 6.3 mph S10.1 kmh S 17.7 mph28.5 kmh 28.95 in980.4 mb 0.00 in0.0 mm 0.00 in0.0 mm 0.00 in0.0 mm
08:26 AM 66.0°F18.9°C 57.5°F14.2°C 74% 3.6 mph S5.8 kmh S 17.7 mph28.5 kmh 28.95 in980.4 mb 0.00 in0.0 mm 0.00 in0.0 mm 0.00 in0.0 mm
08:25 AM 65.8°F18.8°C 57.3°F14.1°C 74% 6.3 mph S10.1 kmh S 17.7 mph28.5 kmh 28.95 in980.4 mb 0.00 in0.0 mm 0.00 in0.0 mm 0.00 in0.0 mm
08:24 AM 65.8°F18.8°C 57.3°F14.1°C 74% 3.8 mph S6.1 kmh S 17.7 mph28.5 kmh 28.95 in980.4 mb 0.00 in0.0 mm 0.00 in0.0 mm 0.00 in0.0 mm
08:23 AM 65.8°F18.8°C 57.3°F14.1°C 74% 11.0 mph S17.7 kmh S 17.7 mph28.5 kmh 28.95 in980.4 mb 0.00 in0.0 mm 0.00 in0.0 mm 0.00 in0.0 mm
08:22 AM 65.8°F18.8°C 57.3°F14.1°C 74% 9.8 mph S15.8 kmh S 17.7 mph28.5 kmh 28.95 in980.4 mb 0.00 in0.0 mm 0.00 in0.0 mm 0.00 in0.0 mm
08:21 AM 65.8°F18.8°C 57.3°F14.1°C 74% 12.3 mph S19.8 kmh S 17.7 mph28.5 kmh 28.95 in980.4 mb 0.00 in0.0 mm 0.00 in0.0 mm 0.00 in0.0 mm
08:20 AM 65.8°F18.8°C 57.3°F14.1°C 74% 6.3 mph S10.1 kmh S 17.7 mph28.5 kmh 28.95 in980.4 mb 0.00 in0.0 mm 0.00 in0.0 mm 0.00 in0.0 mm
08:19 AM 65.8°F18.8°C 57.3°F14.1°C 74% 5.8 mph S9.3 kmh S 17.7 mph28.5 kmh 28.95 in980.4 mb 0.00 in0.0 mm 0.00 in0.0 mm 0.00 in0.0 mm
08:18 AM 65.8°F18.8°C 57.3°F14.1°C 74% 13.0 mph S20.9 kmh S 17.7 mph28.5 kmh 28.95 in980.4 mb 0.00 in0.0 mm 0.00 in0.0 mm 0.00 in0.0 mm
08:17 AM 65.8°F18.8°C 57.3°F14.1°C 74% 17.4 mph S28.0 kmh S 17.4 mph28.0 kmh 28.95 in980.4 mb 0.00 in0.0 mm 0.00 in0.0 mm 0.00 in0.0 mm
08:16 AM 65.8°F18.8°C 57.3°F14.1°C 74% 8.1 mph S13.0 kmh S 13.9 mph22.4 kmh 28.95 in980.4 mb 0.00 in0.0 mm 0.00 in0.0 mm 0.00 in0.0 mm
08:15 AM 65.8°F18.8°C 57.3°F14.1°C 74% 8.7 mph S14.0 kmh S 13.9 mph22.4 kmh 28.95 in980.4 mb 0.00 in0.0 mm 0.00 in0.0 mm 0.00 in0.0 mm
08:14 AM 65.8°F18.8°C 57.3°F14.1°C 74% 10.1 mph S16.3 kmh S 13.9 mph22.4 kmh 28.95 in980.4 mb 0.00 in0.0 mm 0.00 in0.0 mm 0.00 in0.0 mm
08:13 AM 65.8°F18.8°C 57.3°F14.1°C 74% 9.2 mph S14.8 kmh S 13.9 mph22.4 kmh 28.95 in980.4 mb 0.00 in0.0 mm 0.00 in0.0 mm 0.00 in0.0 mm
08:12 AM 65.8°F18.8°C 57.3°F14.1°C 74% 9.4 mph S15.1 kmh S 13.9 mph22.4 kmh 28.95 in980.4 mb 0.00 in0.0 mm 0.00 in0.0 mm 0.00 in0.0 mm
08:11 AM 65.8°F18.8°C 57.3°F14.1°C 74% 10.7 mph S17.2 kmh S 13.9 mph22.4 kmh 28.95 in980.4 mb 0.00 in0.0 mm 0.00 in0.0 mm 0.00 in0.0 mm
08:10 AM 65.7°F18.7°C 57.1°F13.9°C 74% 9.6 mph S15.4 kmh S 13.2 mph21.2 kmh 28.95 in980.4 mb 0.00 in0.0 mm 0.00 in0.0 mm 0.00 in0.0 mm
08:09 AM 65.7°F18.7°C 57.1°F13.9°C 74% 9.6 mph S15.4 kmh S 13.2 mph21.2 kmh 28.95 in980.4 mb 0.00 in0.0 mm 0.00 in0.0 mm 0.00 in0.0 mm
08:08 AM 65.8°F18.8°C 57.3°F14.1°C 74% 9.2 mph S14.8 kmh S 13.2 mph21.2 kmh 28.95 in980.4 mb 0.00 in0.0 mm 0.00 in0.0 mm 0.00 in0.0 mm
08:07 AM 65.7°F18.7°C 57.1°F13.9°C 74% 5.4 mph S8.7 kmh S 11.2 mph18.0 kmh 28.95 in980.4 mb 0.00 in0.0 mm 0.00 in0.0 mm 0.00 in0.0 mm
08:06 AM 65.7°F18.7°C 57.1°F13.9°C 74% 7.6 mph S12.2 kmh S 10.7 mph17.2 kmh 28.95 in980.4 mb 0.00 in0.0 mm 0.00 in0.0 mm 0.00 in0.0 mm
08:05 AM 65.8°F18.8°C 57.3°F14.1°C 74% 8.3 mph S13.4 kmh S 9.6 mph15.4 kmh 28.95 in980.4 mb 0.00 in0.0 mm 0.00 in0.0 mm 0.00 in0.0 mm
08:04 AM 65.7°F18.7°C 57.1°F13.9°C 74% 8.9 mph S14.3 kmh S 9.6 mph15.4 kmh 28.95 in980.4 mb 0.00 in0.0 mm 0.00 in0.0 mm 0.00 in0.0 mm
08:03 AM 65.7°F18.7°C 57.1°F13.9°C 74% 2.2 mph S3.5 kmh S 8.7 mph14.0 kmh 28.95 in980.4 mb 0.00 in0.0 mm 0.00 in0.0 mm 0.00 in0.0 mm
08:02 AM 65.7°F18.7°C 57.1°F13.9°C 74% 4.5 mph S7.2 kmh S 8.7 mph14.0 kmh 28.95 in980.4 mb 0.00 in0.0 mm 0.00 in0.0 mm 0.00 in0.0 mm
08:01 AM 65.7°F18.7°C 57.1°F13.9°C 74% 7.6 mph S12.2 kmh S 8.7 mph14.0 kmh 28.95 in980.4 mb 0.00 in0.0 mm 0.00 in0.0 mm 0.00 in0.0 mm
08:00 AM 65.7°F18.7°C 57.1°F13.9°C 74% 5.6 mph S9.0 kmh S 6.9 mph11.1 kmh 28.95 in980.4 mb 0.00 in0.0 mm 0.00 in0.0 mm 0.00 in0.0 mm
07:59 AM 65.7°F18.7°C 57.1°F13.9°C 74% 4.9 mph S7.9 kmh S 6.9 mph11.1 kmh 28.95 in980.4 mb 0.00 in0.0 mm 0.00 in0.0 mm 0.00 in0.0 mm
07:58 AM 65.7°F18.7°C 57.1°F13.9°C 74% 3.6 mph S5.8 kmh S 6.9 mph11.1 kmh 28.95 in980.4 mb 0.00 in0.0 mm 0.00 in0.0 mm 0.00 in0.0 mm
07:57 AM 65.7°F18.7°C 57.1°F13.9°C 74% 5.8 mph S9.3 kmh S 7.6 mph12.2 kmh 28.95 in980.4 mb 0.00 in0.0 mm 0.00 in0.0 mm 0.00 in0.0 mm
07:56 AM 65.7°F18.7°C 57.1°F13.9°C 74% 5.1 mph S8.2 kmh S 7.6 mph12.2 kmh 28.95 in980.4 mb 0.00 in0.0 mm 0.00 in0.0 mm 0.00 in0.0 mm
07:55 AM 65.7°F18.7°C 57.1°F13.9°C 74% 4.7 mph S7.6 kmh S 7.6 mph12.2 kmh 28.95 in980.4 mb 0.00 in0.0 mm 0.00 in0.0 mm 0.00 in0.0 mm
07:54 AM 65.7°F18.7°C 57.1°F13.9°C 74% 3.8 mph S6.1 kmh S 7.6 mph12.2 kmh 28.95 in980.4 mb 0.00 in0.0 mm 0.00 in0.0 mm 0.00 in0.0 mm
07:53 AM 65.7°F18.7°C 57.1°F13.9°C 74% 6.7 mph S10.8 kmh S 7.8 mph12.6 kmh 28.95 in980.4 mb 0.00 in0.0 mm 0.00 in0.0 mm 0.00 in0.0 mm
07:52 AM 65.7°F18.7°C 57.1°F13.9°C 74% 5.1 mph S8.2 kmh S 8.1 mph13.0 kmh 28.95 in980.4 mb 0.00 in0.0 mm 0.00 in0.0 mm 0.00 in0.0 mm
07:51 AM 65.7°F18.7°C 57.1°F13.9°C 74% 4.5 mph S7.2 kmh S 8.1 mph13.0 kmh 28.95 in980.4 mb 0.00 in0.0 mm 0.00 in0.0 mm 0.00 in0.0 mm
07:50 AM 65.7°F18.7°C 57.1°F13.9°C 74% 4.7 mph S7.6 kmh S 10.5 mph16.9 kmh 28.95 in980.4 mb 0.00 in0.0 mm 0.00 in0.0 mm 0.00 in0.0 mm
07:49 AM 65.7°F18.7°C 57.1°F13.9°C 74% 4.5 mph S7.2 kmh S 11.4 mph18.3 kmh 28.95 in980.4 mb 0.00 in0.0 mm 0.00 in0.0 mm 0.00 in0.0 mm
07:48 AM 65.7°F18.7°C 57.1°F13.9°C 74% 4.9 mph S7.9 kmh S 11.4 mph18.3 kmh 28.95 in980.4 mb 0.00 in0.0 mm 0.00 in0.0 mm 0.00 in0.0 mm
07:47 AM 65.7°F18.7°C 57.1°F13.9°C 74% 6.0 mph S9.7 kmh S 11.4 mph18.3 kmh 28.95 in980.4 mb 0.00 in0.0 mm 0.00 in0.0 mm 0.00 in0.0 mm
07:46 AM 65.7°F18.7°C 57.1°F13.9°C 74% 4.9 mph SSE7.9 kmh SSE 11.4 mph18.3 kmh 28.95 in980.4 mb 0.00 in0.0 mm 0.00 in0.0 mm 0.00 in0.0 mm
07:45 AM 65.7°F18.7°C 57.1°F13.9°C 74% 2.5 mph SSE4.0 kmh SSE 11.4 mph18.3 kmh 28.95 in980.4 mb 0.00 in0.0 mm 0.00 in0.0 mm 0.00 in0.0 mm
07:44 AM 65.7°F18.7°C 57.1°F13.9°C 74% 7.4 mph SSE11.9 kmh SSE 11.4 mph18.3 kmh 28.95 in980.4 mb 0.00 in0.0 mm 0.00 in0.0 mm 0.00 in0.0 mm
07:43 AM 65.7°F18.7°C 57.1°F13.9°C 74% 6.5 mph SSE10.5 kmh SSE 11.4 mph18.3 kmh 28.95 in980.4 mb 0.00 in0.0 mm 0.00 in0.0 mm 0.00 in0.0 mm
07:42 AM 65.5°F18.6°C 56.9°F13.8°C 74% 6.5 mph SSE10.5 kmh SSE 11.4 mph18.3 kmh 28.95 in980.4 mb 0.00 in0.0 mm 0.00 in0.0 mm 0.00 in0.0 mm
07:41 AM 65.5°F18.6°C 56.9°F13.8°C 74% 6.3 mph SSE10.1 kmh SSE 11.4 mph18.3 kmh 28.94 in980.0 mb 0.00 in0.0 mm 0.00 in0.0 mm 0.00 in0.0 mm
07:40 AM 65.5°F18.6°C 56.9°F13.8°C 74% 10.5 mph SSE16.9 kmh SSE 11.4 mph18.3 kmh 28.94 in980.0 mb 0.00 in0.0 mm 0.00 in0.0 mm 0.00 in0.0 mm
07:39 AM 65.7°F18.7°C 57.5°F14.2°C 75% 7.4 mph SSE11.9 kmh SSE 9.8 mph15.8 kmh 28.94 in980.0 mb 0.00 in0.0 mm 0.00 in0.0 mm 0.00 in0.0 mm
07:38 AM 65.5°F18.6°C 57.3°F14.1°C 75% 5.8 mph SSE9.3 kmh SSE 9.8 mph15.8 kmh 28.94 in980.0 mb 0.00 in0.0 mm 0.00 in0.0 mm 0.00 in0.0 mm
07:37 AM 65.5°F18.6°C 57.3°F14.1°C 75% 7.4 mph SSE11.9 kmh SSE 9.8 mph15.8 kmh 28.94 in980.0 mb 0.00 in0.0 mm 0.00 in0.0 mm 0.00 in0.0 mm
07:36 AM 65.5°F18.6°C 56.9°F13.8°C 74% 8.3 mph SSE13.4 kmh SSE 9.4 mph15.1 kmh 28.94 in980.0 mb 0.00 in0.0 mm 0.00 in0.0 mm 0.00 in0.0 mm
07:35 AM 65.5°F18.6°C 57.3°F14.1°C 75% 5.8 mph SSE9.3 kmh SSE 9.4 mph15.1 kmh 28.94 in980.0 mb 0.00 in0.0 mm 0.00 in0.0 mm 0.00 in0.0 mm
07:34 AM 65.5°F18.6°C 57.3°F14.1°C 75% 6.0 mph SSE9.7 kmh SSE 9.4 mph15.1 kmh 28.94 in980.0 mb 0.00 in0.0 mm 0.00 in0.0 mm 0.00 in0.0 mm
07:33 AM 65.5°F18.6°C 57.3°F14.1°C 75% 5.4 mph SSE8.7 kmh SSE 9.4 mph15.1 kmh 28.94 in980.0 mb 0.00 in0.0 mm 0.00 in0.0 mm 0.00 in0.0 mm
07:32 AM 65.5°F18.6°C 57.3°F14.1°C 75% 4.7 mph SSE7.6 kmh SSE 9.4 mph15.1 kmh 28.94 in980.0 mb 0.00 in0.0 mm 0.00 in0.0 mm 0.00 in0.0 mm
07:31 AM 65.5°F18.6°C 57.3°F14.1°C 75% 3.6 mph SSE5.8 kmh SSE 9.4 mph15.1 kmh 28.94 in980.0 mb 0.00 in0.0 mm 0.00 in0.0 mm 0.00 in0.0 mm
07:30 AM 65.5°F18.6°C 57.3°F14.1°C 75% 4.3 mph SSE6.9 kmh SSE 9.4 mph15.1 kmh 28.94 in980.0 mb 0.00 in0.0 mm 0.00 in0.0 mm 0.00 in0.0 mm
07:29 AM 65.5°F18.6°C 57.3°F14.1°C 75% 6.0 mph SSE9.7 kmh SSE 9.4 mph15.1 kmh 28.94 in980.0 mb 0.00 in0.0 mm 0.00 in0.0 mm 0.00 in0.0 mm
07:28 AM 65.5°F18.6°C 57.3°F14.1°C 75% 2.9 mph SSE4.7 kmh SSE 8.5 mph13.7 kmh 28.94 in980.0 mb 0.00 in0.0 mm 0.00 in0.0 mm 0.00 in0.0 mm
07:27 AM 65.5°F18.6°C 57.3°F14.1°C 75% 3.4 mph SSE5.5 kmh SSE 8.5 mph13.7 kmh 28.94 in980.0 mb 0.00 in0.0 mm 0.00 in0.0 mm 0.00 in0.0 mm
07:26 AM 65.5°F18.6°C 57.3°F14.1°C 75% 6.9 mph SSE11.1 kmh SSE 8.7 mph14.0 kmh 28.93 in979.7 mb 0.00 in0.0 mm 0.00 in0.0 mm 0.00 in0.0 mm
07:25 AM 65.5°F18.6°C 57.3°F14.1°C 75% 5.6 mph SSE9.0 kmh SSE 8.7 mph14.0 kmh 28.94 in980.0 mb 0.00 in0.0 mm 0.00 in0.0 mm 0.00 in0.0 mm
07:24 AM 65.5°F18.6°C 57.3°F14.1°C 75% 7.2 mph SSE11.6 kmh SSE 8.7 mph14.0 kmh 28.94 in980.0 mb 0.00 in0.0 mm 0.00 in0.0 mm 0.00 in0.0 mm
07:23 AM 65.5°F18.6°C 57.3°F14.1°C 75% 5.6 mph SSE9.0 kmh SSE 8.7 mph14.0 kmh 28.93 in979.7 mb 0.00 in0.0 mm 0.00 in0.0 mm 0.00 in0.0 mm
07:22 AM 65.5°F18.6°C 57.3°F14.1°C 75% 4.3 mph SSE6.9 kmh SSE 8.7 mph14.0 kmh 28.93 in979.7 mb 0.00 in0.0 mm 0.00 in0.0 mm 0.00 in0.0 mm
07:21 AM 65.5°F18.6°C 57.3°F14.1°C 75% 6.5 mph SSE10.5 kmh SSE 11.9 mph19.2 kmh 28.93 in979.7 mb 0.00 in0.0 mm 0.00 in0.0 mm 0.00 in0.0 mm
07:20 AM 65.5°F18.6°C 57.3°F14.1°C 75% 8.5 mph SSE13.7 kmh SSE 12.8 mph20.6 kmh 28.93 in979.7 mb 0.00 in0.0 mm 0.00 in0.0 mm 0.00 in0.0 mm
07:19 AM 65.5°F18.6°C 57.3°F14.1°C 75% 5.8 mph SSE9.3 kmh SSE 12.8 mph20.6 kmh 28.93 in979.7 mb 0.00 in0.0 mm 0.00 in0.0 mm 0.00 in0.0 mm
07:18 AM 65.5°F18.6°C 57.3°F14.1°C 75% 4.7 mph SSE7.6 kmh SSE 12.8 mph20.6 kmh 28.93 in979.7 mb 0.00 in0.0 mm 0.00 in0.0 mm 0.00 in0.0 mm
07:17 AM 65.5°F18.6°C 57.3°F14.1°C 75% 6.3 mph SSE10.1 kmh SSE 12.8 mph20.6 kmh 28.93 in979.7 mb 0.00 in0.0 mm 0.00 in0.0 mm 0.00 in0.0 mm
07:16 AM 65.5°F18.6°C 57.3°F14.1°C 75% 5.8 mph SSE9.3 kmh SSE 12.8 mph20.6 kmh 28.93 in979.7 mb 0.00 in0.0 mm 0.00 in0.0 mm 0.00 in0.0 mm
07:15 AM 65.3°F18.5°C 57.1°F13.9°C 75% 5.4 mph SSE8.7 kmh SSE 12.8 mph20.6 kmh 28.93 in979.7 mb 0.00 in0.0 mm 0.00 in0.0 mm 0.00 in0.0 mm
07:14 AM 65.3°F18.5°C 57.1°F13.9°C 75% 5.6 mph SSE9.0 kmh SSE 12.8 mph20.6 kmh 28.92 in979.3 mb 0.00 in0.0 mm 0.00 in0.0 mm 0.00 in0.0 mm
07:13 AM 65.3°F18.5°C 57.1°F13.9°C 75% 6.3 mph SSE10.1 kmh SSE 12.8 mph20.6 kmh 28.92 in979.3 mb 0.00 in0.0 mm 0.00 in0.0 mm 0.00 in0.0 mm
07:12 AM 65.3°F18.5°C 57.1°F13.9°C 75% 6.3 mph SSE10.1 kmh SSE 12.8 mph20.6 kmh 28.92 in979.3 mb 0.00 in0.0 mm 0.00 in0.0 mm 0.00 in0.0 mm
07:11 AM 65.3°F18.5°C 57.1°F13.9°C 75% 10.5 mph SSE16.9 kmh SSE 12.8 mph20.6 kmh 28.92 in979.3 mb 0.00 in0.0 mm 0.00 in0.0 mm 0.00 in0.0 mm
07:10 AM 65.3°F18.5°C 57.1°F13.9°C 75% 10.3 mph SSE16.6 kmh SSE 10.5 mph16.9 kmh 28.92 in979.3 mb 0.00 in0.0 mm 0.00 in0.0 mm 0.00 in0.0 mm
07:09 AM 65.3°F18.5°C 57.1°F13.9°C 75% 8.3 mph SSE13.4 kmh SSE 10.5 mph16.9 kmh 28.91 in979.0 mb 0.00 in0.0 mm 0.00 in0.0 mm 0.00 in0.0 mm
07:08 AM 65.3°F18.5°C 57.1°F13.9°C 75% 4.7 mph SSE7.6 kmh SSE 8.1 mph13.0 kmh 28.92 in979.3 mb 0.00 in0.0 mm 0.00 in0.0 mm 0.00 in0.0 mm
07:07 AM 65.3°F18.5°C 57.1°F13.9°C 75% 4.9 mph SSE7.9 kmh SSE 8.1 mph13.0 kmh 28.91 in979.0 mb 0.00 in0.0 mm 0.00 in0.0 mm 0.00 in0.0 mm
07:06 AM 65.3°F18.5°C 57.1°F13.9°C 75% 6.5 mph SSE10.5 kmh SSE 8.1 mph13.0 kmh 28.91 in979.0 mb 0.00 in0.0 mm 0.00 in0.0 mm 0.00 in0.0 mm
07:05 AM 65.3°F18.5°C 57.1°F13.9°C 75% 2.0 mph SSE3.2 kmh SSE 8.1 mph13.0 kmh 28.91 in979.0 mb 0.00 in0.0 mm 0.00 in0.0 mm 0.00 in0.0 mm
07:04 AM 65.3°F18.5°C 57.1°F13.9°C 75% 2.7 mph SSE4.3 kmh SSE 8.1 mph13.0 kmh 28.91 in979.0 mb 0.00 in0.0 mm 0.00 in0.0 mm 0.00 in0.0 mm
07:03 AM 65.3°F18.5°C 57.1°F13.9°C 75% 5.1 mph SSE8.2 kmh SSE 8.1 mph13.0 kmh 28.91 in979.0 mb 0.00 in0.0 mm 0.00 in0.0 mm 0.00 in0.0 mm
07:02 AM 65.3°F18.5°C 57.1°F13.9°C 75% 5.4 mph SSE8.7 kmh SSE 8.1 mph13.0 kmh 28.91 in979.0 mb 0.00 in0.0 mm 0.00 in0.0 mm 0.00 in0.0 mm
07:01 AM 65.3°F18.5°C 57.1°F13.9°C 75% 3.8 mph SSE6.1 kmh SSE 5.4 mph8.7 kmh 28.91 in979.0 mb 0.00 in0.0 mm 0.00 in0.0 mm 0.00 in0.0 mm
07:00 AM 65.3°F18.5°C 57.1°F13.9°C 75% 4.7 mph SE7.6 kmh SE 5.4 mph8.7 kmh 28.91 in979.0 mb 0.00 in0.0 mm 0.00 in0.0 mm 0.00 in0.0 mm
06:59 AM 65.3°F18.5°C 57.1°F13.9°C 75% 4.9 mph SE7.9 kmh SE 5.4 mph8.7 kmh 28.91 in979.0 mb 0.00 in0.0 mm 0.00 in0.0 mm 0.00 in0.0 mm
06:58 AM 65.3°F18.5°C 57.1°F13.9°C 75% 1.6 mph SE2.6 kmh SE 5.4 mph8.7 kmh 28.91 in979.0 mb 0.00 in0.0 mm 0.00 in0.0 mm 0.00 in0.0 mm
06:57 AM 65.3°F18.5°C 57.1°F13.9°C 75% Calm Calm 5.4 mph8.7 kmh 28.91 in979.0 mb 0.00 in0.0 mm 0.00 in0.0 mm 0.00 in0.0 mm
06:56 AM 65.3°F18.5°C 57.1°F13.9°C 75% Calm Calm 6.9 mph11.1 kmh 28.91 in979.0 mb 0.00 in0.0 mm 0.00 in0.0 mm 0.00 in0.0 mm
06:55 AM 65.3°F18.5°C 57.1°F13.9°C 75% Calm Calm 7.4 mph11.9 kmh 28.91 in979.0 mb 0.00 in0.0 mm 0.00 in0.0 mm 0.00 in0.0 mm
06:54 AM 65.3°F18.5°C 57.1°F13.9°C 75% 2.0 mph SSE3.2 kmh SSE 8.7 mph14.0 kmh 28.91 in979.0 mb 0.00 in0.0 mm 0.00 in0.0 mm 0.00 in0.0 mm
06:53 AM 65.3°F18.5°C 57.1°F13.9°C 75% 1.8 mph SSE2.9 kmh SSE 8.7 mph14.0 kmh 28.91 in979.0 mb 0.00 in0.0 mm 0.00 in0.0 mm 0.00 in0.0 mm
06:52 AM 65.3°F18.5°C 57.1°F13.9°C 75% 2.2 mph SSE3.5 kmh SSE 8.7 mph14.0 kmh 28.91 in979.0 mb 0.00 in0.0 mm 0.00 in0.0 mm 0.00 in0.0 mm
06:51 AM 65.3°F18.5°C 57.1°F13.9°C 75% 2.0 mph SSE3.2 kmh SSE 8.7 mph14.0 kmh 28.91 in979.0 mb 0.00 in0.0 mm 0.00 in0.0 mm 0.00 in0.0 mm
06:50 AM 65.3°F18.5°C 57.1°F13.9°C 75% 1.6 mph SSE2.6 kmh SSE 8.7 mph14.0 kmh 28.91 in979.0 mb 0.00 in0.0 mm 0.00 in0.0 mm 0.00 in0.0 mm
06:49 AM 65.3°F18.5°C 57.1°F13.9°C 75% 5.1 mph SSE8.2 kmh SSE 8.7 mph14.0 kmh 28.91 in979.0 mb 0.00 in0.0 mm 0.00 in0.0 mm 0.00 in0.0 mm
06:48 AM 65.3°F18.5°C 57.1°F13.9°C 75% 4.0 mph SSE6.4 kmh SSE 8.7 mph14.0 kmh 28.91 in979.0 mb 0.00 in0.0 mm 0.00 in0.0 mm 0.00 in0.0 mm
06:47 AM 65.5°F18.6°C 57.3°F14.1°C 75% 3.1 mph SSE5.0 kmh SSE 8.9 mph14.3 kmh 28.91 in979.0 mb 0.00 in0.0 mm 0.00 in0.0 mm 0.00 in0.0 mm
06:46 AM 65.5°F18.6°C 57.3°F14.1°C 75% 5.4 mph SSE8.7 kmh SSE 8.9 mph14.3 kmh 28.91 in979.0 mb 0.00 in0.0 mm 0.00 in0.0 mm 0.00 in0.0 mm
06:45 AM 65.5°F18.6°C 57.3°F14.1°C 75% 7.8 mph SSE12.6 kmh SSE 8.9 mph14.3 kmh 28.91 in979.0 mb 0.00 in0.0 mm 0.00 in0.0 mm 0.00 in0.0 mm
06:44 AM 65.5°F18.6°C 57.3°F14.1°C 75% 3.1 mph SSE5.0 kmh SSE 8.9 mph14.3 kmh 28.91 in979.0 mb 0.00 in0.0 mm 0.00 in0.0 mm 0.00 in0.0 mm
06:43 AM 65.5°F18.6°C 57.3°F14.1°C 75% 5.4 mph SSE8.7 kmh SSE 9.2 mph14.8 kmh 28.91 in979.0 mb 0.00 in0.0 mm 0.00 in0.0 mm 0.00 in0.0 mm
06:42 AM 65.5°F18.6°C 57.3°F14.1°C 75% 4.5 mph SSE7.2 kmh SSE 9.4 mph15.1 kmh 28.91 in979.0 mb 0.00 in0.0 mm 0.00 in0.0 mm 0.00 in0.0 mm
06:41 AM 65.5°F18.6°C 57.3°F14.1°C 75% 5.4 mph SSE8.7 kmh SSE 9.8 mph15.8 kmh 28.91 in979.0 mb 0.00 in0.0 mm 0.00 in0.0 mm 0.00 in0.0 mm
06:40 AM 65.5°F18.6°C 57.3°F14.1°C 75% 7.6 mph SSE12.2 kmh SSE 9.8 mph15.8 kmh 28.91 in979.0 mb 0.00 in0.0 mm 0.00 in0.0 mm 0.00 in0.0 mm
06:39 AM 65.5°F18.6°C 57.3°F14.1°C 75% 7.8 mph SSE12.6 kmh SSE 11.9 mph19.2 kmh 28.91 in979.0 mb 0.00 in0.0 mm 0.00 in0.0 mm 0.00 in0.0 mm
06:38 AM 65.5°F18.6°C 57.3°F14.1°C 75% 4.3 mph SSE6.9 kmh SSE 11.9 mph19.2 kmh 28.91 in979.0 mb 0.00 in0.0 mm 0.00 in0.0 mm 0.00 in0.0 mm
06:37 AM 65.5°F18.6°C 57.3°F14.1°C 75% 4.7 mph SSE7.6 kmh SSE 11.9 mph19.2 kmh 28.91 in979.0 mb 0.00 in0.0 mm 0.00 in0.0 mm 0.00 in0.0 mm
06:36 AM 65.5°F18.6°C 57.3°F14.1°C 75% 4.9 mph SSE7.9 kmh SSE 11.9 mph19.2 kmh 28.91 in979.0 mb 0.00 in0.0 mm 0.00 in0.0 mm 0.00 in0.0 mm
06:35 AM 65.5°F18.6°C 57.3°F14.1°C 75% 6.3 mph SSE10.1 kmh SSE 11.9 mph19.2 kmh 28.91 in979.0 mb 0.00 in0.0 mm 0.00 in0.0 mm 0.00 in0.0 mm
06:34 AM 65.5°F18.6°C 57.3°F14.1°C 75% 8.9 mph SSE14.3 kmh SSE 11.9 mph19.2 kmh 28.91 in979.0 mb 0.00 in0.0 mm 0.00 in0.0 mm 0.00 in0.0 mm
06:33 AM 65.5°F18.6°C 57.3°F14.1°C 75% 6.7 mph SSE10.8 kmh SSE 11.9 mph19.2 kmh 28.91 in979.0 mb 0.00 in0.0 mm 0.00 in0.0 mm 0.00 in0.0 mm
06:32 AM 65.5°F18.6°C 57.3°F14.1°C 75% 7.6 mph SSE12.2 kmh SSE 12.3 mph19.8 kmh 28.91 in979.0 mb 0.00 in0.0 mm 0.00 in0.0 mm 0.00 in0.0 mm
06:31 AM 65.5°F18.6°C 57.3°F14.1°C 75% 9.8 mph SSE15.8 kmh SSE 12.3 mph19.8 kmh 28.91 in979.0 mb 0.00 in0.0 mm 0.00 in0.0 mm 0.00 in0.0 mm
06:30 AM 65.5°F18.6°C 57.3°F14.1°C 75% 8.1 mph SSE13.0 kmh SSE 12.3 mph19.8 kmh 28.91 in979.0 mb 0.00 in0.0 mm 0.00 in0.0 mm 0.00 in0.0 mm
06:29 AM 65.5°F18.6°C 57.3°F14.1°C 75% 6.9 mph SSE11.1 kmh SSE 12.3 mph19.8 kmh 28.91 in979.0 mb 0.00 in0.0 mm 0.00 in0.0 mm 0.00 in0.0 mm
06:28 AM 65.5°F18.6°C 57.3°F14.1°C 75% 8.7 mph SSE14.0 kmh SSE 12.3 mph19.8 kmh 28.91 in979.0 mb 0.00 in0.0 mm 0.00 in0.0 mm 0.00 in0.0 mm
06:27 AM 65.5°F18.6°C 57.3°F14.1°C 75% 8.3 mph SSE13.4 kmh SSE 12.3 mph19.8 kmh 28.91 in979.0 mb 0.00 in0.0 mm 0.00 in0.0 mm 0.00 in0.0 mm
06:26 AM 65.5°F18.6°C 57.3°F14.1°C 75% 6.3 mph SSE10.1 kmh SSE 12.3 mph19.8 kmh 28.91 in979.0 mb 0.00 in0.0 mm 0.00 in0.0 mm 0.00 in0.0 mm
06:25 AM 65.7°F18.7°C 57.5°F14.2°C 75% 11.0 mph SSE17.7 kmh SSE 12.3 mph19.8 kmh 28.91 in979.0 mb 0.00 in0.0 mm 0.00 in0.0 mm 0.00 in0.0 mm
06:24 AM 65.7°F18.7°C 57.5°F14.2°C 75% 6.7 mph SSE10.8 kmh SSE 12.3 mph19.8 kmh 28.91 in979.0 mb 0.00 in0.0 mm 0.00 in0.0 mm 0.00 in0.0 mm
06:23 AM 65.7°F18.7°C 57.5°F14.2°C 75% 12.3 mph SSE19.8 kmh SSE 13.4 mph21.6 kmh 28.91 in979.0 mb 0.00 in0.0 mm 0.00 in0.0 mm 0.00 in0.0 mm
06:22 AM 65.7°F18.7°C 57.5°F14.2°C 75% 6.0 mph SSE9.7 kmh SSE 13.4 mph21.6 kmh 28.91 in979.0 mb 0.00 in0.0 mm 0.00 in0.0 mm 0.00 in0.0 mm
06:21 AM 65.7°F18.7°C 57.5°F14.2°C 75% 8.9 mph SSE14.3 kmh SSE 13.4 mph21.6 kmh 28.91 in979.0 mb 0.00 in0.0 mm 0.00 in0.0 mm 0.00 in0.0 mm
06:20 AM 65.7°F18.7°C 57.5°F14.2°C 75% 6.3 mph SSE10.1 kmh SSE 13.4 mph21.6 kmh 28.91 in979.0 mb 0.00 in0.0 mm 0.00 in0.0 mm 0.00 in0.0 mm
06:19 AM 65.7°F18.7°C 57.5°F14.2°C 75% 6.9 mph SSE11.1 kmh SSE 13.4 mph21.6 kmh 28.91 in979.0 mb 0.00 in0.0 mm 0.00 in0.0 mm 0.00 in0.0 mm
06:18 AM 65.7°F18.7°C 57.5°F14.2°C 75% 8.7 mph SSE14.0 kmh SSE 13.4 mph21.6 kmh 28.91 in979.0 mb 0.00 in0.0 mm 0.00 in0.0 mm 0.00 in0.0 mm
06:17 AM 65.7°F18.7°C 57.5°F14.2°C 75% 5.8 mph SSE9.3 kmh SSE 13.4 mph21.6 kmh 28.91 in979.0 mb 0.00 in0.0 mm 0.00 in0.0 mm 0.00 in0.0 mm
06:16 AM 65.7°F18.7°C 57.5°F14.2°C 75% 5.8 mph SSE9.3 kmh SSE 13.4 mph21.6 kmh 28.91 in979.0 mb 0.00 in0.0 mm 0.00 in0.0 mm 0.00 in0.0 mm
06:15 AM 65.7°F18.7°C 57.5°F14.2°C 75% 8.3 mph SSE13.4 kmh SSE 13.4 mph21.6 kmh 28.91 in979.0 mb 0.00 in0.0 mm 0.00 in0.0 mm 0.00 in0.0 mm
06:14 AM 65.7°F18.7°C 57.5°F14.2°C 75% 12.3 mph SSE19.8 kmh SSE 13.4 mph21.6 kmh 28.91 in979.0 mb 0.00 in0.0 mm 0.00 in0.0 mm 0.00 in0.0 mm
06:13 AM 65.7°F18.7°C 57.5°F14.2°C 75% 9.6 mph SSE15.4 kmh SSE 13.0 mph20.9 kmh 28.91 in979.0 mb 0.00 in0.0 mm 0.00 in0.0 mm 0.00 in0.0 mm
06:12 AM 65.8°F18.8°C 57.7°F14.3°C 75% 9.2 mph SSE14.8 kmh SSE 13.6 mph21.9 kmh 28.91 in979.0 mb 0.00 in0.0 mm 0.00 in0.0 mm 0.00 in0.0 mm
06:11 AM 65.8°F18.8°C 57.7°F14.3°C 75% 12.3 mph SSE19.8 kmh SSE 13.6 mph21.9 kmh 28.91 in979.0 mb 0.00 in0.0 mm 0.00 in0.0 mm 0.00 in0.0 mm
06:10 AM 65.8°F18.8°C 57.7°F14.3°C 75% 10.3 mph SSE16.6 kmh SSE 13.6 mph21.9 kmh 28.91 in979.0 mb 0.00 in0.0 mm 0.00 in0.0 mm 0.00 in0.0 mm
06:09 AM 65.8°F18.8°C 57.7°F14.3°C 75% 7.2 mph SSE11.6 kmh SSE 13.6 mph21.9 kmh 28.91 in979.0 mb 0.00 in0.0 mm 0.00 in0.0 mm 0.00 in0.0 mm
06:08 AM 65.8°F18.8°C 57.7°F14.3°C 75% 7.4 mph SSE11.9 kmh SSE 13.6 mph21.9 kmh 28.91 in979.0 mb 0.00 in0.0 mm 0.00 in0.0 mm 0.00 in0.0 mm
06:07 AM 65.8°F18.8°C 57.7°F14.3°C 75% 5.1 mph SSE8.2 kmh SSE 13.6 mph21.9 kmh 28.91 in979.0 mb 0.00 in0.0 mm 0.00 in0.0 mm 0.00 in0.0 mm
06:06 AM 65.8°F18.8°C 57.7°F14.3°C 75% 11.2 mph SSE18.0 kmh SSE 13.6 mph21.9 kmh 28.91 in979.0 mb 0.00 in0.0 mm 0.00 in0.0 mm 0.00 in0.0 mm
06:05 AM 65.8°F18.8°C 57.7°F14.3°C 75% 8.1 mph SE13.0 kmh SE 13.6 mph21.9 kmh 28.91 in979.0 mb 0.00 in0.0 mm 0.00 in0.0 mm 0.00 in0.0 mm
06:04 AM 65.8°F18.8°C 57.7°F14.3°C 75% 7.4 mph SE11.9 kmh SE 13.6 mph21.9 kmh 28.91 in979.0 mb 0.00 in0.0 mm 0.00 in0.0 mm 0.00 in0.0 mm
06:03 AM 65.8°F18.8°C 57.7°F14.3°C 75% 13.6 mph SE21.9 kmh SE 13.6 mph21.9 kmh 28.91 in979.0 mb 0.00 in0.0 mm 0.00 in0.0 mm 0.00 in0.0 mm
06:02 AM 65.8°F18.8°C 57.7°F14.3°C 75% 6.9 mph SE11.1 kmh SE 12.8 mph20.6 kmh 28.91 in979.0 mb 0.00 in0.0 mm 0.00 in0.0 mm 0.00 in0.0 mm
06:01 AM 65.8°F18.8°C 57.7°F14.3°C 75% 10.1 mph SE16.3 kmh SE 12.8 mph20.6 kmh 28.91 in979.0 mb 0.00 in0.0 mm 0.00 in0.0 mm 0.00 in0.0 mm
06:00 AM 65.8°F18.8°C 57.7°F14.3°C 75% 8.3 mph SE13.4 kmh SE 11.9 mph19.2 kmh 28.91 in979.0 mb 0.00 in0.0 mm 0.00 in0.0 mm 0.00 in0.0 mm
05:59 AM 65.8°F18.8°C 57.7°F14.3°C 75% 6.5 mph SE10.5 kmh SE 11.0 mph17.7 kmh 28.91 in979.0 mb 0.00 in0.0 mm 0.00 in0.0 mm 0.00 in0.0 mm
05:58 AM 65.8°F18.8°C 57.7°F14.3°C 75% 8.5 mph SE13.7 kmh SE 13.6 mph21.9 kmh 28.91 in979.0 mb 0.00 in0.0 mm 0.00 in0.0 mm 0.00 in0.0 mm
05:57 AM 65.8°F18.8°C 57.7°F14.3°C 75% 8.7 mph SE14.0 kmh SE 13.9 mph22.4 kmh 28.91 in979.0 mb 0.00 in0.0 mm 0.00 in0.0 mm 0.00 in0.0 mm
05:56 AM 66.0°F18.9°C 57.8°F14.3°C 75% 6.5 mph SE10.5 kmh SE 13.9 mph22.4 kmh 28.91 in979.0 mb 0.00 in0.0 mm 0.00 in0.0 mm 0.00 in0.0 mm
05:55 AM 66.0°F18.9°C 57.8°F14.3°C 75% 6.3 mph SE10.1 kmh SE 13.9 mph22.4 kmh 28.91 in979.0 mb 0.00 in0.0 mm 0.00 in0.0 mm 0.00 in0.0 mm
05:54 AM 66.0°F18.9°C 57.8°F14.3°C 75% 6.7 mph SE10.8 kmh SE 13.9 mph22.4 kmh 28.91 in979.0 mb 0.00 in0.0 mm 0.00 in0.0 mm 0.00 in0.0 mm
05:53 AM 66.0°F18.9°C 57.8°F14.3°C 75% 3.4 mph SSE5.5 kmh SSE 13.9 mph22.4 kmh 28.91 in979.0 mb 0.00 in0.0 mm 0.00 in0.0 mm 0.00 in0.0 mm
05:52 AM 66.0°F18.9°C 57.8°F14.3°C 75% 6.5 mph SSE10.5 kmh SSE 13.9 mph22.4 kmh 28.91 in979.0 mb 0.00 in0.0 mm 0.00 in0.0 mm 0.00 in0.0 mm
05:51 AM 66.0°F18.9°C 57.8°F14.3°C 75% 3.1 mph SSE5.0 kmh SSE 13.9 mph22.4 kmh 28.91 in979.0 mb 0.00 in0.0 mm 0.00 in0.0 mm 0.00 in0.0 mm
05:50 AM 66.0°F18.9°C 57.8°F14.3°C 75% 9.4 mph SSE15.1 kmh SSE 13.9 mph22.4 kmh 28.91 in979.0 mb 0.00 in0.0 mm 0.00 in0.0 mm 0.00 in0.0 mm
05:49 AM 66.0°F18.9°C 57.8°F14.3°C 75% 10.1 mph SSE16.3 kmh SSE 13.9 mph22.4 kmh 28.91 in979.0 mb 0.00 in0.0 mm 0.00 in0.0 mm 0.00 in0.0 mm
05:48 AM 66.0°F18.9°C 57.8°F14.3°C 75% 11.2 mph SSE18.0 kmh SSE 13.9 mph22.4 kmh 28.91 in979.0 mb 0.00 in0.0 mm 0.00 in0.0 mm 0.00 in0.0 mm
05:47 AM 66.0°F18.9°C 57.8°F14.3°C 75% 6.7 mph SSE10.8 kmh SSE 13.6 mph21.9 kmh 28.90 in978.7 mb 0.00 in0.0 mm 0.00 in0.0 mm 0.00 in0.0 mm
05:46 AM 66.0°F18.9°C 57.8°F14.3°C 75% 8.7 mph SE14.0 kmh SE 13.6 mph21.9 kmh 28.90 in978.7 mb 0.00 in0.0 mm 0.00 in0.0 mm 0.00 in0.0 mm
05:45 AM 66.0°F18.9°C 57.8°F14.3°C 75% 5.1 mph SE8.2 kmh SE 13.6 mph21.9 kmh 28.90 in978.7 mb 0.00 in0.0 mm 0.00 in0.0 mm 0.00 in0.0 mm
05:44 AM 66.0°F18.9°C 57.8°F14.3°C 75% 11.9 mph SE19.2 kmh SE 13.6 mph21.9 kmh 28.90 in978.7 mb 0.00 in0.0 mm 0.00 in0.0 mm 0.00 in0.0 mm
05:43 AM 66.0°F18.9°C 57.8°F14.3°C 75% 7.2 mph SE11.6 kmh SE 13.6 mph21.9 kmh 28.90 in978.7 mb 0.00 in0.0 mm 0.00 in0.0 mm 0.00 in0.0 mm
05:42 AM 66.0°F18.9°C 57.8°F14.3°C 75% 13.6 mph SE21.9 kmh SE 13.6 mph21.9 kmh 28.90 in978.7 mb 0.00 in0.0 mm 0.00 in0.0 mm 0.00 in0.0 mm
05:41 AM 66.0°F18.9°C 57.8°F14.3°C 75% 10.3 mph SE16.6 kmh SE 11.0 mph17.7 kmh 28.90 in978.7 mb 0.00 in0.0 mm 0.00 in0.0 mm 0.00 in0.0 mm
05:40 AM 66.0°F18.9°C 57.8°F14.3°C 75% 7.8 mph SE12.6 kmh SE 11.0 mph17.7 kmh 28.90 in978.7 mb 0.00 in0.0 mm 0.00 in0.0 mm 0.00 in0.0 mm
05:39 AM 66.0°F18.9°C 57.8°F14.3°C 75% 6.3 mph SE10.1 kmh SE 14.8 mph23.8 kmh 28.90 in978.7 mb 0.00 in0.0 mm 0.00 in0.0 mm 0.00 in0.0 mm
05:38 AM 66.2°F19.0°C 58.0°F14.4°C 75% 9.6 mph SE15.4 kmh SE 17.4 mph28.0 kmh 28.90 in978.7 mb 0.00 in0.0 mm 0.00 in0.0 mm 0.00 in0.0 mm
05:37 AM 66.2°F19.0°C 58.0°F14.4°C 75% 7.2 mph SE11.6 kmh SE 17.4 mph28.0 kmh 28.90 in978.7 mb 0.00 in0.0 mm 0.00 in0.0 mm 0.00 in0.0 mm
05:36 AM 66.2°F19.0°C 58.0°F14.4°C 75% 7.8 mph SE12.6 kmh SE 17.4 mph28.0 kmh 28.89 in978.3 mb 0.00 in0.0 mm 0.00 in0.0 mm 0.00 in0.0 mm
05:35 AM 66.2°F19.0°C 58.0°F14.4°C 75% 3.6 mph SE5.8 kmh SE 17.4 mph28.0 kmh 28.89 in978.3 mb 0.00 in0.0 mm 0.00 in0.0 mm 0.00 in0.0 mm
05:34 AM 66.4°F19.1°C 58.2°F14.6°C 75% 6.0 mph SE9.7 kmh SE 17.4 mph28.0 kmh 28.89 in978.3 mb 0.00 in0.0 mm 0.00 in0.0 mm 0.00 in0.0 mm
05:33 AM 66.2°F19.0°C 58.0°F14.4°C 75% 9.4 mph SSE15.1 kmh SSE 17.4 mph28.0 kmh 28.89 in978.3 mb 0.00 in0.0 mm 0.00 in0.0 mm 0.00 in0.0 mm
05:32 AM 66.4°F19.1°C 58.2°F14.6°C 75% 4.5 mph SSE7.2 kmh SSE 19.7 mph31.7 kmh 28.90 in978.7 mb 0.00 in0.0 mm 0.00 in0.0 mm 0.00 in0.0 mm
05:31 AM 66.4°F19.1°C 58.2°F14.6°C 75% 6.3 mph SSE10.1 kmh SSE 19.7 mph31.7 kmh 28.90 in978.7 mb 0.00 in0.0 mm 0.00 in0.0 mm 0.00 in0.0 mm
05:30 AM 66.4°F19.1°C 58.2°F14.6°C 75% 7.8 mph SSE12.6 kmh SSE 19.7 mph31.7 kmh 28.90 in978.7 mb 0.00 in0.0 mm 0.00 in0.0 mm 0.00 in0.0 mm
05:29 AM 66.4°F19.1°C 58.2°F14.6°C 75% 17.4 mph SSE28.0 kmh SSE 21.3 mph34.3 kmh 28.90 in978.7 mb 0.00 in0.0 mm 0.00 in0.0 mm 0.00 in0.0 mm
05:28 AM 66.4°F19.1°C 58.2°F14.6°C 75% 7.8 mph SSE12.6 kmh SSE 21.3 mph34.3 kmh 28.89 in978.3 mb 0.00 in0.0 mm 0.00 in0.0 mm 0.00 in0.0 mm
05:27 AM 66.4°F19.1°C 58.2°F14.6°C 75% 14.8 mph SE23.8 kmh SE 21.3 mph34.3 kmh 28.90 in978.7 mb 0.00 in0.0 mm 0.00 in0.0 mm 0.00 in0.0 mm
05:26 AM 66.4°F19.1°C 58.2°F14.6°C 75% 11.4 mph SE18.3 kmh SE 21.3 mph34.3 kmh 28.90 in978.7 mb 0.00 in0.0 mm 0.00 in0.0 mm 0.00 in0.0 mm
05:25 AM 66.4°F19.1°C 58.2°F14.6°C 75% 12.1 mph SE19.5 kmh SE 21.3 mph34.3 kmh 28.90 in978.7 mb 0.00 in0.0 mm 0.00 in0.0 mm 0.00 in0.0 mm
05:24 AM 66.4°F19.1°C 58.2°F14.6°C 75% 14.1 mph SE22.7 kmh SE 21.3 mph34.3 kmh 28.90 in978.7 mb 0.00 in0.0 mm 0.00 in0.0 mm 0.00 in0.0 mm
05:23 AM 66.4°F19.1°C 58.2°F14.6°C 75% 16.6 mph SE26.7 kmh SE 21.3 mph34.3 kmh 28.90 in978.7 mb 0.00 in0.0 mm 0.00 in0.0 mm 0.00 in0.0 mm
05:22 AM 66.4°F19.1°C 58.2°F14.6°C 75% 13.4 mph SE21.6 kmh SE 21.3 mph34.3 kmh 28.89 in978.3 mb 0.00 in0.0 mm 0.00 in0.0 mm 0.00 in0.0 mm
05:21 AM 66.4°F19.1°C 58.2°F14.6°C 75% 12.8 mph SE20.6 kmh SE 21.3 mph34.3 kmh 28.89 in978.3 mb 0.00 in0.0 mm 0.00 in0.0 mm 0.00 in0.0 mm
05:20 AM 66.4°F19.1°C 58.2°F14.6°C 75% 13.4 mph SE21.6 kmh SE 21.3 mph34.3 kmh 28.89 in978.3 mb 0.00 in0.0 mm 0.00 in0.0 mm 0.00 in0.0 mm
05:19 AM 66.4°F19.1°C 58.2°F14.6°C 75% 10.1 mph SE16.3 kmh SE 20.6 mph33.2 kmh 28.89 in978.3 mb 0.00 in0.0 mm 0.00 in0.0 mm 0.00 in0.0 mm
05:18 AM 66.4°F19.1°C 58.2°F14.6°C 75% 12.3 mph SE19.8 kmh SE 20.6 mph33.2 kmh 28.89 in978.3 mb 0.00 in0.0 mm 0.00 in0.0 mm 0.00 in0.0 mm
05:17 AM 66.4°F19.1°C 58.2°F14.6°C 75% 9.2 mph SE14.8 kmh SE 20.6 mph33.2 kmh 28.89 in978.3 mb 0.00 in0.0 mm 0.00 in0.0 mm 0.00 in0.0 mm
05:16 AM 66.6°F19.2°C 58.4°F14.7°C 75% 10.5 mph ESE16.9 kmh ESE 20.6 mph33.2 kmh 28.89 in978.3 mb 0.00 in0.0 mm 0.00 in0.0 mm 0.00 in0.0 mm
05:15 AM 66.4°F19.1°C 58.2°F14.6°C 75% 13.2 mph SE21.2 kmh SE 20.6 mph33.2 kmh 28.89 in978.3 mb 0.00 in0.0 mm 0.00 in0.0 mm 0.00 in0.0 mm
05:14 AM 66.6°F19.2°C 58.4°F14.7°C 75% 12.1 mph ESE19.5 kmh ESE 20.6 mph33.2 kmh 28.89 in978.3 mb 0.00 in0.0 mm 0.00 in0.0 mm 0.00 in0.0 mm
05:13 AM 66.6°F19.2°C 58.4°F14.7°C 75% 13.4 mph ESE21.6 kmh ESE 20.6 mph33.2 kmh 28.89 in978.3 mb 0.00 in0.0 mm 0.00 in0.0 mm 0.00 in0.0 mm
05:12 AM 66.6°F19.2°C 58.4°F14.7°C 75% 9.2 mph ESE14.8 kmh ESE 20.6 mph33.2 kmh 28.89 in978.3 mb 0.00 in0.0 mm 0.00 in0.0 mm 0.00 in0.0 mm
05:11 AM 66.6°F19.2°C 58.4°F14.7°C 75% 10.1 mph SE16.3 kmh SE 20.6 mph33.2 kmh 28.89 in978.3 mb 0.00 in0.0 mm 0.00 in0.0 mm 0.00 in0.0 mm
05:10 AM 66.6°F19.2°C 58.4°F14.7°C 75% 13.0 mph SE20.9 kmh SE 18.6 mph29.9 kmh 28.89 in978.3 mb 0.00 in0.0 mm 0.00 in0.0 mm 0.00 in0.0 mm
05:09 AM 66.6°F19.2°C 58.0°F14.4°C 74% 18.6 mph SE29.9 kmh SE 18.6 mph29.9 kmh 28.89 in978.3 mb 0.00 in0.0 mm 0.00 in0.0 mm 0.00 in0.0 mm
05:08 AM 66.6°F19.2°C 58.0°F14.4°C 74% 14.1 mph SE22.7 kmh SE 16.3 mph26.2 kmh 28.89 in978.3 mb 0.00 in0.0 mm 0.00 in0.0 mm 0.00 in0.0 mm
05:07 AM 66.6°F19.2°C 58.0°F14.4°C 74% 12.3 mph SE19.8 kmh SE 14.3 mph23.0 kmh 28.90 in978.7 mb 0.00 in0.0 mm 0.00 in0.0 mm 0.00 in0.0 mm
05:06 AM 66.6°F19.2°C 58.0°F14.4°C 74% 10.7 mph SE17.2 kmh SE 14.3 mph23.0 kmh 28.90 in978.7 mb 0.00 in0.0 mm 0.00 in0.0 mm 0.00 in0.0 mm
05:05 AM 66.6°F19.2°C 58.0°F14.4°C 74% 6.5 mph SE10.5 kmh SE 12.5 mph20.1 kmh 28.90 in978.7 mb 0.00 in0.0 mm 0.00 in0.0 mm 0.00 in0.0 mm
05:04 AM 66.6°F19.2°C 58.0°F14.4°C 74% 11.9 mph SE19.2 kmh SE 12.1 mph19.5 kmh 28.90 in978.7 mb 0.00 in0.0 mm 0.00 in0.0 mm 0.00 in0.0 mm
05:03 AM 66.6°F19.2°C 58.0°F14.4°C 74% 10.1 mph SE16.3 kmh SE 11.9 mph19.2 kmh 28.90 in978.7 mb 0.00 in0.0 mm 0.00 in0.0 mm 0.00 in0.0 mm
05:02 AM 66.6°F19.2°C 58.0°F14.4°C 74% 6.3 mph SE10.1 kmh SE 10.5 mph16.9 kmh 28.91 in979.0 mb 0.00 in0.0 mm 0.00 in0.0 mm 0.00 in0.0 mm
05:01 AM 66.6°F19.2°C 58.0°F14.4°C 74% 6.3 mph SE10.1 kmh SE 10.5 mph16.9 kmh 28.91 in979.0 mb 0.00 in0.0 mm 0.00 in0.0 mm 0.00 in0.0 mm
05:00 AM 66.6°F19.2°C 58.0°F14.4°C 74% 7.2 mph SE11.6 kmh SE 9.6 mph15.4 kmh 28.91 in979.0 mb 0.00 in0.0 mm 0.00 in0.0 mm 0.00 in0.0 mm
04:59 AM 66.6°F19.2°C 58.0°F14.4°C 74% 2.5 mph SE4.0 kmh SE 9.6 mph15.4 kmh 28.91 in979.0 mb 0.00 in0.0 mm 0.00 in0.0 mm 0.00 in0.0 mm
04:58 AM 66.7°F19.3°C 58.2°F14.6°C 74% 5.8 mph SSE9.3 kmh SSE 9.6 mph15.4 kmh 28.91 in979.0 mb 0.00 in0.0 mm 0.00 in0.0 mm 0.00 in0.0 mm
04:57 AM 66.7°F19.3°C 57.8°F14.3°C 73% 5.1 mph SSE8.2 kmh SSE 9.6 mph15.4 kmh 28.91 in979.0 mb 0.00 in0.0 mm 0.00 in0.0 mm 0.00 in0.0 mm
04:56 AM 66.7°F19.3°C 57.8°F14.3°C 73% 7.6 mph SSE12.2 kmh SSE 9.6 mph15.4 kmh 28.91 in979.0 mb 0.00 in0.0 mm 0.00 in0.0 mm 0.00 in0.0 mm
04:55 AM 66.7°F19.3°C 57.8°F14.3°C 73% 4.9 mph SSE7.9 kmh SSE 8.5 mph13.7 kmh 28.91 in979.0 mb 0.00 in0.0 mm 0.00 in0.0 mm 0.00 in0.0 mm
04:54 AM 66.7°F19.3°C 57.8°F14.3°C 73% 3.6 mph SSE5.8 kmh SSE 8.5 mph13.7 kmh 28.91 in979.0 mb 0.00 in0.0 mm 0.00 in0.0 mm 0.00 in0.0 mm
04:53 AM 66.7°F19.3°C 57.8°F14.3°C 73% 7.8 mph SSE12.6 kmh SSE 8.5 mph13.7 kmh 28.91 in979.0 mb 0.00 in0.0 mm 0.00 in0.0 mm 0.00 in0.0 mm
04:52 AM 66.7°F19.3°C 57.8°F14.3°C 73% 3.1 mph SSE5.0 kmh SSE 8.5 mph13.7 kmh 28.91 in979.0 mb 0.00 in0.0 mm 0.00 in0.0 mm 0.00 in0.0 mm
04:51 AM 66.7°F19.3°C 57.8°F14.3°C 73% 3.8 mph SSE6.1 kmh SSE 8.5 mph13.7 kmh 28.91 in979.0 mb 0.00 in0.0 mm 0.00 in0.0 mm 0.00 in0.0 mm
04:50 AM 66.7°F19.3°C 57.8°F14.3°C 73% 7.8 mph SE12.6 kmh SE 8.5 mph13.7 kmh 28.91 in979.0 mb 0.00 in0.0 mm 0.00 in0.0 mm 0.00 in0.0 mm
04:49 AM 66.7°F19.3°C 57.8°F14.3°C 73% 4.0 mph SE6.4 kmh SE 7.2 mph11.6 kmh 28.91 in979.0 mb 0.00 in0.0 mm 0.00 in0.0 mm 0.00 in0.0 mm
04:48 AM 66.7°F19.3°C 57.8°F14.3°C 73% 5.8 mph SE9.3 kmh SE 7.2 mph11.6 kmh 28.91 in979.0 mb 0.00 in0.0 mm 0.00 in0.0 mm 0.00 in0.0 mm
04:47 AM 66.7°F19.3°C 57.8°F14.3°C 73% 4.0 mph SE6.4 kmh SE 8.1 mph13.0 kmh 28.91 in979.0 mb 0.00 in0.0 mm 0.00 in0.0 mm 0.00 in0.0 mm
04:46 AM 66.7°F19.3°C 57.8°F14.3°C 73% 4.3 mph SE6.9 kmh SE 8.1 mph13.0 kmh 28.91 in979.0 mb 0.00 in0.0 mm 0.00 in0.0 mm 0.00 in0.0 mm
04:45 AM 66.7°F19.3°C 57.8°F14.3°C 73% 3.6 mph SE5.8 kmh SE 8.1 mph13.0 kmh 28.91 in979.0 mb 0.00 in0.0 mm 0.00 in0.0 mm 0.00 in0.0 mm
04:44 AM 66.7°F19.3°C 57.8°F14.3°C 73% 3.1 mph SE5.0 kmh SE 8.1 mph13.0 kmh 28.91 in979.0 mb 0.00 in0.0 mm 0.00 in0.0 mm 0.00 in0.0 mm
04:43 AM 66.7°F19.3°C 57.8°F14.3°C 73% Calm Calm 8.1 mph13.0 kmh 28.90 in978.7 mb 0.00 in0.0 mm 0.00 in0.0 mm 0.00 in0.0 mm
04:42 AM 66.7°F19.3°C 57.8°F14.3°C 73% 6.9 mph SE11.1 kmh SE 8.1 mph13.0 kmh 28.90 in978.7 mb 0.00 in0.0 mm 0.00 in0.0 mm 0.00 in0.0 mm
04:41 AM 66.9°F19.4°C 58.0°F14.4°C 73% 4.5 mph SE7.2 kmh SE 8.1 mph13.0 kmh 28.90 in978.7 mb 0.00 in0.0 mm 0.00 in0.0 mm 0.00 in0.0 mm
04:40 AM 66.9°F19.4°C 58.0°F14.4°C 73% 5.1 mph SSE8.2 kmh SSE 8.1 mph13.0 kmh 28.89 in978.3 mb 0.00 in0.0 mm 0.00 in0.0 mm 0.00 in0.0 mm
04:39 AM 66.9°F19.4°C 58.0°F14.4°C 73% 5.8 mph SSE9.3 kmh SSE 8.1 mph13.0 kmh 28.90 in978.7 mb 0.00 in0.0 mm 0.00 in0.0 mm 0.00 in0.0 mm
04:38 AM 66.9°F19.4°C 57.6°F14.2°C 72% 4.7 mph SSE7.6 kmh SSE 8.1 mph13.0 kmh 28.90 in978.7 mb 0.00 in0.0 mm 0.00 in0.0 mm 0.00 in0.0 mm
04:37 AM 66.9°F19.4°C 57.6°F14.2°C 72% 4.7 mph SSE7.6 kmh SSE 8.1 mph13.0 kmh 28.90 in978.7 mb 0.00 in0.0 mm 0.00 in0.0 mm 0.00 in0.0 mm
04:36 AM 66.9°F19.4°C 57.6°F14.2°C 72% 8.1 mph SSE13.0 kmh SSE 8.1 mph13.0 kmh 28.90 in978.7 mb 0.00 in0.0 mm 0.00 in0.0 mm 0.00 in0.0 mm
04:35 AM 66.9°F19.4°C 57.6°F14.2°C 72% 5.4 mph S8.7 kmh S 7.8 mph12.6 kmh 28.90 in978.7 mb 0.00 in0.0 mm 0.00 in0.0 mm 0.00 in0.0 mm
04:34 AM 66.9°F19.4°C 57.6°F14.2°C 72% 5.8 mph S9.3 kmh S 7.8 mph12.6 kmh 28.90 in978.7 mb 0.00 in0.0 mm 0.00 in0.0 mm 0.00 in0.0 mm
04:33 AM 66.9°F19.4°C 57.6°F14.2°C 72% 5.4 mph S8.7 kmh S 8.3 mph13.4 kmh 28.90 in978.7 mb 0.00 in0.0 mm 0.00 in0.0 mm 0.00 in0.0 mm
04:32 AM 66.9°F19.4°C 57.6°F14.2°C 72% 6.5 mph S10.5 kmh S 8.3 mph13.4 kmh 28.91 in979.0 mb 0.00 in0.0 mm 0.00 in0.0 mm 0.00 in0.0 mm
04:31 AM 66.9°F19.4°C 57.6°F14.2°C 72% 6.5 mph S10.5 kmh S 8.3 mph13.4 kmh 28.91 in979.0 mb 0.00 in0.0 mm 0.00 in0.0 mm 0.00 in0.0 mm
04:30 AM 66.9°F19.4°C 57.6°F14.2°C 72% 5.1 mph S8.2 kmh S 8.3 mph13.4 kmh 28.91 in979.0 mb 0.00 in0.0 mm 0.00 in0.0 mm 0.00 in0.0 mm
04:29 AM 66.9°F19.4°C 57.6°F14.2°C 72% 5.8 mph S9.3 kmh S 8.3 mph13.4 kmh 28.91 in979.0 mb 0.00 in0.0 mm 0.00 in0.0 mm 0.00 in0.0 mm
04:28 AM 66.9°F19.4°C 57.6°F14.2°C 72% 1.3 mph S2.1 kmh S 8.3 mph13.4 kmh 28.91 in979.0 mb 0.00 in0.0 mm 0.00 in0.0 mm 0.00 in0.0 mm
04:27 AM 66.9°F19.4°C 57.6°F14.2°C 72% 1.1 mph S1.8 kmh S 8.3 mph13.4 kmh 28.91 in979.0 mb 0.00 in0.0 mm 0.00 in0.0 mm 0.00 in0.0 mm
04:26 AM 66.9°F19.4°C 57.6°F14.2°C 72% 4.5 mph S7.2 kmh S 8.3 mph13.4 kmh 28.91 in979.0 mb 0.00 in0.0 mm 0.00 in0.0 mm 0.00 in0.0 mm
04:25 AM 66.9°F19.4°C 57.6°F14.2°C 72% 4.0 mph S6.4 kmh S 8.3 mph13.4 kmh 28.91 in979.0 mb 0.00 in0.0 mm 0.00 in0.0 mm 0.00 in0.0 mm
04:24 AM 66.9°F19.4°C 57.6°F14.2°C 72% 5.8 mph S9.3 kmh S 8.3 mph13.4 kmh 28.91 in979.0 mb 0.00 in0.0 mm 0.00 in0.0 mm 0.00 in0.0 mm
04:23 AM 66.9°F19.4°C 57.6°F14.2°C 72% 5.1 mph S8.2 kmh S 7.4 mph11.9 kmh 28.91 in979.0 mb 0.00 in0.0 mm 0.00 in0.0 mm 0.00 in0.0 mm
04:22 AM 66.9°F19.4°C 57.6°F14.2°C 72% 4.7 mph S7.6 kmh S 6.7 mph10.8 kmh 28.91 in979.0 mb 0.00 in0.0 mm 0.00 in0.0 mm 0.00 in0.0 mm
04:21 AM 66.9°F19.4°C 58.0°F14.4°C 73% 3.8 mph S6.1 kmh S 6.5 mph10.5 kmh 28.90 in978.7 mb 0.00 in0.0 mm 0.00 in0.0 mm 0.00 in0.0 mm
04:20 AM 66.9°F19.4°C 58.0°F14.4°C 73% 4.3 mph S6.9 kmh S 7.2 mph11.6 kmh 28.91 in979.0 mb 0.00 in0.0 mm 0.00 in0.0 mm 0.00 in0.0 mm
04:19 AM 66.9°F19.4°C 58.0°F14.4°C 73% 3.4 mph SSE5.5 kmh SSE 7.2 mph11.6 kmh 28.90 in978.7 mb 0.00 in0.0 mm 0.00 in0.0 mm 0.00 in0.0 mm
04:18 AM 66.9°F19.4°C 58.0°F14.4°C 73% 3.6 mph SSE5.8 kmh SSE 7.8 mph12.6 kmh 28.90 in978.7 mb 0.00 in0.0 mm 0.00 in0.0 mm 0.00 in0.0 mm
04:17 AM 66.9°F19.4°C 58.0°F14.4°C 73% 4.0 mph SSE6.4 kmh SSE 7.8 mph12.6 kmh 28.90 in978.7 mb 0.00 in0.0 mm 0.00 in0.0 mm 0.00 in0.0 mm
04:16 AM 67.1°F19.5°C 58.2°F14.6°C 73% 3.6 mph SSE5.8 kmh SSE 7.8 mph12.6 kmh 28.90 in978.7 mb 0.00 in0.0 mm 0.00 in0.0 mm 0.00 in0.0 mm
04:15 AM 67.1°F19.5°C 58.2°F14.6°C 73% 3.1 mph SSE5.0 kmh SSE 10.1 mph16.3 kmh 28.90 in978.7 mb 0.00 in0.0 mm 0.00 in0.0 mm 0.00 in0.0 mm
04:14 AM 66.9°F19.4°C 58.0°F14.4°C 73% 5.6 mph SSE9.0 kmh SSE 14.3 mph23.0 kmh 28.90 in978.7 mb 0.00 in0.0 mm 0.00 in0.0 mm 0.00 in0.0 mm
04:13 AM 67.1°F19.5°C 58.2°F14.6°C 73% 4.0 mph SSE6.4 kmh SSE 14.3 mph23.0 kmh 28.90 in978.7 mb 0.00 in0.0 mm 0.00 in0.0 mm 0.00 in0.0 mm
04:12 AM 67.1°F19.5°C 58.2°F14.6°C 73% 4.5 mph SSE7.2 kmh SSE 14.3 mph23.0 kmh 28.90 in978.7 mb 0.00 in0.0 mm 0.00 in0.0 mm 0.00 in0.0 mm
04:11 AM 66.9°F19.4°C 58.0°F14.4°C 73% 4.7 mph SSE7.6 kmh SSE 14.3 mph23.0 kmh 28.90 in978.7 mb 0.00 in0.0 mm 0.00 in0.0 mm 0.00 in0.0 mm
04:10 AM 67.1°F19.5°C 58.2°F14.6°C 73% 4.7 mph SSE7.6 kmh SSE 14.3 mph23.0 kmh 28.90 in978.7 mb 0.00 in0.0 mm 0.00 in0.0 mm 0.00 in0.0 mm
04:09 AM 67.1°F19.5°C 58.2°F14.6°C 73% 5.1 mph SSE8.2 kmh SSE 14.3 mph23.0 kmh 28.90 in978.7 mb 0.00 in0.0 mm 0.00 in0.0 mm 0.00 in0.0 mm
04:08 AM 67.1°F19.5°C 58.2°F14.6°C 73% 4.9 mph SSE7.9 kmh SSE 14.3 mph23.0 kmh 28.90 in978.7 mb 0.00 in0.0 mm 0.00 in0.0 mm 0.00 in0.0 mm
04:07 AM 67.1°F19.5°C 58.2°F14.6°C 73% 7.4 mph SSE11.9 kmh SSE 14.3 mph23.0 kmh 28.90 in978.7 mb 0.00 in0.0 mm 0.00 in0.0 mm 0.00 in0.0 mm
04:06 AM 67.1°F19.5°C 58.2°F14.6°C 73% 5.6 mph SSE9.0 kmh SSE 14.3 mph23.0 kmh 28.90 in978.7 mb 0.00 in0.0 mm 0.00 in0.0 mm 0.00 in0.0 mm
04:05 AM 67.1°F19.5°C 58.2°F14.6°C 73% 10.7 mph S17.2 kmh S 14.3 mph23.0 kmh 28.90 in978.7 mb 0.00 in0.0 mm 0.00 in0.0 mm 0.00 in0.0 mm
04:04 AM 67.1°F19.5°C 58.2°F14.6°C 73% 9.8 mph S15.8 kmh S 12.8 mph20.6 kmh 28.90 in978.7 mb 0.00 in0.0 mm 0.00 in0.0 mm 0.00 in0.0 mm
04:03 AM 67.1°F19.5°C 58.2°F14.6°C 73% 8.7 mph S14.0 kmh S 9.4 mph15.1 kmh 28.90 in978.7 mb 0.00 in0.0 mm 0.00 in0.0 mm 0.00 in0.0 mm
04:02 AM 67.1°F19.5°C 58.2°F14.6°C 73% 3.8 mph S6.1 kmh S 8.9 mph14.3 kmh 28.90 in978.7 mb 0.00 in0.0 mm 0.00 in0.0 mm 0.00 in0.0 mm
04:01 AM 67.1°F19.5°C 58.2°F14.6°C 73% 6.7 mph S10.8 kmh S 8.3 mph13.4 kmh 28.90 in978.7 mb 0.00 in0.0 mm 0.00 in0.0 mm 0.00 in0.0 mm
04:00 AM 67.1°F19.5°C 58.2°F14.6°C 73% 4.5 mph S7.2 kmh S 8.3 mph13.4 kmh 28.90 in978.7 mb 0.00 in0.0 mm 0.00 in0.0 mm 0.00 in0.0 mm
03:59 AM 67.1°F19.5°C 58.5°F14.7°C 74% 2.2 mph SSE3.5 kmh SSE 8.3 mph13.4 kmh 28.89 in978.3 mb 0.00 in0.0 mm 0.00 in0.0 mm 0.00 in0.0 mm
03:58 AM 67.1°F19.5°C 58.5°F14.7°C 74% 1.6 mph SSE2.6 kmh SSE 8.3 mph13.4 kmh 28.89 in978.3 mb 0.00 in0.0 mm 0.00 in0.0 mm 0.00 in0.0 mm
03:57 AM 67.1°F19.5°C 58.5°F14.7°C 74% Calm Calm 8.3 mph13.4 kmh 28.89 in978.3 mb 0.00 in0.0 mm 0.00 in0.0 mm 0.00 in0.0 mm
03:56 AM 67.1°F19.5°C 58.5°F14.7°C 74% 4.3 mph SSE6.9 kmh SSE 8.3 mph13.4 kmh 28.90 in978.7 mb 0.00 in0.0 mm 0.00 in0.0 mm 0.00 in0.0 mm
03:55 AM 67.1°F19.5°C 58.5°F14.7°C 74% 4.7 mph SSE7.6 kmh SSE 8.3 mph13.4 kmh 28.89 in978.3 mb 0.00 in0.0 mm 0.00 in0.0 mm 0.00 in0.0 mm
03:54 AM 67.1°F19.5°C 58.5°F14.7°C 74% 2.9 mph SSE4.7 kmh SSE 8.3 mph13.4 kmh 28.90 in978.7 mb 0.00 in0.0 mm 0.00 in0.0 mm 0.00 in0.0 mm
03:53 AM 67.1°F19.5°C 58.5°F14.7°C 74% 2.7 mph SE4.3 kmh SE 8.3 mph13.4 kmh 28.90 in978.7 mb 0.00 in0.0 mm 0.00 in0.0 mm 0.00 in0.0 mm
03:52 AM 67.1°F19.5°C 58.5°F14.7°C 74% 8.3 mph SE13.4 kmh SE 8.3 mph13.4 kmh 28.89 in978.3 mb 0.00 in0.0 mm 0.00 in0.0 mm 0.00 in0.0 mm
03:51 AM 67.1°F19.5°C 58.5°F14.7°C 74% Calm Calm 4.3 mph6.9 kmh 28.89 in978.3 mb 0.00 in0.0 mm 0.00 in0.0 mm 0.00 in0.0 mm
03:50 AM 67.1°F19.5°C 58.5°F14.7°C 74% 0.7 mph SE1.1 kmh SE 5.1 mph8.2 kmh 28.89 in978.3 mb 0.00 in0.0 mm 0.00 in0.0 mm 0.00 in0.0 mm
03:49 AM 67.1°F19.5°C 58.5°F14.7°C 74% 0.4 mph SE0.6 kmh SE 5.1 mph8.2 kmh 28.89 in978.3 mb 0.00 in0.0 mm 0.00 in0.0 mm 0.00 in0.0 mm
03:48 AM 67.1°F19.5°C 58.5°F14.7°C 74% 2.0 mph SE3.2 kmh SE 5.1 mph8.2 kmh 28.89 in978.3 mb 0.00 in0.0 mm 0.00 in0.0 mm 0.00 in0.0 mm
03:47 AM 67.1°F19.5°C 58.5°F14.7°C 74% Calm Calm 5.1 mph8.2 kmh 28.89 in978.3 mb 0.00 in0.0 mm 0.00 in0.0 mm 0.00 in0.0 mm
03:46 AM 67.1°F19.5°C 58.5°F14.7°C 74% 0.4 mph SE0.6 kmh SE 5.1 mph8.2 kmh 28.89 in978.3 mb 0.00 in0.0 mm 0.00 in0.0 mm 0.00 in0.0 mm
03:45 AM 67.1°F19.5°C 58.5°F14.7°C 74% Calm Calm 5.1 mph8.2 kmh 28.89 in978.3 mb 0.00 in0.0 mm 0.00 in0.0 mm 0.00 in0.0 mm
03:44 AM 67.1°F19.5°C 58.5°F14.7°C 74% Calm Calm 5.1 mph8.2 kmh 28.89 in978.3 mb 0.00 in0.0 mm 0.00 in0.0 mm 0.00 in0.0 mm
03:43 AM 67.1°F19.5°C 58.5°F14.7°C 74% Calm Calm 5.1 mph8.2 kmh 28.89 in978.3 mb 0.00 in0.0 mm 0.00 in0.0 mm 0.00 in0.0 mm
03:42 AM 67.1°F19.5°C 58.5°F14.7°C 74% Calm Calm 5.1 mph8.2 kmh 28.90 in978.7 mb 0.00 in0.0 mm 0.00 in0.0 mm 0.00 in0.0 mm
03:41 AM 67.1°F19.5°C 58.5°F14.7°C 74% 0.7 mph SE1.1 kmh SE 5.1 mph8.2 kmh 28.89 in978.3 mb 0.00 in0.0 mm 0.00 in0.0 mm 0.00 in0.0 mm
03:40 AM 67.3°F19.6°C 58.7°F14.8°C 74% 4.7 mph SE7.6 kmh SE 4.7 mph7.6 kmh 28.90 in978.7 mb 0.00 in0.0 mm 0.00 in0.0 mm 0.00 in0.0 mm
03:39 AM 67.1°F19.5°C 58.5°F14.7°C 74% 1.8 mph SE2.9 kmh SE 2.2 mph3.5 kmh 28.89 in978.3 mb 0.00 in0.0 mm 0.00 in0.0 mm 0.00 in0.0 mm
03:38 AM 67.3°F19.6°C 58.7°F14.8°C 74% Calm Calm 2.2 mph3.5 kmh 28.89 in978.3 mb 0.00 in0.0 mm 0.00 in0.0 mm 0.00 in0.0 mm
03:37 AM 67.3°F19.6°C 58.7°F14.8°C 74% Calm Calm 2.2 mph3.5 kmh 28.89 in978.3 mb 0.00 in0.0 mm 0.00 in0.0 mm 0.00 in0.0 mm
03:36 AM 67.3°F19.6°C 58.7°F14.8°C 74% Calm Calm -- 28.89 in978.3 mb 0.00 in0.0 mm 0.00 in0.0 mm 0.00 in0.0 mm
03:35 AM 67.3°F19.6°C 58.7°F14.8°C 74% Calm Calm -- 28.89 in978.3 mb 0.00 in0.0 mm 0.00 in0.0 mm 0.00 in0.0 mm
03:34 AM 67.3°F19.6°C 58.7°F14.8°C 74% Calm Calm -- 28.89 in978.3 mb 0.00 in0.0 mm 0.00 in0.0 mm 0.00 in0.0 mm
03:33 AM 67.3°F19.6°C 58.7°F14.8°C 74% Calm Calm -- 28.89 in978.3 mb 0.00 in0.0 mm 0.00 in0.0 mm 0.00 in0.0 mm
03:32 AM 67.3°F19.6°C 58.7°F14.8°C 74% Calm Calm -- 28.89 in978.3 mb 0.00 in0.0 mm 0.00 in0.0 mm 0.00 in0.0 mm
03:31 AM 67.3°F19.6°C 58.7°F14.8°C 74% Calm Calm -- 28.89 in978.3 mb 0.00 in0.0 mm 0.00 in0.0 mm 0.00 in0.0 mm
03:30 AM 67.3°F19.6°C 58.7°F14.8°C 74% Calm Calm -- 28.89 in978.3 mb 0.00 in0.0 mm 0.00 in0.0 mm 0.00 in0.0 mm
03:29 AM 67.3°F19.6°C 58.7°F14.8°C 74% Calm Calm -- 28.88 in978.0 mb 0.00 in0.0 mm 0.00 in0.0 mm 0.00 in0.0 mm
03:28 AM 67.3°F19.6°C 58.7°F14.8°C 74% Calm Calm -- 28.89 in978.3 mb 0.00 in0.0 mm 0.00 in0.0 mm 0.00 in0.0 mm
03:27 AM 67.3°F19.6°C 58.7°F14.8°C 74% Calm Calm 1.3 mph2.1 kmh 28.89 in978.3 mb 0.00 in0.0 mm 0.00 in0.0 mm 0.00 in0.0 mm
03:26 AM 67.3°F19.6°C 58.7°F14.8°C 74% Calm Calm 3.8 mph6.1 kmh 28.88 in978.0 mb 0.00 in0.0 mm 0.00 in0.0 mm 0.00 in0.0 mm
03:25 AM 67.3°F19.6°C 58.7°F14.8°C 74% Calm Calm 6.0 mph9.7 kmh 28.88 in978.0 mb 0.00 in0.0 mm 0.00 in0.0 mm 0.00 in0.0 mm
03:24 AM 67.3°F19.6°C 58.7°F14.8°C 74% Calm Calm 9.8 mph15.8 kmh 28.88 in978.0 mb 0.00 in0.0 mm 0.00 in0.0 mm 0.00 in0.0 mm
03:23 AM 67.3°F19.6°C 58.7°F14.8°C 74% Calm Calm 9.8 mph15.8 kmh 28.88 in978.0 mb 0.00 in0.0 mm 0.00 in0.0 mm 0.00 in0.0 mm
03:22 AM 67.3°F19.6°C 58.7°F14.8°C 74% Calm Calm 9.8 mph15.8 kmh 28.88 in978.0 mb 0.00 in0.0 mm 0.00 in0.0 mm 0.00 in0.0 mm
03:21 AM 67.3°F1